<?xml version="1.0" encoding="UTF-8" standalone="no" ?>
<gpx xmlns="http://www.topografix.com/GPX/1/1" xmlns:xsi="http://www.w3.org/2001/XMLSchema-instance" xsi:schemaLocation="http://www.topografix.com/GPX/1/1 http://www.topografix.com/GPX/1/1/gpx.xsd" version="1.1" creator="VisuGPX - https://www.visugpx.com">
  <metadata>
    <name>2021-05-09 11:53:55</name>
  </metadata>
  <trk>
    <name><![CDATA[2021-05-09 11:53:55]]></name>
    <trkseg>
      <trkpt lat="49.49251" lon="5.76274">
        <ele>364.93</ele>
        <time>2021-05-09T07:05:15Z</time>
      </trkpt>
      <trkpt lat="49.49251" lon="5.76274">
        <ele>365.14</ele>
        <time>2021-05-09T07:05:16Z</time>
      </trkpt>
      <trkpt lat="49.49252" lon="5.76274">
        <ele>365.47</ele>
        <time>2021-05-09T07:05:37Z</time>
      </trkpt>
      <trkpt lat="49.49252" lon="5.76272">
        <ele>365.23</ele>
        <time>2021-05-09T07:06:00Z</time>
      </trkpt>
      <trkpt lat="49.49251" lon="5.7627">
        <ele>365.23</ele>
        <time>2021-05-09T07:06:01Z</time>
      </trkpt>
      <trkpt lat="49.49251" lon="5.76268">
        <ele>365.23</ele>
        <time>2021-05-09T07:06:02Z</time>
      </trkpt>
      <trkpt lat="49.49251" lon="5.76264">
        <ele>365.23</ele>
        <time>2021-05-09T07:06:03Z</time>
      </trkpt>
      <trkpt lat="49.49252" lon="5.76261">
        <ele>365.21</ele>
        <time>2021-05-09T07:06:04Z</time>
      </trkpt>
      <trkpt lat="49.49254" lon="5.76259">
        <ele>365.15</ele>
        <time>2021-05-09T07:06:05Z</time>
      </trkpt>
      <trkpt lat="49.49257" lon="5.76258">
        <ele>365.08</ele>
        <time>2021-05-09T07:06:06Z</time>
      </trkpt>
      <trkpt lat="49.4926" lon="5.76257">
        <ele>365</ele>
        <time>2021-05-09T07:06:07Z</time>
      </trkpt>
      <trkpt lat="49.49264" lon="5.76258">
        <ele>364.91</ele>
        <time>2021-05-09T07:06:08Z</time>
      </trkpt>
      <trkpt lat="49.49268" lon="5.7626">
        <ele>364.81</ele>
        <time>2021-05-09T07:06:09Z</time>
      </trkpt>
      <trkpt lat="49.49271" lon="5.76262">
        <ele>364.69</ele>
        <time>2021-05-09T07:06:10Z</time>
      </trkpt>
      <trkpt lat="49.49274" lon="5.76264">
        <ele>364.58</ele>
        <time>2021-05-09T07:06:11Z</time>
      </trkpt>
      <trkpt lat="49.49277" lon="5.76268">
        <ele>364.49</ele>
        <time>2021-05-09T07:06:12Z</time>
      </trkpt>
      <trkpt lat="49.49279" lon="5.76272">
        <ele>364.39</ele>
        <time>2021-05-09T07:06:13Z</time>
      </trkpt>
      <trkpt lat="49.4928" lon="5.76277">
        <ele>364.28</ele>
        <time>2021-05-09T07:06:14Z</time>
      </trkpt>
      <trkpt lat="49.49281" lon="5.76282">
        <ele>364.18</ele>
        <time>2021-05-09T07:06:15Z</time>
      </trkpt>
      <trkpt lat="49.49281" lon="5.76288">
        <ele>364.13</ele>
        <time>2021-05-09T07:06:16Z</time>
      </trkpt>
      <trkpt lat="49.49281" lon="5.76293">
        <ele>364.07</ele>
        <time>2021-05-09T07:06:17Z</time>
      </trkpt>
      <trkpt lat="49.49281" lon="5.76299">
        <ele>364</ele>
        <time>2021-05-09T07:06:18Z</time>
      </trkpt>
      <trkpt lat="49.4928" lon="5.76306">
        <ele>363.97</ele>
        <time>2021-05-09T07:06:19Z</time>
      </trkpt>
      <trkpt lat="49.49279" lon="5.76312">
        <ele>363.93</ele>
        <time>2021-05-09T07:06:20Z</time>
      </trkpt>
      <trkpt lat="49.49279" lon="5.76319">
        <ele>363.91</ele>
        <time>2021-05-09T07:06:21Z</time>
      </trkpt>
      <trkpt lat="49.49279" lon="5.76326">
        <ele>363.86</ele>
        <time>2021-05-09T07:06:22Z</time>
      </trkpt>
      <trkpt lat="49.49281" lon="5.76354">
        <ele>363.51</ele>
        <time>2021-05-09T07:06:26Z</time>
      </trkpt>
      <trkpt lat="49.49301" lon="5.76427">
        <ele>362.35</ele>
        <time>2021-05-09T07:06:37Z</time>
      </trkpt>
      <trkpt lat="49.4932" lon="5.76462">
        <ele>361.98</ele>
        <time>2021-05-09T07:06:43Z</time>
      </trkpt>
      <trkpt lat="49.49324" lon="5.76468">
        <ele>361.98</ele>
        <time>2021-05-09T07:06:44Z</time>
      </trkpt>
      <trkpt lat="49.49328" lon="5.76473">
        <ele>361.91</ele>
        <time>2021-05-09T07:06:45Z</time>
      </trkpt>
      <trkpt lat="49.49333" lon="5.76477">
        <ele>361.77</ele>
        <time>2021-05-09T07:06:46Z</time>
      </trkpt>
      <trkpt lat="49.49339" lon="5.76481">
        <ele>361.53</ele>
        <time>2021-05-09T07:06:47Z</time>
      </trkpt>
      <trkpt lat="49.49397" lon="5.76512">
        <ele>360.53</ele>
        <time>2021-05-09T07:06:58Z</time>
      </trkpt>
      <trkpt lat="49.49402" lon="5.76512">
        <ele>360.61</ele>
        <time>2021-05-09T07:06:59Z</time>
      </trkpt>
      <trkpt lat="49.49428" lon="5.76511">
        <ele>361.22</ele>
        <time>2021-05-09T07:07:04Z</time>
      </trkpt>
      <trkpt lat="49.49433" lon="5.76514">
        <ele>361.33</ele>
        <time>2021-05-09T07:07:05Z</time>
      </trkpt>
      <trkpt lat="49.49436" lon="5.7652">
        <ele>361.38</ele>
        <time>2021-05-09T07:07:06Z</time>
      </trkpt>
      <trkpt lat="49.49437" lon="5.76527">
        <ele>361.41</ele>
        <time>2021-05-09T07:07:07Z</time>
      </trkpt>
      <trkpt lat="49.49437" lon="5.76536">
        <ele>361.27</ele>
        <time>2021-05-09T07:07:08Z</time>
      </trkpt>
      <trkpt lat="49.49436" lon="5.76546">
        <ele>360.8</ele>
        <time>2021-05-09T07:07:09Z</time>
      </trkpt>
      <trkpt lat="49.49437" lon="5.76556">
        <ele>360.19</ele>
        <time>2021-05-09T07:07:10Z</time>
      </trkpt>
      <trkpt lat="49.49442" lon="5.766">
        <ele>356.97</ele>
        <time>2021-05-09T07:07:14Z</time>
      </trkpt>
      <trkpt lat="49.49449" lon="5.76621">
        <ele>355.99</ele>
        <time>2021-05-09T07:07:16Z</time>
      </trkpt>
      <trkpt lat="49.49451" lon="5.76631">
        <ele>355.21</ele>
        <time>2021-05-09T07:07:17Z</time>
      </trkpt>
      <trkpt lat="49.49452" lon="5.76643">
        <ele>354.44</ele>
        <time>2021-05-09T07:07:18Z</time>
      </trkpt>
      <trkpt lat="49.49453" lon="5.76664">
        <ele>351.77</ele>
        <time>2021-05-09T07:07:20Z</time>
      </trkpt>
      <trkpt lat="49.49444" lon="5.76686">
        <ele>349.44</ele>
        <time>2021-05-09T07:07:24Z</time>
      </trkpt>
      <trkpt lat="49.49409" lon="5.76708">
        <ele>347.13</ele>
        <time>2021-05-09T07:07:33Z</time>
      </trkpt>
      <trkpt lat="49.49383" lon="5.76728">
        <ele>345.88</ele>
        <time>2021-05-09T07:07:39Z</time>
      </trkpt>
      <trkpt lat="49.49334" lon="5.7676">
        <ele>345.98</ele>
        <time>2021-05-09T07:07:50Z</time>
      </trkpt>
      <trkpt lat="49.493" lon="5.76792">
        <ele>346.15</ele>
        <time>2021-05-09T07:07:58Z</time>
      </trkpt>
      <trkpt lat="49.4929" lon="5.76802">
        <ele>346.27</ele>
        <time>2021-05-09T07:08:01Z</time>
      </trkpt>
      <trkpt lat="49.49254" lon="5.76843">
        <ele>346.89</ele>
        <time>2021-05-09T07:08:09Z</time>
      </trkpt>
      <trkpt lat="49.49238" lon="5.7687">
        <ele>345.14</ele>
        <time>2021-05-09T07:08:14Z</time>
      </trkpt>
      <trkpt lat="49.49218" lon="5.76897">
        <ele>343.67</ele>
        <time>2021-05-09T07:08:18Z</time>
      </trkpt>
      <trkpt lat="49.49183" lon="5.76933">
        <ele>339.83</ele>
        <time>2021-05-09T07:08:23Z</time>
      </trkpt>
      <trkpt lat="49.49177" lon="5.76941">
        <ele>339.2</ele>
        <time>2021-05-09T07:08:24Z</time>
      </trkpt>
      <trkpt lat="49.49162" lon="5.76982">
        <ele>337.62</ele>
        <time>2021-05-09T07:08:30Z</time>
      </trkpt>
      <trkpt lat="49.49155" lon="5.76987">
        <ele>337.15</ele>
        <time>2021-05-09T07:08:32Z</time>
      </trkpt>
      <trkpt lat="49.4914" lon="5.76998">
        <ele>338.64</ele>
        <time>2021-05-09T07:08:44Z</time>
      </trkpt>
      <trkpt lat="49.49136" lon="5.77003">
        <ele>338.75</ele>
        <time>2021-05-09T07:08:56Z</time>
      </trkpt>
      <trkpt lat="49.4913" lon="5.7701">
        <ele>338.75</ele>
        <time>2021-05-09T07:09:02Z</time>
      </trkpt>
      <trkpt lat="49.49117" lon="5.77014">
        <ele>338.26</ele>
        <time>2021-05-09T07:09:08Z</time>
      </trkpt>
      <trkpt lat="49.49085" lon="5.77008">
        <ele>338.5</ele>
        <time>2021-05-09T07:09:21Z</time>
      </trkpt>
      <trkpt lat="49.49072" lon="5.76999">
        <ele>339</ele>
        <time>2021-05-09T07:09:26Z</time>
      </trkpt>
      <trkpt lat="49.49035" lon="5.76996">
        <ele>338.35</ele>
        <time>2021-05-09T07:09:36Z</time>
      </trkpt>
      <trkpt lat="49.49021" lon="5.76996">
        <ele>337.64</ele>
        <time>2021-05-09T07:09:39Z</time>
      </trkpt>
      <trkpt lat="49.48981" lon="5.76985">
        <ele>334.77</ele>
        <time>2021-05-09T07:09:47Z</time>
      </trkpt>
      <trkpt lat="49.48969" lon="5.7698">
        <ele>334.52</ele>
        <time>2021-05-09T07:09:50Z</time>
      </trkpt>
      <trkpt lat="49.48932" lon="5.76975">
        <ele>334.05</ele>
        <time>2021-05-09T07:09:57Z</time>
      </trkpt>
      <trkpt lat="49.48885" lon="5.76965">
        <ele>334.71</ele>
        <time>2021-05-09T07:10:07Z</time>
      </trkpt>
      <trkpt lat="49.48856" lon="5.76954">
        <ele>334.67</ele>
        <time>2021-05-09T07:10:13Z</time>
      </trkpt>
      <trkpt lat="49.48823" lon="5.76949">
        <ele>333.93</ele>
        <time>2021-05-09T07:10:18Z</time>
      </trkpt>
      <trkpt lat="49.48811" lon="5.76944">
        <ele>333.17</ele>
        <time>2021-05-09T07:10:20Z</time>
      </trkpt>
      <trkpt lat="49.48788" lon="5.76931">
        <ele>330.61</ele>
        <time>2021-05-09T07:10:24Z</time>
      </trkpt>
      <trkpt lat="49.48747" lon="5.76891">
        <ele>330.86</ele>
        <time>2021-05-09T07:10:33Z</time>
      </trkpt>
      <trkpt lat="49.48718" lon="5.76845">
        <ele>332.68</ele>
        <time>2021-05-09T07:10:44Z</time>
      </trkpt>
      <trkpt lat="49.48714" lon="5.76836">
        <ele>333.08</ele>
        <time>2021-05-09T07:10:46Z</time>
      </trkpt>
      <trkpt lat="49.48696" lon="5.76806">
        <ele>334.82</ele>
        <time>2021-05-09T07:10:55Z</time>
      </trkpt>
      <trkpt lat="49.48688" lon="5.76785">
        <ele>335.63</ele>
        <time>2021-05-09T07:11:00Z</time>
      </trkpt>
      <trkpt lat="49.48685" lon="5.76777">
        <ele>335.69</ele>
        <time>2021-05-09T07:11:02Z</time>
      </trkpt>
      <trkpt lat="49.48651" lon="5.76727">
        <ele>335.45</ele>
        <time>2021-05-09T07:11:16Z</time>
      </trkpt>
      <trkpt lat="49.48626" lon="5.7668">
        <ele>334.76</ele>
        <time>2021-05-09T07:11:26Z</time>
      </trkpt>
      <trkpt lat="49.48606" lon="5.76638">
        <ele>333.4</ele>
        <time>2021-05-09T07:11:34Z</time>
      </trkpt>
      <trkpt lat="49.4857" lon="5.76581">
        <ele>332.47</ele>
        <time>2021-05-09T07:11:45Z</time>
      </trkpt>
      <trkpt lat="49.48563" lon="5.76567">
        <ele>332.28</ele>
        <time>2021-05-09T07:11:47Z</time>
      </trkpt>
      <trkpt lat="49.48527" lon="5.76501">
        <ele>330.27</ele>
        <time>2021-05-09T07:11:58Z</time>
      </trkpt>
      <trkpt lat="49.48508" lon="5.76469">
        <ele>329.7</ele>
        <time>2021-05-09T07:12:04Z</time>
      </trkpt>
      <trkpt lat="49.48497" lon="5.76448">
        <ele>329.49</ele>
        <time>2021-05-09T07:12:08Z</time>
      </trkpt>
      <trkpt lat="49.48465" lon="5.76404">
        <ele>330.09</ele>
        <time>2021-05-09T07:12:19Z</time>
      </trkpt>
      <trkpt lat="49.48432" lon="5.76367">
        <ele>329.95</ele>
        <time>2021-05-09T07:12:28Z</time>
      </trkpt>
      <trkpt lat="49.48385" lon="5.76327">
        <ele>329.06</ele>
        <time>2021-05-09T07:12:39Z</time>
      </trkpt>
      <trkpt lat="49.48381" lon="5.76322">
        <ele>329.27</ele>
        <time>2021-05-09T07:12:40Z</time>
      </trkpt>
      <trkpt lat="49.48363" lon="5.76305">
        <ele>330.18</ele>
        <time>2021-05-09T07:12:44Z</time>
      </trkpt>
      <trkpt lat="49.48328" lon="5.76278">
        <ele>330.57</ele>
        <time>2021-05-09T07:12:54Z</time>
      </trkpt>
      <trkpt lat="49.48303" lon="5.76242">
        <ele>332.63</ele>
        <time>2021-05-09T07:13:05Z</time>
      </trkpt>
      <trkpt lat="49.4828" lon="5.76219">
        <ele>334.53</ele>
        <time>2021-05-09T07:13:15Z</time>
      </trkpt>
      <trkpt lat="49.48256" lon="5.76185">
        <ele>335.35</ele>
        <time>2021-05-09T07:13:25Z</time>
      </trkpt>
      <trkpt lat="49.48233" lon="5.76142">
        <ele>336.59</ele>
        <time>2021-05-09T07:13:36Z</time>
      </trkpt>
      <trkpt lat="49.48208" lon="5.76094">
        <ele>338.24</ele>
        <time>2021-05-09T07:13:47Z</time>
      </trkpt>
      <trkpt lat="49.48205" lon="5.7609">
        <ele>338.24</ele>
        <time>2021-05-09T07:13:48Z</time>
      </trkpt>
      <trkpt lat="49.48191" lon="5.76085">
        <ele>338.85</ele>
        <time>2021-05-09T07:13:53Z</time>
      </trkpt>
      <trkpt lat="49.4815" lon="5.76097">
        <ele>339.55</ele>
        <time>2021-05-09T07:14:06Z</time>
      </trkpt>
      <trkpt lat="49.48119" lon="5.76115">
        <ele>341.39</ele>
        <time>2021-05-09T07:14:18Z</time>
      </trkpt>
      <trkpt lat="49.48089" lon="5.76127">
        <ele>341.95</ele>
        <time>2021-05-09T07:14:28Z</time>
      </trkpt>
      <trkpt lat="49.48059" lon="5.7614">
        <ele>341.63</ele>
        <time>2021-05-09T07:14:38Z</time>
      </trkpt>
      <trkpt lat="49.4805" lon="5.76144">
        <ele>341.07</ele>
        <time>2021-05-09T07:14:40Z</time>
      </trkpt>
      <trkpt lat="49.48041" lon="5.76147">
        <ele>340.59</ele>
        <time>2021-05-09T07:14:42Z</time>
      </trkpt>
      <trkpt lat="49.48031" lon="5.76158">
        <ele>341.39</ele>
        <time>2021-05-09T07:14:55Z</time>
      </trkpt>
      <trkpt lat="49.48031" lon="5.76161">
        <ele>341.39</ele>
        <time>2021-05-09T07:15:12Z</time>
      </trkpt>
      <trkpt lat="49.48031" lon="5.7619">
        <ele>341.39</ele>
        <time>2021-05-09T07:15:16Z</time>
      </trkpt>
      <trkpt lat="49.48032" lon="5.76237">
        <ele>333.61</ele>
        <time>2021-05-09T07:15:20Z</time>
      </trkpt>
      <trkpt lat="49.48034" lon="5.76248">
        <ele>331.62</ele>
        <time>2021-05-09T07:15:21Z</time>
      </trkpt>
      <trkpt lat="49.4803" lon="5.76277">
        <ele>324.33</ele>
        <time>2021-05-09T07:15:24Z</time>
      </trkpt>
      <trkpt lat="49.48028" lon="5.7629">
        <ele>321.5</ele>
        <time>2021-05-09T07:15:32Z</time>
      </trkpt>
      <trkpt lat="49.48031" lon="5.7629">
        <ele>321.34</ele>
        <time>2021-05-09T07:15:36Z</time>
      </trkpt>
      <trkpt lat="49.48043" lon="5.76289">
        <ele>320.96</ele>
        <time>2021-05-09T07:15:42Z</time>
      </trkpt>
      <trkpt lat="49.48076" lon="5.76276">
        <ele>319.7</ele>
        <time>2021-05-09T07:15:52Z</time>
      </trkpt>
      <trkpt lat="49.4808" lon="5.76277">
        <ele>319.49</ele>
        <time>2021-05-09T07:15:53Z</time>
      </trkpt>
      <trkpt lat="49.48083" lon="5.76276">
        <ele>319.25</ele>
        <time>2021-05-09T07:15:54Z</time>
      </trkpt>
      <trkpt lat="49.48086" lon="5.76275">
        <ele>318.88</ele>
        <time>2021-05-09T07:15:55Z</time>
      </trkpt>
      <trkpt lat="49.4809" lon="5.76273">
        <ele>318.5</ele>
        <time>2021-05-09T07:15:56Z</time>
      </trkpt>
      <trkpt lat="49.48092" lon="5.76272">
        <ele>318.21</ele>
        <time>2021-05-09T07:15:57Z</time>
      </trkpt>
      <trkpt lat="49.48095" lon="5.76271">
        <ele>317.96</ele>
        <time>2021-05-09T07:15:58Z</time>
      </trkpt>
      <trkpt lat="49.48099" lon="5.76269">
        <ele>317.68</ele>
        <time>2021-05-09T07:15:59Z</time>
      </trkpt>
      <trkpt lat="49.48102" lon="5.76267">
        <ele>317.43</ele>
        <time>2021-05-09T07:16:00Z</time>
      </trkpt>
      <trkpt lat="49.48105" lon="5.76266">
        <ele>317.29</ele>
        <time>2021-05-09T07:16:01Z</time>
      </trkpt>
      <trkpt lat="49.4811" lon="5.76265">
        <ele>317.2</ele>
        <time>2021-05-09T07:16:02Z</time>
      </trkpt>
      <trkpt lat="49.48114" lon="5.76265">
        <ele>317.15</ele>
        <time>2021-05-09T07:16:03Z</time>
      </trkpt>
      <trkpt lat="49.48132" lon="5.76262">
        <ele>316.95</ele>
        <time>2021-05-09T07:16:07Z</time>
      </trkpt>
      <trkpt lat="49.48142" lon="5.76261">
        <ele>316.87</ele>
        <time>2021-05-09T07:16:08Z</time>
      </trkpt>
      <trkpt lat="49.48153" lon="5.76263">
        <ele>316.48</ele>
        <time>2021-05-09T07:16:10Z</time>
      </trkpt>
      <trkpt lat="49.48158" lon="5.76266">
        <ele>316.27</ele>
        <time>2021-05-09T07:16:11Z</time>
      </trkpt>
      <trkpt lat="49.48163" lon="5.76269">
        <ele>316.1</ele>
        <time>2021-05-09T07:16:12Z</time>
      </trkpt>
      <trkpt lat="49.48168" lon="5.76272">
        <ele>315.94</ele>
        <time>2021-05-09T07:16:13Z</time>
      </trkpt>
      <trkpt lat="49.48173" lon="5.76277">
        <ele>315.75</ele>
        <time>2021-05-09T07:16:14Z</time>
      </trkpt>
      <trkpt lat="49.48179" lon="5.76281">
        <ele>315.5</ele>
        <time>2021-05-09T07:16:15Z</time>
      </trkpt>
      <trkpt lat="49.4819" lon="5.76292">
        <ele>314.95</ele>
        <time>2021-05-09T07:16:17Z</time>
      </trkpt>
      <trkpt lat="49.48196" lon="5.76298">
        <ele>314.54</ele>
        <time>2021-05-09T07:16:18Z</time>
      </trkpt>
      <trkpt lat="49.48201" lon="5.76303">
        <ele>314.44</ele>
        <time>2021-05-09T07:16:19Z</time>
      </trkpt>
      <trkpt lat="49.4822" lon="5.76321">
        <ele>313.86</ele>
        <time>2021-05-09T07:16:23Z</time>
      </trkpt>
      <trkpt lat="49.4823" lon="5.7633">
        <ele>313.59</ele>
        <time>2021-05-09T07:16:25Z</time>
      </trkpt>
      <trkpt lat="49.48236" lon="5.76333">
        <ele>313.48</ele>
        <time>2021-05-09T07:16:26Z</time>
      </trkpt>
      <trkpt lat="49.48248" lon="5.7634">
        <ele>313.27</ele>
        <time>2021-05-09T07:16:28Z</time>
      </trkpt>
      <trkpt lat="49.48254" lon="5.76344">
        <ele>313.17</ele>
        <time>2021-05-09T07:16:29Z</time>
      </trkpt>
      <trkpt lat="49.48295" lon="5.76365">
        <ele>313.27</ele>
        <time>2021-05-09T07:16:37Z</time>
      </trkpt>
      <trkpt lat="49.48309" lon="5.76379">
        <ele>313.2</ele>
        <time>2021-05-09T07:16:40Z</time>
      </trkpt>
      <trkpt lat="49.48319" lon="5.76393">
        <ele>312.91</ele>
        <time>2021-05-09T07:16:42Z</time>
      </trkpt>
      <trkpt lat="49.48328" lon="5.764">
        <ele>312.51</ele>
        <time>2021-05-09T07:16:43Z</time>
      </trkpt>
      <trkpt lat="49.48342" lon="5.7641">
        <ele>311.71</ele>
        <time>2021-05-09T07:16:45Z</time>
      </trkpt>
      <trkpt lat="49.48348" lon="5.76415">
        <ele>311.49</ele>
        <time>2021-05-09T07:16:46Z</time>
      </trkpt>
      <trkpt lat="49.48353" lon="5.76421">
        <ele>311.33</ele>
        <time>2021-05-09T07:16:47Z</time>
      </trkpt>
      <trkpt lat="49.48357" lon="5.76425">
        <ele>311.27</ele>
        <time>2021-05-09T07:16:48Z</time>
      </trkpt>
      <trkpt lat="49.48363" lon="5.76429">
        <ele>311.16</ele>
        <time>2021-05-09T07:16:49Z</time>
      </trkpt>
      <trkpt lat="49.48369" lon="5.76433">
        <ele>311.04</ele>
        <time>2021-05-09T07:16:50Z</time>
      </trkpt>
      <trkpt lat="49.48384" lon="5.76445">
        <ele>311.1</ele>
        <time>2021-05-09T07:16:53Z</time>
      </trkpt>
      <trkpt lat="49.48388" lon="5.7645">
        <ele>311.26</ele>
        <time>2021-05-09T07:16:54Z</time>
      </trkpt>
      <trkpt lat="49.48392" lon="5.76455">
        <ele>311.35</ele>
        <time>2021-05-09T07:16:55Z</time>
      </trkpt>
      <trkpt lat="49.48422" lon="5.76503">
        <ele>311.52</ele>
        <time>2021-05-09T07:17:04Z</time>
      </trkpt>
      <trkpt lat="49.48426" lon="5.7651">
        <ele>311.49</ele>
        <time>2021-05-09T07:17:05Z</time>
      </trkpt>
      <trkpt lat="49.48435" lon="5.76525">
        <ele>311.09</ele>
        <time>2021-05-09T07:17:07Z</time>
      </trkpt>
      <trkpt lat="49.48457" lon="5.76576">
        <ele>307.53</ele>
        <time>2021-05-09T07:17:13Z</time>
      </trkpt>
      <trkpt lat="49.48475" lon="5.76611">
        <ele>304.56</ele>
        <time>2021-05-09T07:17:16Z</time>
      </trkpt>
      <trkpt lat="49.48503" lon="5.76664">
        <ele>301.11</ele>
        <time>2021-05-09T07:17:20Z</time>
      </trkpt>
      <trkpt lat="49.48532" lon="5.7672">
        <ele>297.92</ele>
        <time>2021-05-09T07:17:24Z</time>
      </trkpt>
      <trkpt lat="49.4856" lon="5.76779">
        <ele>293.35</ele>
        <time>2021-05-09T07:17:28Z</time>
      </trkpt>
      <trkpt lat="49.48569" lon="5.76793">
        <ele>293.35</ele>
        <time>2021-05-09T07:17:29Z</time>
      </trkpt>
      <trkpt lat="49.48585" lon="5.76831">
        <ele>291.71</ele>
        <time>2021-05-09T07:17:32Z</time>
      </trkpt>
      <trkpt lat="49.48627" lon="5.7692">
        <ele>289.93</ele>
        <time>2021-05-09T07:17:41Z</time>
      </trkpt>
      <trkpt lat="49.48631" lon="5.76932">
        <ele>289.63</ele>
        <time>2021-05-09T07:17:42Z</time>
      </trkpt>
      <trkpt lat="49.48634" lon="5.76943">
        <ele>289.26</ele>
        <time>2021-05-09T07:17:43Z</time>
      </trkpt>
      <trkpt lat="49.48644" lon="5.76963">
        <ele>288.56</ele>
        <time>2021-05-09T07:17:45Z</time>
      </trkpt>
      <trkpt lat="49.4865" lon="5.76973">
        <ele>288.36</ele>
        <time>2021-05-09T07:17:46Z</time>
      </trkpt>
      <trkpt lat="49.48676" lon="5.76993">
        <ele>287.81</ele>
        <time>2021-05-09T07:17:50Z</time>
      </trkpt>
      <trkpt lat="49.48701" lon="5.77006">
        <ele>286.65</ele>
        <time>2021-05-09T07:17:54Z</time>
      </trkpt>
      <trkpt lat="49.48711" lon="5.77016">
        <ele>285.93</ele>
        <time>2021-05-09T07:17:56Z</time>
      </trkpt>
      <trkpt lat="49.48717" lon="5.77031">
        <ele>285.38</ele>
        <time>2021-05-09T07:17:58Z</time>
      </trkpt>
      <trkpt lat="49.48721" lon="5.77039">
        <ele>285.1</ele>
        <time>2021-05-09T07:17:59Z</time>
      </trkpt>
      <trkpt lat="49.48751" lon="5.77087">
        <ele>283.65</ele>
        <time>2021-05-09T07:18:06Z</time>
      </trkpt>
      <trkpt lat="49.48756" lon="5.77092">
        <ele>283.47</ele>
        <time>2021-05-09T07:18:07Z</time>
      </trkpt>
      <trkpt lat="49.48761" lon="5.77099">
        <ele>283.26</ele>
        <time>2021-05-09T07:18:08Z</time>
      </trkpt>
      <trkpt lat="49.48767" lon="5.77104">
        <ele>283.03</ele>
        <time>2021-05-09T07:18:09Z</time>
      </trkpt>
      <trkpt lat="49.48771" lon="5.7711">
        <ele>282.92</ele>
        <time>2021-05-09T07:18:10Z</time>
      </trkpt>
      <trkpt lat="49.48802" lon="5.77156">
        <ele>283.53</ele>
        <time>2021-05-09T07:18:19Z</time>
      </trkpt>
      <trkpt lat="49.48827" lon="5.77175">
        <ele>283.01</ele>
        <time>2021-05-09T07:18:25Z</time>
      </trkpt>
      <trkpt lat="49.48831" lon="5.77179">
        <ele>282.89</ele>
        <time>2021-05-09T07:18:26Z</time>
      </trkpt>
      <trkpt lat="49.48836" lon="5.77183">
        <ele>282.76</ele>
        <time>2021-05-09T07:18:27Z</time>
      </trkpt>
      <trkpt lat="49.48855" lon="5.77192">
        <ele>282.05</ele>
        <time>2021-05-09T07:18:31Z</time>
      </trkpt>
      <trkpt lat="49.4886" lon="5.77192">
        <ele>281.82</ele>
        <time>2021-05-09T07:18:32Z</time>
      </trkpt>
      <trkpt lat="49.48894" lon="5.77201">
        <ele>280.37</ele>
        <time>2021-05-09T07:18:38Z</time>
      </trkpt>
      <trkpt lat="49.48899" lon="5.77202">
        <ele>280.28</ele>
        <time>2021-05-09T07:18:39Z</time>
      </trkpt>
      <trkpt lat="49.48905" lon="5.77204">
        <ele>280.23</ele>
        <time>2021-05-09T07:18:40Z</time>
      </trkpt>
      <trkpt lat="49.48912" lon="5.77204">
        <ele>280.17</ele>
        <time>2021-05-09T07:18:41Z</time>
      </trkpt>
      <trkpt lat="49.48917" lon="5.77204">
        <ele>280.09</ele>
        <time>2021-05-09T07:18:42Z</time>
      </trkpt>
      <trkpt lat="49.48923" lon="5.77205">
        <ele>280</ele>
        <time>2021-05-09T07:18:43Z</time>
      </trkpt>
      <trkpt lat="49.48947" lon="5.77203">
        <ele>279.49</ele>
        <time>2021-05-09T07:18:47Z</time>
      </trkpt>
      <trkpt lat="49.48953" lon="5.77202">
        <ele>279.36</ele>
        <time>2021-05-09T07:18:48Z</time>
      </trkpt>
      <trkpt lat="49.4896" lon="5.77204">
        <ele>279.15</ele>
        <time>2021-05-09T07:18:49Z</time>
      </trkpt>
      <trkpt lat="49.48968" lon="5.77205">
        <ele>278.86</ele>
        <time>2021-05-09T07:18:50Z</time>
      </trkpt>
      <trkpt lat="49.48976" lon="5.77207">
        <ele>278.55</ele>
        <time>2021-05-09T07:18:51Z</time>
      </trkpt>
      <trkpt lat="49.48982" lon="5.77208">
        <ele>278.26</ele>
        <time>2021-05-09T07:18:52Z</time>
      </trkpt>
      <trkpt lat="49.48988" lon="5.77209">
        <ele>278.01</ele>
        <time>2021-05-09T07:18:53Z</time>
      </trkpt>
      <trkpt lat="49.48995" lon="5.77211">
        <ele>277.82</ele>
        <time>2021-05-09T07:18:54Z</time>
      </trkpt>
      <trkpt lat="49.49009" lon="5.77214">
        <ele>277.56</ele>
        <time>2021-05-09T07:18:56Z</time>
      </trkpt>
      <trkpt lat="49.49016" lon="5.77215">
        <ele>277.38</ele>
        <time>2021-05-09T07:18:57Z</time>
      </trkpt>
      <trkpt lat="49.4903" lon="5.77219">
        <ele>276.73</ele>
        <time>2021-05-09T07:18:59Z</time>
      </trkpt>
      <trkpt lat="49.49069" lon="5.77233">
        <ele>275.16</ele>
        <time>2021-05-09T07:19:05Z</time>
      </trkpt>
      <trkpt lat="49.49076" lon="5.77236">
        <ele>275.13</ele>
        <time>2021-05-09T07:19:06Z</time>
      </trkpt>
      <trkpt lat="49.49082" lon="5.77239">
        <ele>275.13</ele>
        <time>2021-05-09T07:19:07Z</time>
      </trkpt>
      <trkpt lat="49.49093" lon="5.77242">
        <ele>275.13</ele>
        <time>2021-05-09T07:19:09Z</time>
      </trkpt>
      <trkpt lat="49.49099" lon="5.77243">
        <ele>275.13</ele>
        <time>2021-05-09T07:19:10Z</time>
      </trkpt>
      <trkpt lat="49.49127" lon="5.77241">
        <ele>275.05</ele>
        <time>2021-05-09T07:19:14Z</time>
      </trkpt>
      <trkpt lat="49.49178" lon="5.77244">
        <ele>274.53</ele>
        <time>2021-05-09T07:19:23Z</time>
      </trkpt>
      <trkpt lat="49.49229" lon="5.7723">
        <ele>272.82</ele>
        <time>2021-05-09T07:19:33Z</time>
      </trkpt>
      <trkpt lat="49.49239" lon="5.7723">
        <ele>272.55</ele>
        <time>2021-05-09T07:19:35Z</time>
      </trkpt>
      <trkpt lat="49.49243" lon="5.77232">
        <ele>272.47</ele>
        <time>2021-05-09T07:19:36Z</time>
      </trkpt>
      <trkpt lat="49.49244" lon="5.77235">
        <ele>272.4</ele>
        <time>2021-05-09T07:19:37Z</time>
      </trkpt>
      <trkpt lat="49.49245" lon="5.77237">
        <ele>272.37</ele>
        <time>2021-05-09T07:19:38Z</time>
      </trkpt>
      <trkpt lat="49.49245" lon="5.7724">
        <ele>272.39</ele>
        <time>2021-05-09T07:19:39Z</time>
      </trkpt>
      <trkpt lat="49.49245" lon="5.77244">
        <ele>272.43</ele>
        <time>2021-05-09T07:19:40Z</time>
      </trkpt>
      <trkpt lat="49.49244" lon="5.77247">
        <ele>272.5</ele>
        <time>2021-05-09T07:19:41Z</time>
      </trkpt>
      <trkpt lat="49.49244" lon="5.7725">
        <ele>272.53</ele>
        <time>2021-05-09T07:19:42Z</time>
      </trkpt>
      <trkpt lat="49.49243" lon="5.77254">
        <ele>272.56</ele>
        <time>2021-05-09T07:19:43Z</time>
      </trkpt>
      <trkpt lat="49.49241" lon="5.77257">
        <ele>272.58</ele>
        <time>2021-05-09T07:19:44Z</time>
      </trkpt>
      <trkpt lat="49.4924" lon="5.77261">
        <ele>272.58</ele>
        <time>2021-05-09T07:19:45Z</time>
      </trkpt>
      <trkpt lat="49.49239" lon="5.77265">
        <ele>272.56</ele>
        <time>2021-05-09T07:19:46Z</time>
      </trkpt>
      <trkpt lat="49.49239" lon="5.77269">
        <ele>272.56</ele>
        <time>2021-05-09T07:19:47Z</time>
      </trkpt>
      <trkpt lat="49.49238" lon="5.77273">
        <ele>272.55</ele>
        <time>2021-05-09T07:19:48Z</time>
      </trkpt>
      <trkpt lat="49.49237" lon="5.77277">
        <ele>272.54</ele>
        <time>2021-05-09T07:19:49Z</time>
      </trkpt>
      <trkpt lat="49.49236" lon="5.77281">
        <ele>272.54</ele>
        <time>2021-05-09T07:19:50Z</time>
      </trkpt>
      <trkpt lat="49.49228" lon="5.77306">
        <ele>272.96</ele>
        <time>2021-05-09T07:19:57Z</time>
      </trkpt>
      <trkpt lat="49.49228" lon="5.7731">
        <ele>273.04</ele>
        <time>2021-05-09T07:19:58Z</time>
      </trkpt>
      <trkpt lat="49.49228" lon="5.77312">
        <ele>273.04</ele>
        <time>2021-05-09T07:19:59Z</time>
      </trkpt>
      <trkpt lat="49.4924" lon="5.77318">
        <ele>273.79</ele>
        <time>2021-05-09T07:20:11Z</time>
      </trkpt>
      <trkpt lat="49.49257" lon="5.77298">
        <ele>275.23</ele>
        <time>2021-05-09T07:20:22Z</time>
      </trkpt>
      <trkpt lat="49.49282" lon="5.77281">
        <ele>278.27</ele>
        <time>2021-05-09T07:20:34Z</time>
      </trkpt>
      <trkpt lat="49.49313" lon="5.77258">
        <ele>281.48</ele>
        <time>2021-05-09T07:20:46Z</time>
      </trkpt>
      <trkpt lat="49.49318" lon="5.77257">
        <ele>282.04</ele>
        <time>2021-05-09T07:20:48Z</time>
      </trkpt>
      <trkpt lat="49.49341" lon="5.77241">
        <ele>284.53</ele>
        <time>2021-05-09T07:20:59Z</time>
      </trkpt>
      <trkpt lat="49.49371" lon="5.77213">
        <ele>286.96</ele>
        <time>2021-05-09T07:21:12Z</time>
      </trkpt>
      <trkpt lat="49.49393" lon="5.77192">
        <ele>287.56</ele>
        <time>2021-05-09T07:21:22Z</time>
      </trkpt>
      <trkpt lat="49.49405" lon="5.77178">
        <ele>287.71</ele>
        <time>2021-05-09T07:21:28Z</time>
      </trkpt>
      <trkpt lat="49.49407" lon="5.77175">
        <ele>287.71</ele>
        <time>2021-05-09T07:21:29Z</time>
      </trkpt>
      <trkpt lat="49.49409" lon="5.77173">
        <ele>287.71</ele>
        <time>2021-05-09T07:21:30Z</time>
      </trkpt>
      <trkpt lat="49.49411" lon="5.7717">
        <ele>287.71</ele>
        <time>2021-05-09T07:21:31Z</time>
      </trkpt>
      <trkpt lat="49.49413" lon="5.77168">
        <ele>287.7</ele>
        <time>2021-05-09T07:21:32Z</time>
      </trkpt>
      <trkpt lat="49.49443" lon="5.77136">
        <ele>287.73</ele>
        <time>2021-05-09T07:21:44Z</time>
      </trkpt>
      <trkpt lat="49.49472" lon="5.77111">
        <ele>287.75</ele>
        <time>2021-05-09T07:21:57Z</time>
      </trkpt>
      <trkpt lat="49.49474" lon="5.7711">
        <ele>287.71</ele>
        <time>2021-05-09T07:21:58Z</time>
      </trkpt>
      <trkpt lat="49.49476" lon="5.77109">
        <ele>287.68</ele>
        <time>2021-05-09T07:21:59Z</time>
      </trkpt>
      <trkpt lat="49.49479" lon="5.77107">
        <ele>287.67</ele>
        <time>2021-05-09T07:22:00Z</time>
      </trkpt>
      <trkpt lat="49.49482" lon="5.77105">
        <ele>287.69</ele>
        <time>2021-05-09T07:22:01Z</time>
      </trkpt>
      <trkpt lat="49.49485" lon="5.77102">
        <ele>287.71</ele>
        <time>2021-05-09T07:22:02Z</time>
      </trkpt>
      <trkpt lat="49.49488" lon="5.77099">
        <ele>287.73</ele>
        <time>2021-05-09T07:22:03Z</time>
      </trkpt>
      <trkpt lat="49.49515" lon="5.77086">
        <ele>288.3</ele>
        <time>2021-05-09T07:22:13Z</time>
      </trkpt>
      <trkpt lat="49.49551" lon="5.77066">
        <ele>289.21</ele>
        <time>2021-05-09T07:22:26Z</time>
      </trkpt>
      <trkpt lat="49.49581" lon="5.77059">
        <ele>290.8</ele>
        <time>2021-05-09T07:22:38Z</time>
      </trkpt>
      <trkpt lat="49.49615" lon="5.77058">
        <ele>293.03</ele>
        <time>2021-05-09T07:22:52Z</time>
      </trkpt>
      <trkpt lat="49.49633" lon="5.7707">
        <ele>294.08</ele>
        <time>2021-05-09T07:23:01Z</time>
      </trkpt>
      <trkpt lat="49.49634" lon="5.77072">
        <ele>294.16</ele>
        <time>2021-05-09T07:23:02Z</time>
      </trkpt>
      <trkpt lat="49.49636" lon="5.77073">
        <ele>294.28</ele>
        <time>2021-05-09T07:23:03Z</time>
      </trkpt>
      <trkpt lat="49.49638" lon="5.77076">
        <ele>294.41</ele>
        <time>2021-05-09T07:23:04Z</time>
      </trkpt>
      <trkpt lat="49.4964" lon="5.77079">
        <ele>294.53</ele>
        <time>2021-05-09T07:23:05Z</time>
      </trkpt>
      <trkpt lat="49.49658" lon="5.77114">
        <ele>296.15</ele>
        <time>2021-05-09T07:23:16Z</time>
      </trkpt>
      <trkpt lat="49.49675" lon="5.7715">
        <ele>297.68</ele>
        <time>2021-05-09T07:23:30Z</time>
      </trkpt>
      <trkpt lat="49.49689" lon="5.77179">
        <ele>299.21</ele>
        <time>2021-05-09T07:23:42Z</time>
      </trkpt>
      <trkpt lat="49.49697" lon="5.7721">
        <ele>300.7</ele>
        <time>2021-05-09T07:23:53Z</time>
      </trkpt>
      <trkpt lat="49.497" lon="5.77225">
        <ele>301.65</ele>
        <time>2021-05-09T07:23:59Z</time>
      </trkpt>
      <trkpt lat="49.497" lon="5.77227">
        <ele>301.77</ele>
        <time>2021-05-09T07:24:00Z</time>
      </trkpt>
      <trkpt lat="49.49701" lon="5.7723">
        <ele>301.87</ele>
        <time>2021-05-09T07:24:01Z</time>
      </trkpt>
      <trkpt lat="49.49701" lon="5.77232">
        <ele>301.98</ele>
        <time>2021-05-09T07:24:02Z</time>
      </trkpt>
      <trkpt lat="49.49702" lon="5.77235">
        <ele>302.14</ele>
        <time>2021-05-09T07:24:03Z</time>
      </trkpt>
      <trkpt lat="49.49702" lon="5.77238">
        <ele>302.32</ele>
        <time>2021-05-09T07:24:04Z</time>
      </trkpt>
      <trkpt lat="49.49704" lon="5.77242">
        <ele>302.72</ele>
        <time>2021-05-09T07:24:06Z</time>
      </trkpt>
      <trkpt lat="49.49704" lon="5.77244">
        <ele>302.92</ele>
        <time>2021-05-09T07:24:07Z</time>
      </trkpt>
      <trkpt lat="49.49704" lon="5.77246">
        <ele>303.1</ele>
        <time>2021-05-09T07:24:08Z</time>
      </trkpt>
      <trkpt lat="49.49705" lon="5.77249">
        <ele>303.24</ele>
        <time>2021-05-09T07:24:09Z</time>
      </trkpt>
      <trkpt lat="49.49705" lon="5.77251">
        <ele>303.36</ele>
        <time>2021-05-09T07:24:10Z</time>
      </trkpt>
      <trkpt lat="49.49706" lon="5.77253">
        <ele>303.5</ele>
        <time>2021-05-09T07:24:11Z</time>
      </trkpt>
      <trkpt lat="49.49713" lon="5.77289">
        <ele>306.51</ele>
        <time>2021-05-09T07:24:28Z</time>
      </trkpt>
      <trkpt lat="49.49714" lon="5.77293">
        <ele>306.95</ele>
        <time>2021-05-09T07:24:30Z</time>
      </trkpt>
      <trkpt lat="49.49714" lon="5.77296">
        <ele>307.08</ele>
        <time>2021-05-09T07:24:31Z</time>
      </trkpt>
      <trkpt lat="49.49715" lon="5.77298">
        <ele>307.19</ele>
        <time>2021-05-09T07:24:32Z</time>
      </trkpt>
      <trkpt lat="49.49715" lon="5.773">
        <ele>307.31</ele>
        <time>2021-05-09T07:24:33Z</time>
      </trkpt>
      <trkpt lat="49.49716" lon="5.77302">
        <ele>307.43</ele>
        <time>2021-05-09T07:24:34Z</time>
      </trkpt>
      <trkpt lat="49.49719" lon="5.77313">
        <ele>308.5</ele>
        <time>2021-05-09T07:24:40Z</time>
      </trkpt>
      <trkpt lat="49.4972" lon="5.77315">
        <ele>308.65</ele>
        <time>2021-05-09T07:24:41Z</time>
      </trkpt>
      <trkpt lat="49.49721" lon="5.77317">
        <ele>308.78</ele>
        <time>2021-05-09T07:24:42Z</time>
      </trkpt>
      <trkpt lat="49.49727" lon="5.77336">
        <ele>311.29</ele>
        <time>2021-05-09T07:24:55Z</time>
      </trkpt>
      <trkpt lat="49.49733" lon="5.77356">
        <ele>313.26</ele>
        <time>2021-05-09T07:25:13Z</time>
      </trkpt>
      <trkpt lat="49.49738" lon="5.77384">
        <ele>316.44</ele>
        <time>2021-05-09T07:25:28Z</time>
      </trkpt>
      <trkpt lat="49.49737" lon="5.77392">
        <ele>317.99</ele>
        <time>2021-05-09T07:25:48Z</time>
      </trkpt>
      <trkpt lat="49.49745" lon="5.77398">
        <ele>318.43</ele>
        <time>2021-05-09T07:26:04Z</time>
      </trkpt>
      <trkpt lat="49.49745" lon="5.77401">
        <ele>318.62</ele>
        <time>2021-05-09T07:26:05Z</time>
      </trkpt>
      <trkpt lat="49.49746" lon="5.77404">
        <ele>318.62</ele>
        <time>2021-05-09T07:26:06Z</time>
      </trkpt>
      <trkpt lat="49.49747" lon="5.77406">
        <ele>319</ele>
        <time>2021-05-09T07:26:07Z</time>
      </trkpt>
      <trkpt lat="49.49747" lon="5.77409">
        <ele>319.24</ele>
        <time>2021-05-09T07:26:08Z</time>
      </trkpt>
      <trkpt lat="49.49747" lon="5.7741">
        <ele>319.51</ele>
        <time>2021-05-09T07:26:09Z</time>
      </trkpt>
      <trkpt lat="49.49747" lon="5.77412">
        <ele>319.77</ele>
        <time>2021-05-09T07:26:10Z</time>
      </trkpt>
      <trkpt lat="49.49755" lon="5.77437">
        <ele>322.59</ele>
        <time>2021-05-09T07:26:23Z</time>
      </trkpt>
      <trkpt lat="49.49766" lon="5.77466">
        <ele>325.29</ele>
        <time>2021-05-09T07:26:38Z</time>
      </trkpt>
      <trkpt lat="49.49778" lon="5.77487">
        <ele>328.44</ele>
        <time>2021-05-09T07:26:52Z</time>
      </trkpt>
      <trkpt lat="49.49781" lon="5.77486">
        <ele>330.45</ele>
        <time>2021-05-09T07:27:09Z</time>
      </trkpt>
      <trkpt lat="49.49784" lon="5.77483">
        <ele>330.58</ele>
        <time>2021-05-09T07:27:42Z</time>
      </trkpt>
      <trkpt lat="49.49795" lon="5.77507">
        <ele>332.62</ele>
        <time>2021-05-09T07:27:55Z</time>
      </trkpt>
      <trkpt lat="49.49796" lon="5.77509">
        <ele>332.86</ele>
        <time>2021-05-09T07:27:56Z</time>
      </trkpt>
      <trkpt lat="49.49797" lon="5.77511">
        <ele>333.07</ele>
        <time>2021-05-09T07:27:57Z</time>
      </trkpt>
      <trkpt lat="49.49798" lon="5.77513">
        <ele>333.3</ele>
        <time>2021-05-09T07:27:58Z</time>
      </trkpt>
      <trkpt lat="49.498" lon="5.77515">
        <ele>333.52</ele>
        <time>2021-05-09T07:27:59Z</time>
      </trkpt>
      <trkpt lat="49.49815" lon="5.77539">
        <ele>336.64</ele>
        <time>2021-05-09T07:28:12Z</time>
      </trkpt>
      <trkpt lat="49.49829" lon="5.77566">
        <ele>339.87</ele>
        <time>2021-05-09T07:28:26Z</time>
      </trkpt>
      <trkpt lat="49.49843" lon="5.77599">
        <ele>342.38</ele>
        <time>2021-05-09T07:28:43Z</time>
      </trkpt>
      <trkpt lat="49.49845" lon="5.77602">
        <ele>342.9</ele>
        <time>2021-05-09T07:28:45Z</time>
      </trkpt>
      <trkpt lat="49.49846" lon="5.77603">
        <ele>343.1</ele>
        <time>2021-05-09T07:28:46Z</time>
      </trkpt>
      <trkpt lat="49.49847" lon="5.77605">
        <ele>343.23</ele>
        <time>2021-05-09T07:28:47Z</time>
      </trkpt>
      <trkpt lat="49.49849" lon="5.77606">
        <ele>343.35</ele>
        <time>2021-05-09T07:28:48Z</time>
      </trkpt>
      <trkpt lat="49.4985" lon="5.77607">
        <ele>343.5</ele>
        <time>2021-05-09T07:28:49Z</time>
      </trkpt>
      <trkpt lat="49.4985" lon="5.77609">
        <ele>343.65</ele>
        <time>2021-05-09T07:28:50Z</time>
      </trkpt>
      <trkpt lat="49.49851" lon="5.7761">
        <ele>343.82</ele>
        <time>2021-05-09T07:28:51Z</time>
      </trkpt>
      <trkpt lat="49.49855" lon="5.77617">
        <ele>344.94</ele>
        <time>2021-05-09T07:28:56Z</time>
      </trkpt>
      <trkpt lat="49.49856" lon="5.77619">
        <ele>345.44</ele>
        <time>2021-05-09T07:28:57Z</time>
      </trkpt>
      <trkpt lat="49.49856" lon="5.77623">
        <ele>345.71</ele>
        <time>2021-05-09T07:28:59Z</time>
      </trkpt>
      <trkpt lat="49.49859" lon="5.77629">
        <ele>346.85</ele>
        <time>2021-05-09T07:29:03Z</time>
      </trkpt>
      <trkpt lat="49.4986" lon="5.77631">
        <ele>347.05</ele>
        <time>2021-05-09T07:29:04Z</time>
      </trkpt>
      <trkpt lat="49.4986" lon="5.77636">
        <ele>349.3</ele>
        <time>2021-05-09T07:29:15Z</time>
      </trkpt>
      <trkpt lat="49.49858" lon="5.77628">
        <ele>349.15</ele>
        <time>2021-05-09T07:29:18Z</time>
      </trkpt>
      <trkpt lat="49.49857" lon="5.77625">
        <ele>348.91</ele>
        <time>2021-05-09T07:29:19Z</time>
      </trkpt>
      <trkpt lat="49.49857" lon="5.77623">
        <ele>348.52</ele>
        <time>2021-05-09T07:29:20Z</time>
      </trkpt>
      <trkpt lat="49.49861" lon="5.77631">
        <ele>348.57</ele>
        <time>2021-05-09T07:29:31Z</time>
      </trkpt>
      <trkpt lat="49.49863" lon="5.77644">
        <ele>349.65</ele>
        <time>2021-05-09T07:29:53Z</time>
      </trkpt>
      <trkpt lat="49.49865" lon="5.77666">
        <ele>352.31</ele>
        <time>2021-05-09T07:30:10Z</time>
      </trkpt>
      <trkpt lat="49.49875" lon="5.77687">
        <ele>353.71</ele>
        <time>2021-05-09T07:30:24Z</time>
      </trkpt>
      <trkpt lat="49.49878" lon="5.77688">
        <ele>355.06</ele>
        <time>2021-05-09T07:30:44Z</time>
      </trkpt>
      <trkpt lat="49.49881" lon="5.77692">
        <ele>355.13</ele>
        <time>2021-05-09T07:32:20Z</time>
      </trkpt>
      <trkpt lat="49.4988" lon="5.77694">
        <ele>356.18</ele>
        <time>2021-05-09T07:33:04Z</time>
      </trkpt>
      <trkpt lat="49.49878" lon="5.77696">
        <ele>356.18</ele>
        <time>2021-05-09T07:33:19Z</time>
      </trkpt>
      <trkpt lat="49.49878" lon="5.77698">
        <ele>356.18</ele>
        <time>2021-05-09T07:33:20Z</time>
      </trkpt>
      <trkpt lat="49.49878" lon="5.77701">
        <ele>356.18</ele>
        <time>2021-05-09T07:33:21Z</time>
      </trkpt>
      <trkpt lat="49.49878" lon="5.77703">
        <ele>356.18</ele>
        <time>2021-05-09T07:33:22Z</time>
      </trkpt>
      <trkpt lat="49.49878" lon="5.77705">
        <ele>356.11</ele>
        <time>2021-05-09T07:33:23Z</time>
      </trkpt>
      <trkpt lat="49.49879" lon="5.77707">
        <ele>355.9</ele>
        <time>2021-05-09T07:33:24Z</time>
      </trkpt>
      <trkpt lat="49.49879" lon="5.77709">
        <ele>355.7</ele>
        <time>2021-05-09T07:33:25Z</time>
      </trkpt>
      <trkpt lat="49.4988" lon="5.77711">
        <ele>355.6</ele>
        <time>2021-05-09T07:33:26Z</time>
      </trkpt>
      <trkpt lat="49.4988" lon="5.77713">
        <ele>355.53</ele>
        <time>2021-05-09T07:33:27Z</time>
      </trkpt>
      <trkpt lat="49.4988" lon="5.77715">
        <ele>355.53</ele>
        <time>2021-05-09T07:33:28Z</time>
      </trkpt>
      <trkpt lat="49.4988" lon="5.77717">
        <ele>355.59</ele>
        <time>2021-05-09T07:33:29Z</time>
      </trkpt>
      <trkpt lat="49.4988" lon="5.77719">
        <ele>355.69</ele>
        <time>2021-05-09T07:33:30Z</time>
      </trkpt>
      <trkpt lat="49.4988" lon="5.7772">
        <ele>355.8</ele>
        <time>2021-05-09T07:33:31Z</time>
      </trkpt>
      <trkpt lat="49.49886" lon="5.77756">
        <ele>358.01</ele>
        <time>2021-05-09T07:33:46Z</time>
      </trkpt>
      <trkpt lat="49.49885" lon="5.77805">
        <ele>360.92</ele>
        <time>2021-05-09T07:34:03Z</time>
      </trkpt>
      <trkpt lat="49.49885" lon="5.7785">
        <ele>361.97</ele>
        <time>2021-05-09T07:34:15Z</time>
      </trkpt>
      <trkpt lat="49.49882" lon="5.77852">
        <ele>362.08</ele>
        <time>2021-05-09T07:34:16Z</time>
      </trkpt>
      <trkpt lat="49.49846" lon="5.77861">
        <ele>363.6</ele>
        <time>2021-05-09T07:34:32Z</time>
      </trkpt>
      <trkpt lat="49.49816" lon="5.77869">
        <ele>364.14</ele>
        <time>2021-05-09T07:34:46Z</time>
      </trkpt>
      <trkpt lat="49.49784" lon="5.77889">
        <ele>364.7</ele>
        <time>2021-05-09T07:35:03Z</time>
      </trkpt>
      <trkpt lat="49.49783" lon="5.77917">
        <ele>365.86</ele>
        <time>2021-05-09T07:35:13Z</time>
      </trkpt>
      <trkpt lat="49.49784" lon="5.77928">
        <ele>366.1</ele>
        <time>2021-05-09T07:35:17Z</time>
      </trkpt>
      <trkpt lat="49.49792" lon="5.77987">
        <ele>368</ele>
        <time>2021-05-09T07:35:34Z</time>
      </trkpt>
      <trkpt lat="49.49791" lon="5.78047">
        <ele>368.7</ele>
        <time>2021-05-09T07:35:51Z</time>
      </trkpt>
      <trkpt lat="49.49792" lon="5.78106">
        <ele>369.75</ele>
        <time>2021-05-09T07:36:08Z</time>
      </trkpt>
      <trkpt lat="49.49795" lon="5.78184">
        <ele>369.98</ele>
        <time>2021-05-09T07:36:27Z</time>
      </trkpt>
      <trkpt lat="49.49796" lon="5.78235">
        <ele>370.29</ele>
        <time>2021-05-09T07:36:40Z</time>
      </trkpt>
      <trkpt lat="49.49795" lon="5.78238">
        <ele>370.22</ele>
        <time>2021-05-09T07:36:41Z</time>
      </trkpt>
      <trkpt lat="49.49793" lon="5.78239">
        <ele>370.12</ele>
        <time>2021-05-09T07:36:42Z</time>
      </trkpt>
      <trkpt lat="49.49791" lon="5.7824">
        <ele>370.08</ele>
        <time>2021-05-09T07:36:43Z</time>
      </trkpt>
      <trkpt lat="49.49789" lon="5.7824">
        <ele>370.18</ele>
        <time>2021-05-09T07:36:44Z</time>
      </trkpt>
      <trkpt lat="49.49757" lon="5.78262">
        <ele>372.72</ele>
        <time>2021-05-09T07:36:59Z</time>
      </trkpt>
      <trkpt lat="49.49706" lon="5.78269">
        <ele>373.89</ele>
        <time>2021-05-09T07:37:19Z</time>
      </trkpt>
      <trkpt lat="49.4968" lon="5.78299">
        <ele>374.79</ele>
        <time>2021-05-09T07:37:33Z</time>
      </trkpt>
      <trkpt lat="49.49691" lon="5.78375">
        <ele>376.89</ele>
        <time>2021-05-09T07:37:52Z</time>
      </trkpt>
      <trkpt lat="49.49698" lon="5.78424">
        <ele>377.46</ele>
        <time>2021-05-09T07:38:06Z</time>
      </trkpt>
      <trkpt lat="49.49689" lon="5.78485">
        <ele>378.78</ele>
        <time>2021-05-09T07:38:22Z</time>
      </trkpt>
      <trkpt lat="49.49707" lon="5.7858">
        <ele>378.56</ele>
        <time>2021-05-09T07:38:43Z</time>
      </trkpt>
      <trkpt lat="49.49719" lon="5.78645">
        <ele>379.39</ele>
        <time>2021-05-09T07:38:59Z</time>
      </trkpt>
      <trkpt lat="49.49741" lon="5.78642">
        <ele>379.84</ele>
        <time>2021-05-09T07:39:08Z</time>
      </trkpt>
      <trkpt lat="49.49743" lon="5.7865">
        <ele>379.9</ele>
        <time>2021-05-09T07:39:13Z</time>
      </trkpt>
      <trkpt lat="49.49747" lon="5.78654">
        <ele>379.97</ele>
        <time>2021-05-09T07:39:15Z</time>
      </trkpt>
      <trkpt lat="49.49759" lon="5.78646">
        <ele>379.84</ele>
        <time>2021-05-09T07:39:21Z</time>
      </trkpt>
      <trkpt lat="49.49802" lon="5.78639">
        <ele>378.47</ele>
        <time>2021-05-09T07:39:36Z</time>
      </trkpt>
      <trkpt lat="49.49858" lon="5.78634">
        <ele>377.55</ele>
        <time>2021-05-09T07:39:53Z</time>
      </trkpt>
      <trkpt lat="49.49931" lon="5.78625">
        <ele>377.99</ele>
        <time>2021-05-09T07:40:13Z</time>
      </trkpt>
      <trkpt lat="49.49964" lon="5.78622">
        <ele>379.38</ele>
        <time>2021-05-09T07:40:23Z</time>
      </trkpt>
      <trkpt lat="49.49967" lon="5.78624">
        <ele>379.46</ele>
        <time>2021-05-09T07:40:24Z</time>
      </trkpt>
      <trkpt lat="49.4997" lon="5.78627">
        <ele>379.53</ele>
        <time>2021-05-09T07:40:25Z</time>
      </trkpt>
      <trkpt lat="49.49972" lon="5.78631">
        <ele>379.53</ele>
        <time>2021-05-09T07:40:26Z</time>
      </trkpt>
      <trkpt lat="49.49973" lon="5.78635">
        <ele>379.48</ele>
        <time>2021-05-09T07:40:27Z</time>
      </trkpt>
      <trkpt lat="49.49974" lon="5.78639">
        <ele>379.35</ele>
        <time>2021-05-09T07:40:28Z</time>
      </trkpt>
      <trkpt lat="49.49994" lon="5.787">
        <ele>380.73</ele>
        <time>2021-05-09T07:40:42Z</time>
      </trkpt>
      <trkpt lat="49.50008" lon="5.78768">
        <ele>381.71</ele>
        <time>2021-05-09T07:40:57Z</time>
      </trkpt>
      <trkpt lat="49.50016" lon="5.78803">
        <ele>380.88</ele>
        <time>2021-05-09T07:41:04Z</time>
      </trkpt>
      <trkpt lat="49.50019" lon="5.78808">
        <ele>381.03</ele>
        <time>2021-05-09T07:41:05Z</time>
      </trkpt>
      <trkpt lat="49.5002" lon="5.78813">
        <ele>381.13</ele>
        <time>2021-05-09T07:41:06Z</time>
      </trkpt>
      <trkpt lat="49.50022" lon="5.78819">
        <ele>381.23</ele>
        <time>2021-05-09T07:41:07Z</time>
      </trkpt>
      <trkpt lat="49.50023" lon="5.78824">
        <ele>381.35</ele>
        <time>2021-05-09T07:41:08Z</time>
      </trkpt>
      <trkpt lat="49.50039" lon="5.78904">
        <ele>382.9</ele>
        <time>2021-05-09T07:41:25Z</time>
      </trkpt>
      <trkpt lat="49.50056" lon="5.78988">
        <ele>382.87</ele>
        <time>2021-05-09T07:41:41Z</time>
      </trkpt>
      <trkpt lat="49.50085" lon="5.79125">
        <ele>382.33</ele>
        <time>2021-05-09T07:42:00Z</time>
      </trkpt>
      <trkpt lat="49.50111" lon="5.79229">
        <ele>382.25</ele>
        <time>2021-05-09T07:42:15Z</time>
      </trkpt>
      <trkpt lat="49.50135" lon="5.7934">
        <ele>383.34</ele>
        <time>2021-05-09T07:42:34Z</time>
      </trkpt>
      <trkpt lat="49.50127" lon="5.79415">
        <ele>384.01</ele>
        <time>2021-05-09T07:42:47Z</time>
      </trkpt>
      <trkpt lat="49.50146" lon="5.79481">
        <ele>387.01</ele>
        <time>2021-05-09T07:43:01Z</time>
      </trkpt>
      <trkpt lat="49.50189" lon="5.7954">
        <ele>388.11</ele>
        <time>2021-05-09T07:43:18Z</time>
      </trkpt>
      <trkpt lat="49.5022" lon="5.79617">
        <ele>387.89</ele>
        <time>2021-05-09T07:43:35Z</time>
      </trkpt>
      <trkpt lat="49.50234" lon="5.7971">
        <ele>388.65</ele>
        <time>2021-05-09T07:43:55Z</time>
      </trkpt>
      <trkpt lat="49.50252" lon="5.79789">
        <ele>390.47</ele>
        <time>2021-05-09T07:44:14Z</time>
      </trkpt>
      <trkpt lat="49.50271" lon="5.79873">
        <ele>391.38</ele>
        <time>2021-05-09T07:44:36Z</time>
      </trkpt>
      <trkpt lat="49.5028" lon="5.79973">
        <ele>392.83</ele>
        <time>2021-05-09T07:44:59Z</time>
      </trkpt>
      <trkpt lat="49.50298" lon="5.80069">
        <ele>394.11</ele>
        <time>2021-05-09T07:45:22Z</time>
      </trkpt>
      <trkpt lat="49.5031" lon="5.80144">
        <ele>394.54</ele>
        <time>2021-05-09T07:45:40Z</time>
      </trkpt>
      <trkpt lat="49.50321" lon="5.80226">
        <ele>395.35</ele>
        <time>2021-05-09T07:45:59Z</time>
      </trkpt>
      <trkpt lat="49.50331" lon="5.8031">
        <ele>395.76</ele>
        <time>2021-05-09T07:46:18Z</time>
      </trkpt>
      <trkpt lat="49.50353" lon="5.80377">
        <ele>395.93</ele>
        <time>2021-05-09T07:46:35Z</time>
      </trkpt>
      <trkpt lat="49.50372" lon="5.80441">
        <ele>395.39</ele>
        <time>2021-05-09T07:46:51Z</time>
      </trkpt>
      <trkpt lat="49.50393" lon="5.80519">
        <ele>392.78</ele>
        <time>2021-05-09T07:47:03Z</time>
      </trkpt>
      <trkpt lat="49.50397" lon="5.80527">
        <ele>392.3</ele>
        <time>2021-05-09T07:47:04Z</time>
      </trkpt>
      <trkpt lat="49.50401" lon="5.80534">
        <ele>391.85</ele>
        <time>2021-05-09T07:47:05Z</time>
      </trkpt>
      <trkpt lat="49.50407" lon="5.8054">
        <ele>391.31</ele>
        <time>2021-05-09T07:47:06Z</time>
      </trkpt>
      <trkpt lat="49.50413" lon="5.80545">
        <ele>390.83</ele>
        <time>2021-05-09T07:47:07Z</time>
      </trkpt>
      <trkpt lat="49.50419" lon="5.80549">
        <ele>390.59</ele>
        <time>2021-05-09T07:47:08Z</time>
      </trkpt>
      <trkpt lat="49.50425" lon="5.8055">
        <ele>390.47</ele>
        <time>2021-05-09T07:47:09Z</time>
      </trkpt>
      <trkpt lat="49.50432" lon="5.80549">
        <ele>390.41</ele>
        <time>2021-05-09T07:47:10Z</time>
      </trkpt>
      <trkpt lat="49.50438" lon="5.80547">
        <ele>390.39</ele>
        <time>2021-05-09T07:47:11Z</time>
      </trkpt>
      <trkpt lat="49.50506" lon="5.80534">
        <ele>391.38</ele>
        <time>2021-05-09T07:47:26Z</time>
      </trkpt>
      <trkpt lat="49.50601" lon="5.80527">
        <ele>392.42</ele>
        <time>2021-05-09T07:47:51Z</time>
      </trkpt>
      <trkpt lat="49.50655" lon="5.80523">
        <ele>395.52</ele>
        <time>2021-05-09T07:48:07Z</time>
      </trkpt>
      <trkpt lat="49.50716" lon="5.80512">
        <ele>395.35</ele>
        <time>2021-05-09T07:48:23Z</time>
      </trkpt>
      <trkpt lat="49.50751" lon="5.80504">
        <ele>393.62</ele>
        <time>2021-05-09T07:48:29Z</time>
      </trkpt>
      <trkpt lat="49.50757" lon="5.805">
        <ele>393.24</ele>
        <time>2021-05-09T07:48:30Z</time>
      </trkpt>
      <trkpt lat="49.50776" lon="5.80487">
        <ele>391.3</ele>
        <time>2021-05-09T07:48:33Z</time>
      </trkpt>
      <trkpt lat="49.50782" lon="5.80482">
        <ele>391.3</ele>
        <time>2021-05-09T07:48:34Z</time>
      </trkpt>
      <trkpt lat="49.50788" lon="5.80477">
        <ele>390.51</ele>
        <time>2021-05-09T07:48:35Z</time>
      </trkpt>
      <trkpt lat="49.50794" lon="5.80474">
        <ele>390.21</ele>
        <time>2021-05-09T07:48:36Z</time>
      </trkpt>
      <trkpt lat="49.50798" lon="5.8047">
        <ele>390.04</ele>
        <time>2021-05-09T07:48:37Z</time>
      </trkpt>
      <trkpt lat="49.508" lon="5.80464">
        <ele>389.95</ele>
        <time>2021-05-09T07:48:38Z</time>
      </trkpt>
      <trkpt lat="49.50818" lon="5.80433">
        <ele>389.59</ele>
        <time>2021-05-09T07:48:44Z</time>
      </trkpt>
      <trkpt lat="49.50851" lon="5.80382">
        <ele>388.76</ele>
        <time>2021-05-09T07:48:53Z</time>
      </trkpt>
      <trkpt lat="49.50893" lon="5.80325">
        <ele>387.79</ele>
        <time>2021-05-09T07:49:04Z</time>
      </trkpt>
      <trkpt lat="49.50916" lon="5.80294">
        <ele>387.81</ele>
        <time>2021-05-09T07:49:10Z</time>
      </trkpt>
      <trkpt lat="49.50921" lon="5.80292">
        <ele>387.79</ele>
        <time>2021-05-09T07:49:11Z</time>
      </trkpt>
      <trkpt lat="49.50927" lon="5.80294">
        <ele>387.76</ele>
        <time>2021-05-09T07:49:12Z</time>
      </trkpt>
      <trkpt lat="49.5093" lon="5.80299">
        <ele>387.76</ele>
        <time>2021-05-09T07:49:13Z</time>
      </trkpt>
      <trkpt lat="49.50933" lon="5.80306">
        <ele>387.79</ele>
        <time>2021-05-09T07:49:14Z</time>
      </trkpt>
      <trkpt lat="49.50935" lon="5.80312">
        <ele>387.83</ele>
        <time>2021-05-09T07:49:15Z</time>
      </trkpt>
      <trkpt lat="49.50974" lon="5.80395">
        <ele>389.01</ele>
        <time>2021-05-09T07:49:31Z</time>
      </trkpt>
      <trkpt lat="49.50977" lon="5.80394">
        <ele>389.03</ele>
        <time>2021-05-09T07:49:32Z</time>
      </trkpt>
      <trkpt lat="49.50979" lon="5.80392">
        <ele>389.15</ele>
        <time>2021-05-09T07:49:33Z</time>
      </trkpt>
      <trkpt lat="49.50982" lon="5.80389">
        <ele>389.38</ele>
        <time>2021-05-09T07:49:34Z</time>
      </trkpt>
      <trkpt lat="49.50985" lon="5.80385">
        <ele>389.58</ele>
        <time>2021-05-09T07:49:35Z</time>
      </trkpt>
      <trkpt lat="49.51045" lon="5.80356">
        <ele>388.21</ele>
        <time>2021-05-09T07:49:48Z</time>
      </trkpt>
      <trkpt lat="49.51094" lon="5.80339">
        <ele>385.1</ele>
        <time>2021-05-09T07:49:54Z</time>
      </trkpt>
      <trkpt lat="49.51142" lon="5.80326">
        <ele>381.51</ele>
        <time>2021-05-09T07:49:59Z</time>
      </trkpt>
      <trkpt lat="49.51183" lon="5.80313">
        <ele>379.63</ele>
        <time>2021-05-09T07:50:04Z</time>
      </trkpt>
      <trkpt lat="49.5122" lon="5.803">
        <ele>378.97</ele>
        <time>2021-05-09T07:50:09Z</time>
      </trkpt>
      <trkpt lat="49.51235" lon="5.80298">
        <ele>378.79</ele>
        <time>2021-05-09T07:50:11Z</time>
      </trkpt>
      <trkpt lat="49.51241" lon="5.80295">
        <ele>378.36</ele>
        <time>2021-05-09T07:50:12Z</time>
      </trkpt>
      <trkpt lat="49.51248" lon="5.8029">
        <ele>378.17</ele>
        <time>2021-05-09T07:50:13Z</time>
      </trkpt>
      <trkpt lat="49.51296" lon="5.80251">
        <ele>375.01</ele>
        <time>2021-05-09T07:50:19Z</time>
      </trkpt>
      <trkpt lat="49.51305" lon="5.80242">
        <ele>373.97</ele>
        <time>2021-05-09T07:50:20Z</time>
      </trkpt>
      <trkpt lat="49.51323" lon="5.80221">
        <ele>371.58</ele>
        <time>2021-05-09T07:50:23Z</time>
      </trkpt>
      <trkpt lat="49.51327" lon="5.80218">
        <ele>371.14</ele>
        <time>2021-05-09T07:50:24Z</time>
      </trkpt>
      <trkpt lat="49.5133" lon="5.80216">
        <ele>370.8</ele>
        <time>2021-05-09T07:50:25Z</time>
      </trkpt>
      <trkpt lat="49.51333" lon="5.80216">
        <ele>370.47</ele>
        <time>2021-05-09T07:50:26Z</time>
      </trkpt>
      <trkpt lat="49.51345" lon="5.80215">
        <ele>370.2</ele>
        <time>2021-05-09T07:50:31Z</time>
      </trkpt>
      <trkpt lat="49.5138" lon="5.80214">
        <ele>369.04</ele>
        <time>2021-05-09T07:50:44Z</time>
      </trkpt>
      <trkpt lat="49.5139" lon="5.80207">
        <ele>369.11</ele>
        <time>2021-05-09T07:50:47Z</time>
      </trkpt>
      <trkpt lat="49.51406" lon="5.80147">
        <ele>367.12</ele>
        <time>2021-05-09T07:50:55Z</time>
      </trkpt>
      <trkpt lat="49.51421" lon="5.80126">
        <ele>364.82</ele>
        <time>2021-05-09T07:50:59Z</time>
      </trkpt>
      <trkpt lat="49.51459" lon="5.80096">
        <ele>365.61</ele>
        <time>2021-05-09T07:51:11Z</time>
      </trkpt>
      <trkpt lat="49.51493" lon="5.80082">
        <ele>365.74</ele>
        <time>2021-05-09T07:51:19Z</time>
      </trkpt>
      <trkpt lat="49.51506" lon="5.8008">
        <ele>365.74</ele>
        <time>2021-05-09T07:51:22Z</time>
      </trkpt>
      <trkpt lat="49.51524" lon="5.80076">
        <ele>365.15</ele>
        <time>2021-05-09T07:51:26Z</time>
      </trkpt>
      <trkpt lat="49.51575" lon="5.80094">
        <ele>363.82</ele>
        <time>2021-05-09T07:51:37Z</time>
      </trkpt>
      <trkpt lat="49.51621" lon="5.80112">
        <ele>361.9</ele>
        <time>2021-05-09T07:51:47Z</time>
      </trkpt>
      <trkpt lat="49.51649" lon="5.80138">
        <ele>361.34</ele>
        <time>2021-05-09T07:51:56Z</time>
      </trkpt>
      <trkpt lat="49.51676" lon="5.80162">
        <ele>361.53</ele>
        <time>2021-05-09T07:52:07Z</time>
      </trkpt>
      <trkpt lat="49.5172" lon="5.80201">
        <ele>360.06</ele>
        <time>2021-05-09T07:52:17Z</time>
      </trkpt>
      <trkpt lat="49.5177" lon="5.80213">
        <ele>360.88</ele>
        <time>2021-05-09T07:52:27Z</time>
      </trkpt>
      <trkpt lat="49.51817" lon="5.80214">
        <ele>361.72</ele>
        <time>2021-05-09T07:52:38Z</time>
      </trkpt>
      <trkpt lat="49.5183" lon="5.80214">
        <ele>361.96</ele>
        <time>2021-05-09T07:52:43Z</time>
      </trkpt>
      <trkpt lat="49.51834" lon="5.8023">
        <ele>363.01</ele>
        <time>2021-05-09T07:52:50Z</time>
      </trkpt>
      <trkpt lat="49.51832" lon="5.80239">
        <ele>365.17</ele>
        <time>2021-05-09T07:52:55Z</time>
      </trkpt>
      <trkpt lat="49.51847" lon="5.80268">
        <ele>367.77</ele>
        <time>2021-05-09T07:53:10Z</time>
      </trkpt>
      <trkpt lat="49.5185" lon="5.80275">
        <ele>368.1</ele>
        <time>2021-05-09T07:53:13Z</time>
      </trkpt>
      <trkpt lat="49.51861" lon="5.80284">
        <ele>368.8</ele>
        <time>2021-05-09T07:53:22Z</time>
      </trkpt>
      <trkpt lat="49.5189" lon="5.80303">
        <ele>368.73</ele>
        <time>2021-05-09T07:53:35Z</time>
      </trkpt>
      <trkpt lat="49.51906" lon="5.80334">
        <ele>368.83</ele>
        <time>2021-05-09T07:53:46Z</time>
      </trkpt>
      <trkpt lat="49.51908" lon="5.80341">
        <ele>369.05</ele>
        <time>2021-05-09T07:53:48Z</time>
      </trkpt>
      <trkpt lat="49.51909" lon="5.80368">
        <ele>370.59</ele>
        <time>2021-05-09T07:53:58Z</time>
      </trkpt>
      <trkpt lat="49.51909" lon="5.80385">
        <ele>371.8</ele>
        <time>2021-05-09T07:54:03Z</time>
      </trkpt>
      <trkpt lat="49.51915" lon="5.80427">
        <ele>372.96</ele>
        <time>2021-05-09T07:54:17Z</time>
      </trkpt>
      <trkpt lat="49.51916" lon="5.80436">
        <ele>373.75</ele>
        <time>2021-05-09T07:54:20Z</time>
      </trkpt>
      <trkpt lat="49.51913" lon="5.80467">
        <ele>374.72</ele>
        <time>2021-05-09T07:54:31Z</time>
      </trkpt>
      <trkpt lat="49.51908" lon="5.8049">
        <ele>375.79</ele>
        <time>2021-05-09T07:54:40Z</time>
      </trkpt>
      <trkpt lat="49.51896" lon="5.80527">
        <ele>377.54</ele>
        <time>2021-05-09T07:54:52Z</time>
      </trkpt>
      <trkpt lat="49.51893" lon="5.80535">
        <ele>378.05</ele>
        <time>2021-05-09T07:54:55Z</time>
      </trkpt>
      <trkpt lat="49.51887" lon="5.80545">
        <ele>378.65</ele>
        <time>2021-05-09T07:55:00Z</time>
      </trkpt>
      <trkpt lat="49.51887" lon="5.80564">
        <ele>379.32</ele>
        <time>2021-05-09T07:55:07Z</time>
      </trkpt>
      <trkpt lat="49.51901" lon="5.80583">
        <ele>379.95</ele>
        <time>2021-05-09T07:55:14Z</time>
      </trkpt>
      <trkpt lat="49.51903" lon="5.80596">
        <ele>379.45</ele>
        <time>2021-05-09T07:55:18Z</time>
      </trkpt>
      <trkpt lat="49.51907" lon="5.80628">
        <ele>380.33</ele>
        <time>2021-05-09T07:55:31Z</time>
      </trkpt>
      <trkpt lat="49.51907" lon="5.80642">
        <ele>380.42</ele>
        <time>2021-05-09T07:55:43Z</time>
      </trkpt>
      <trkpt lat="49.51905" lon="5.80671">
        <ele>380.34</ele>
        <time>2021-05-09T07:55:53Z</time>
      </trkpt>
      <trkpt lat="49.51913" lon="5.80701">
        <ele>380.53</ele>
        <time>2021-05-09T07:56:01Z</time>
      </trkpt>
      <trkpt lat="49.51899" lon="5.80742">
        <ele>380.75</ele>
        <time>2021-05-09T07:56:12Z</time>
      </trkpt>
      <trkpt lat="49.51871" lon="5.80781">
        <ele>380.09</ele>
        <time>2021-05-09T07:56:23Z</time>
      </trkpt>
      <trkpt lat="49.51833" lon="5.80795">
        <ele>378.9</ele>
        <time>2021-05-09T07:56:35Z</time>
      </trkpt>
      <trkpt lat="49.51804" lon="5.80801">
        <ele>381.07</ele>
        <time>2021-05-09T07:56:45Z</time>
      </trkpt>
      <trkpt lat="49.51754" lon="5.80804">
        <ele>383.35</ele>
        <time>2021-05-09T07:57:00Z</time>
      </trkpt>
      <trkpt lat="49.51718" lon="5.80803">
        <ele>383.57</ele>
        <time>2021-05-09T07:57:14Z</time>
      </trkpt>
      <trkpt lat="49.51686" lon="5.80798">
        <ele>383.97</ele>
        <time>2021-05-09T07:57:28Z</time>
      </trkpt>
      <trkpt lat="49.51655" lon="5.80803">
        <ele>383.98</ele>
        <time>2021-05-09T07:57:40Z</time>
      </trkpt>
      <trkpt lat="49.51617" lon="5.80791">
        <ele>383.03</ele>
        <time>2021-05-09T07:57:53Z</time>
      </trkpt>
      <trkpt lat="49.51578" lon="5.80784">
        <ele>384.62</ele>
        <time>2021-05-09T07:58:07Z</time>
      </trkpt>
      <trkpt lat="49.51535" lon="5.8077">
        <ele>384.27</ele>
        <time>2021-05-09T07:58:20Z</time>
      </trkpt>
      <trkpt lat="49.51529" lon="5.80762">
        <ele>384.57</ele>
        <time>2021-05-09T07:58:23Z</time>
      </trkpt>
      <trkpt lat="49.51522" lon="5.80762">
        <ele>385.87</ele>
        <time>2021-05-09T07:58:41Z</time>
      </trkpt>
      <trkpt lat="49.51519" lon="5.80762">
        <ele>386.05</ele>
        <time>2021-05-09T07:59:07Z</time>
      </trkpt>
      <trkpt lat="49.51515" lon="5.8076">
        <ele>385.86</ele>
        <time>2021-05-09T07:59:33Z</time>
      </trkpt>
      <trkpt lat="49.51513" lon="5.80761">
        <ele>385.86</ele>
        <time>2021-05-09T07:59:57Z</time>
      </trkpt>
      <trkpt lat="49.51511" lon="5.80756">
        <ele>385.86</ele>
        <time>2021-05-09T08:00:30Z</time>
      </trkpt>
      <trkpt lat="49.51509" lon="5.80753">
        <ele>385.86</ele>
        <time>2021-05-09T08:00:45Z</time>
      </trkpt>
      <trkpt lat="49.51513" lon="5.80757">
        <ele>385.79</ele>
        <time>2021-05-09T08:00:53Z</time>
      </trkpt>
      <trkpt lat="49.51514" lon="5.8076">
        <ele>385.63</ele>
        <time>2021-05-09T08:00:55Z</time>
      </trkpt>
      <trkpt lat="49.51514" lon="5.80767">
        <ele>384.68</ele>
        <time>2021-05-09T08:01:07Z</time>
      </trkpt>
      <trkpt lat="49.51516" lon="5.80765">
        <ele>385.52</ele>
        <time>2021-05-09T08:01:17Z</time>
      </trkpt>
      <trkpt lat="49.51499" lon="5.80773">
        <ele>384.31</ele>
        <time>2021-05-09T08:01:24Z</time>
      </trkpt>
      <trkpt lat="49.51473" lon="5.80776">
        <ele>380.3</ele>
        <time>2021-05-09T08:01:29Z</time>
      </trkpt>
      <trkpt lat="49.51459" lon="5.80776">
        <ele>378.7</ele>
        <time>2021-05-09T08:01:31Z</time>
      </trkpt>
      <trkpt lat="49.51444" lon="5.80778">
        <ele>377.47</ele>
        <time>2021-05-09T08:01:33Z</time>
      </trkpt>
      <trkpt lat="49.5142" lon="5.80787">
        <ele>375.11</ele>
        <time>2021-05-09T08:01:36Z</time>
      </trkpt>
      <trkpt lat="49.51394" lon="5.80797">
        <ele>371.66</ele>
        <time>2021-05-09T08:01:39Z</time>
      </trkpt>
      <trkpt lat="49.51364" lon="5.80809">
        <ele>368.09</ele>
        <time>2021-05-09T08:01:42Z</time>
      </trkpt>
      <trkpt lat="49.51355" lon="5.80812">
        <ele>367.37</ele>
        <time>2021-05-09T08:01:43Z</time>
      </trkpt>
      <trkpt lat="49.51329" lon="5.80818">
        <ele>365.21</ele>
        <time>2021-05-09T08:01:46Z</time>
      </trkpt>
      <trkpt lat="49.51294" lon="5.80829">
        <ele>360.42</ele>
        <time>2021-05-09T08:01:50Z</time>
      </trkpt>
      <trkpt lat="49.51274" lon="5.8083">
        <ele>357.95</ele>
        <time>2021-05-09T08:01:53Z</time>
      </trkpt>
      <trkpt lat="49.51269" lon="5.80841">
        <ele>355.62</ele>
        <time>2021-05-09T08:02:04Z</time>
      </trkpt>
      <trkpt lat="49.5127" lon="5.80849">
        <ele>355.83</ele>
        <time>2021-05-09T08:02:17Z</time>
      </trkpt>
      <trkpt lat="49.51269" lon="5.80862">
        <ele>355.76</ele>
        <time>2021-05-09T08:02:47Z</time>
      </trkpt>
      <trkpt lat="49.5127" lon="5.80862">
        <ele>355.64</ele>
        <time>2021-05-09T08:02:48Z</time>
      </trkpt>
      <trkpt lat="49.5128" lon="5.80863">
        <ele>355.2</ele>
        <time>2021-05-09T08:02:52Z</time>
      </trkpt>
      <trkpt lat="49.51293" lon="5.80866">
        <ele>354.65</ele>
        <time>2021-05-09T08:02:56Z</time>
      </trkpt>
      <trkpt lat="49.5131" lon="5.80868">
        <ele>353.91</ele>
        <time>2021-05-09T08:03:01Z</time>
      </trkpt>
      <trkpt lat="49.51364" lon="5.80862">
        <ele>352.7</ele>
        <time>2021-05-09T08:03:13Z</time>
      </trkpt>
      <trkpt lat="49.51399" lon="5.80858">
        <ele>352.56</ele>
        <time>2021-05-09T08:03:24Z</time>
      </trkpt>
      <trkpt lat="49.5144" lon="5.80862">
        <ele>350.8</ele>
        <time>2021-05-09T08:03:34Z</time>
      </trkpt>
      <trkpt lat="49.51494" lon="5.80873">
        <ele>348.78</ele>
        <time>2021-05-09T08:03:45Z</time>
      </trkpt>
      <trkpt lat="49.51522" lon="5.80883">
        <ele>348.52</ele>
        <time>2021-05-09T08:03:52Z</time>
      </trkpt>
      <trkpt lat="49.51534" lon="5.80885">
        <ele>348.37</ele>
        <time>2021-05-09T08:03:54Z</time>
      </trkpt>
      <trkpt lat="49.51566" lon="5.80896">
        <ele>347.26</ele>
        <time>2021-05-09T08:04:01Z</time>
      </trkpt>
      <trkpt lat="49.51577" lon="5.809">
        <ele>347.22</ele>
        <time>2021-05-09T08:04:03Z</time>
      </trkpt>
      <trkpt lat="49.51617" lon="5.80911">
        <ele>346.67</ele>
        <time>2021-05-09T08:04:10Z</time>
      </trkpt>
      <trkpt lat="49.51638" lon="5.80916">
        <ele>346.09</ele>
        <time>2021-05-09T08:04:14Z</time>
      </trkpt>
      <trkpt lat="49.51671" lon="5.80917">
        <ele>345.67</ele>
        <time>2021-05-09T08:04:21Z</time>
      </trkpt>
      <trkpt lat="49.51666" lon="5.80942">
        <ele>343.8</ele>
        <time>2021-05-09T08:04:28Z</time>
      </trkpt>
      <trkpt lat="49.51667" lon="5.80952">
        <ele>343.15</ele>
        <time>2021-05-09T08:04:30Z</time>
      </trkpt>
      <trkpt lat="49.51668" lon="5.8096">
        <ele>343.07</ele>
        <time>2021-05-09T08:04:32Z</time>
      </trkpt>
      <trkpt lat="49.51662" lon="5.80975">
        <ele>342.87</ele>
        <time>2021-05-09T08:04:36Z</time>
      </trkpt>
      <trkpt lat="49.51632" lon="5.80977">
        <ele>343.2</ele>
        <time>2021-05-09T08:04:45Z</time>
      </trkpt>
      <trkpt lat="49.51605" lon="5.80982">
        <ele>343.35</ele>
        <time>2021-05-09T08:04:51Z</time>
      </trkpt>
      <trkpt lat="49.51571" lon="5.81005">
        <ele>342.24</ele>
        <time>2021-05-09T08:04:56Z</time>
      </trkpt>
      <trkpt lat="49.51547" lon="5.81032">
        <ele>337.24</ele>
        <time>2021-05-09T08:04:59Z</time>
      </trkpt>
      <trkpt lat="49.51532" lon="5.81055">
        <ele>332.6</ele>
        <time>2021-05-09T08:05:01Z</time>
      </trkpt>
      <trkpt lat="49.51526" lon="5.81064">
        <ele>331.01</ele>
        <time>2021-05-09T08:05:02Z</time>
      </trkpt>
      <trkpt lat="49.51521" lon="5.81074">
        <ele>329.79</ele>
        <time>2021-05-09T08:05:04Z</time>
      </trkpt>
      <trkpt lat="49.51521" lon="5.81078">
        <ele>330.67</ele>
        <time>2021-05-09T08:05:06Z</time>
      </trkpt>
      <trkpt lat="49.51513" lon="5.81083">
        <ele>333.21</ele>
        <time>2021-05-09T08:05:10Z</time>
      </trkpt>
      <trkpt lat="49.51509" lon="5.81085">
        <ele>333.32</ele>
        <time>2021-05-09T08:05:11Z</time>
      </trkpt>
      <trkpt lat="49.51495" lon="5.81098">
        <ele>332.44</ele>
        <time>2021-05-09T08:05:14Z</time>
      </trkpt>
      <trkpt lat="49.5148" lon="5.81115">
        <ele>335.48</ele>
        <time>2021-05-09T08:05:21Z</time>
      </trkpt>
      <trkpt lat="49.51477" lon="5.81116">
        <ele>336.11</ele>
        <time>2021-05-09T08:05:23Z</time>
      </trkpt>
      <trkpt lat="49.51477" lon="5.81113">
        <ele>338.26</ele>
        <time>2021-05-09T08:05:35Z</time>
      </trkpt>
      <trkpt lat="49.51478" lon="5.81114">
        <ele>338</ele>
        <time>2021-05-09T08:05:56Z</time>
      </trkpt>
      <trkpt lat="49.5148" lon="5.81114">
        <ele>338.3</ele>
        <time>2021-05-09T08:06:18Z</time>
      </trkpt>
      <trkpt lat="49.51481" lon="5.81113">
        <ele>338.36</ele>
        <time>2021-05-09T08:06:20Z</time>
      </trkpt>
      <trkpt lat="49.51484" lon="5.81111">
        <ele>338.39</ele>
        <time>2021-05-09T08:06:22Z</time>
      </trkpt>
      <trkpt lat="49.51513" lon="5.81078">
        <ele>335.79</ele>
        <time>2021-05-09T08:06:30Z</time>
      </trkpt>
      <trkpt lat="49.51522" lon="5.81039">
        <ele>331.06</ele>
        <time>2021-05-09T08:06:37Z</time>
      </trkpt>
      <trkpt lat="49.51518" lon="5.81004">
        <ele>330.32</ele>
        <time>2021-05-09T08:06:44Z</time>
      </trkpt>
      <trkpt lat="49.51523" lon="5.80996">
        <ele>330.95</ele>
        <time>2021-05-09T08:06:47Z</time>
      </trkpt>
      <trkpt lat="49.51517" lon="5.80972">
        <ele>331.15</ele>
        <time>2021-05-09T08:06:55Z</time>
      </trkpt>
      <trkpt lat="49.51484" lon="5.80972">
        <ele>329.46</ele>
        <time>2021-05-09T08:07:06Z</time>
      </trkpt>
      <trkpt lat="49.51478" lon="5.80967">
        <ele>329.52</ele>
        <time>2021-05-09T08:07:08Z</time>
      </trkpt>
      <trkpt lat="49.51467" lon="5.80949">
        <ele>329.06</ele>
        <time>2021-05-09T08:07:11Z</time>
      </trkpt>
      <trkpt lat="49.51429" lon="5.80946">
        <ele>326.56</ele>
        <time>2021-05-09T08:07:18Z</time>
      </trkpt>
      <trkpt lat="49.51369" lon="5.80984">
        <ele>322.45</ele>
        <time>2021-05-09T08:07:28Z</time>
      </trkpt>
      <trkpt lat="49.51357" lon="5.80993">
        <ele>321.91</ele>
        <time>2021-05-09T08:07:30Z</time>
      </trkpt>
      <trkpt lat="49.51333" lon="5.81025">
        <ele>320.44</ele>
        <time>2021-05-09T08:07:35Z</time>
      </trkpt>
      <trkpt lat="49.51319" lon="5.81042">
        <ele>319.06</ele>
        <time>2021-05-09T08:07:37Z</time>
      </trkpt>
      <trkpt lat="49.51293" lon="5.81061">
        <ele>313.21</ele>
        <time>2021-05-09T08:07:40Z</time>
      </trkpt>
      <trkpt lat="49.51283" lon="5.81065">
        <ele>311.47</ele>
        <time>2021-05-09T08:07:41Z</time>
      </trkpt>
      <trkpt lat="49.51263" lon="5.8107">
        <ele>307.53</ele>
        <time>2021-05-09T08:07:43Z</time>
      </trkpt>
      <trkpt lat="49.51238" lon="5.811">
        <ele>304.69</ele>
        <time>2021-05-09T08:07:48Z</time>
      </trkpt>
      <trkpt lat="49.51234" lon="5.81104">
        <ele>304.81</ele>
        <time>2021-05-09T08:07:50Z</time>
      </trkpt>
      <trkpt lat="49.51232" lon="5.81105">
        <ele>307.47</ele>
        <time>2021-05-09T08:08:00Z</time>
      </trkpt>
      <trkpt lat="49.51213" lon="5.81101">
        <ele>306.26</ele>
        <time>2021-05-09T08:08:06Z</time>
      </trkpt>
      <trkpt lat="49.51186" lon="5.81113">
        <ele>305.63</ele>
        <time>2021-05-09T08:08:13Z</time>
      </trkpt>
      <trkpt lat="49.51175" lon="5.8113">
        <ele>305.01</ele>
        <time>2021-05-09T08:08:17Z</time>
      </trkpt>
      <trkpt lat="49.51174" lon="5.81147">
        <ele>304.03</ele>
        <time>2021-05-09T08:08:20Z</time>
      </trkpt>
      <trkpt lat="49.51176" lon="5.81171">
        <ele>303.12</ele>
        <time>2021-05-09T08:08:22Z</time>
      </trkpt>
      <trkpt lat="49.51175" lon="5.81207">
        <ele>297.15</ele>
        <time>2021-05-09T08:08:25Z</time>
      </trkpt>
      <trkpt lat="49.51166" lon="5.81231">
        <ele>293.64</ele>
        <time>2021-05-09T08:08:28Z</time>
      </trkpt>
      <trkpt lat="49.51162" lon="5.81235">
        <ele>293.38</ele>
        <time>2021-05-09T08:08:29Z</time>
      </trkpt>
      <trkpt lat="49.51145" lon="5.81252">
        <ele>295.68</ele>
        <time>2021-05-09T08:08:35Z</time>
      </trkpt>
      <trkpt lat="49.51118" lon="5.81269">
        <ele>296.2</ele>
        <time>2021-05-09T08:08:50Z</time>
      </trkpt>
      <trkpt lat="49.51089" lon="5.81286">
        <ele>295.55</ele>
        <time>2021-05-09T08:09:06Z</time>
      </trkpt>
      <trkpt lat="49.5107" lon="5.81315">
        <ele>294.79</ele>
        <time>2021-05-09T08:09:17Z</time>
      </trkpt>
      <trkpt lat="49.51053" lon="5.8136">
        <ele>294.58</ele>
        <time>2021-05-09T08:09:30Z</time>
      </trkpt>
      <trkpt lat="49.51026" lon="5.81411">
        <ele>293.09</ele>
        <time>2021-05-09T08:09:47Z</time>
      </trkpt>
      <trkpt lat="49.50995" lon="5.81441">
        <ele>294.77</ele>
        <time>2021-05-09T08:10:03Z</time>
      </trkpt>
      <trkpt lat="49.50967" lon="5.81461">
        <ele>295.78</ele>
        <time>2021-05-09T08:10:16Z</time>
      </trkpt>
      <trkpt lat="49.50945" lon="5.81484">
        <ele>297.14</ele>
        <time>2021-05-09T08:10:31Z</time>
      </trkpt>
      <trkpt lat="49.50944" lon="5.81485">
        <ele>297.35</ele>
        <time>2021-05-09T08:10:32Z</time>
      </trkpt>
      <trkpt lat="49.50943" lon="5.81486">
        <ele>297.47</ele>
        <time>2021-05-09T08:10:33Z</time>
      </trkpt>
      <trkpt lat="49.50941" lon="5.81486">
        <ele>297.6</ele>
        <time>2021-05-09T08:10:34Z</time>
      </trkpt>
      <trkpt lat="49.50925" lon="5.81491">
        <ele>300.62</ele>
        <time>2021-05-09T08:10:48Z</time>
      </trkpt>
      <trkpt lat="49.50903" lon="5.81492">
        <ele>302.93</ele>
        <time>2021-05-09T08:11:05Z</time>
      </trkpt>
      <trkpt lat="49.50882" lon="5.81496">
        <ele>305.34</ele>
        <time>2021-05-09T08:11:22Z</time>
      </trkpt>
      <trkpt lat="49.5086" lon="5.81486">
        <ele>307.79</ele>
        <time>2021-05-09T08:11:37Z</time>
      </trkpt>
      <trkpt lat="49.5084" lon="5.81477">
        <ele>309.66</ele>
        <time>2021-05-09T08:11:52Z</time>
      </trkpt>
      <trkpt lat="49.50825" lon="5.81469">
        <ele>312</ele>
        <time>2021-05-09T08:12:05Z</time>
      </trkpt>
      <trkpt lat="49.5082" lon="5.81465">
        <ele>312.38</ele>
        <time>2021-05-09T08:12:10Z</time>
      </trkpt>
      <trkpt lat="49.50817" lon="5.81464">
        <ele>312.92</ele>
        <time>2021-05-09T08:12:13Z</time>
      </trkpt>
      <trkpt lat="49.50799" lon="5.81457">
        <ele>315.36</ele>
        <time>2021-05-09T08:12:30Z</time>
      </trkpt>
      <trkpt lat="49.5078" lon="5.81445">
        <ele>317.48</ele>
        <time>2021-05-09T08:12:44Z</time>
      </trkpt>
      <trkpt lat="49.50762" lon="5.81429">
        <ele>319.52</ele>
        <time>2021-05-09T08:12:59Z</time>
      </trkpt>
      <trkpt lat="49.50744" lon="5.81421">
        <ele>321.94</ele>
        <time>2021-05-09T08:13:12Z</time>
      </trkpt>
      <trkpt lat="49.50724" lon="5.81407">
        <ele>323.6</ele>
        <time>2021-05-09T08:13:27Z</time>
      </trkpt>
      <trkpt lat="49.507" lon="5.81393">
        <ele>326.56</ele>
        <time>2021-05-09T08:13:46Z</time>
      </trkpt>
      <trkpt lat="49.50689" lon="5.81385">
        <ele>328.02</ele>
        <time>2021-05-09T08:13:56Z</time>
      </trkpt>
      <trkpt lat="49.50674" lon="5.8137">
        <ele>329.14</ele>
        <time>2021-05-09T08:14:10Z</time>
      </trkpt>
      <trkpt lat="49.50644" lon="5.81369">
        <ele>330.13</ele>
        <time>2021-05-09T08:14:22Z</time>
      </trkpt>
      <trkpt lat="49.50614" lon="5.81363">
        <ele>330.1</ele>
        <time>2021-05-09T08:14:34Z</time>
      </trkpt>
      <trkpt lat="49.50601" lon="5.81361">
        <ele>329.83</ele>
        <time>2021-05-09T08:14:40Z</time>
      </trkpt>
      <trkpt lat="49.50596" lon="5.81355">
        <ele>330.25</ele>
        <time>2021-05-09T08:14:44Z</time>
      </trkpt>
      <trkpt lat="49.50588" lon="5.81355">
        <ele>331.61</ele>
        <time>2021-05-09T08:15:00Z</time>
      </trkpt>
      <trkpt lat="49.50563" lon="5.81353">
        <ele>329.6</ele>
        <time>2021-05-09T08:15:09Z</time>
      </trkpt>
      <trkpt lat="49.50544" lon="5.81347">
        <ele>328.89</ele>
        <time>2021-05-09T08:15:13Z</time>
      </trkpt>
      <trkpt lat="49.50511" lon="5.8133">
        <ele>326.45</ele>
        <time>2021-05-09T08:15:18Z</time>
      </trkpt>
      <trkpt lat="49.50497" lon="5.81318">
        <ele>324.86</ele>
        <time>2021-05-09T08:15:20Z</time>
      </trkpt>
      <trkpt lat="49.50472" lon="5.81317">
        <ele>321.56</ele>
        <time>2021-05-09T08:15:27Z</time>
      </trkpt>
      <trkpt lat="49.50471" lon="5.81318">
        <ele>321.51</ele>
        <time>2021-05-09T08:15:28Z</time>
      </trkpt>
      <trkpt lat="49.5047" lon="5.81325">
        <ele>321.25</ele>
        <time>2021-05-09T08:15:52Z</time>
      </trkpt>
      <trkpt lat="49.50471" lon="5.81326">
        <ele>321.23</ele>
        <time>2021-05-09T08:15:56Z</time>
      </trkpt>
      <trkpt lat="49.50477" lon="5.81339">
        <ele>320.49</ele>
        <time>2021-05-09T08:16:00Z</time>
      </trkpt>
      <trkpt lat="49.50483" lon="5.81366">
        <ele>317.87</ele>
        <time>2021-05-09T08:16:03Z</time>
      </trkpt>
      <trkpt lat="49.50492" lon="5.8141">
        <ele>312.26</ele>
        <time>2021-05-09T08:16:06Z</time>
      </trkpt>
      <trkpt lat="49.50497" lon="5.81443">
        <ele>307.57</ele>
        <time>2021-05-09T08:16:08Z</time>
      </trkpt>
      <trkpt lat="49.50499" lon="5.81456">
        <ele>305.47</ele>
        <time>2021-05-09T08:16:09Z</time>
      </trkpt>
      <trkpt lat="49.50498" lon="5.81476">
        <ele>301.68</ele>
        <time>2021-05-09T08:16:13Z</time>
      </trkpt>
      <trkpt lat="49.50497" lon="5.81477">
        <ele>301.69</ele>
        <time>2021-05-09T08:16:15Z</time>
      </trkpt>
      <trkpt lat="49.50478" lon="5.81509">
        <ele>299.29</ele>
        <time>2021-05-09T08:16:21Z</time>
      </trkpt>
      <trkpt lat="49.50472" lon="5.81516">
        <ele>299.29</ele>
        <time>2021-05-09T08:16:22Z</time>
      </trkpt>
      <trkpt lat="49.50466" lon="5.81521">
        <ele>296.86</ele>
        <time>2021-05-09T08:16:23Z</time>
      </trkpt>
      <trkpt lat="49.50463" lon="5.81527">
        <ele>295.78</ele>
        <time>2021-05-09T08:16:25Z</time>
      </trkpt>
      <trkpt lat="49.50463" lon="5.8153">
        <ele>295.58</ele>
        <time>2021-05-09T08:16:26Z</time>
      </trkpt>
      <trkpt lat="49.50469" lon="5.8155">
        <ele>295.38</ele>
        <time>2021-05-09T08:16:31Z</time>
      </trkpt>
      <trkpt lat="49.50491" lon="5.81569">
        <ele>293.96</ele>
        <time>2021-05-09T08:16:36Z</time>
      </trkpt>
      <trkpt lat="49.50499" lon="5.81577">
        <ele>293.38</ele>
        <time>2021-05-09T08:16:38Z</time>
      </trkpt>
      <trkpt lat="49.50509" lon="5.81588">
        <ele>293.22</ele>
        <time>2021-05-09T08:16:41Z</time>
      </trkpt>
      <trkpt lat="49.50539" lon="5.81578">
        <ele>292.62</ele>
        <time>2021-05-09T08:16:51Z</time>
      </trkpt>
      <trkpt lat="49.50543" lon="5.81587">
        <ele>292.61</ele>
        <time>2021-05-09T08:16:57Z</time>
      </trkpt>
      <trkpt lat="49.50525" lon="5.81624">
        <ele>294.28</ele>
        <time>2021-05-09T08:17:10Z</time>
      </trkpt>
      <trkpt lat="49.5051" lon="5.81662">
        <ele>295.79</ele>
        <time>2021-05-09T08:17:24Z</time>
      </trkpt>
      <trkpt lat="49.50478" lon="5.8167">
        <ele>295.48</ele>
        <time>2021-05-09T08:17:36Z</time>
      </trkpt>
      <trkpt lat="49.50436" lon="5.8167">
        <ele>295.93</ele>
        <time>2021-05-09T08:17:50Z</time>
      </trkpt>
      <trkpt lat="49.50401" lon="5.81673">
        <ele>292.9</ele>
        <time>2021-05-09T08:17:56Z</time>
      </trkpt>
      <trkpt lat="49.50377" lon="5.81672">
        <ele>291.26</ele>
        <time>2021-05-09T08:18:00Z</time>
      </trkpt>
      <trkpt lat="49.50337" lon="5.81686">
        <ele>291.96</ele>
        <time>2021-05-09T08:18:10Z</time>
      </trkpt>
      <trkpt lat="49.50307" lon="5.81708">
        <ele>292.66</ele>
        <time>2021-05-09T08:18:21Z</time>
      </trkpt>
      <trkpt lat="49.50305" lon="5.8171">
        <ele>293.04</ele>
        <time>2021-05-09T08:18:22Z</time>
      </trkpt>
      <trkpt lat="49.50303" lon="5.81712">
        <ele>293.86</ele>
        <time>2021-05-09T08:18:23Z</time>
      </trkpt>
      <trkpt lat="49.50276" lon="5.81739">
        <ele>296.38</ele>
        <time>2021-05-09T08:18:38Z</time>
      </trkpt>
      <trkpt lat="49.5025" lon="5.81769">
        <ele>298.56</ele>
        <time>2021-05-09T08:18:54Z</time>
      </trkpt>
      <trkpt lat="49.5022" lon="5.81799">
        <ele>299.83</ele>
        <time>2021-05-09T08:19:11Z</time>
      </trkpt>
      <trkpt lat="49.5017" lon="5.81801">
        <ele>299.22</ele>
        <time>2021-05-09T08:19:28Z</time>
      </trkpt>
      <trkpt lat="49.50126" lon="5.81795">
        <ele>298.18</ele>
        <time>2021-05-09T08:19:40Z</time>
      </trkpt>
      <trkpt lat="49.50122" lon="5.81792">
        <ele>298.24</ele>
        <time>2021-05-09T08:19:41Z</time>
      </trkpt>
      <trkpt lat="49.50116" lon="5.81778">
        <ele>298.37</ele>
        <time>2021-05-09T08:19:44Z</time>
      </trkpt>
      <trkpt lat="49.50107" lon="5.81741">
        <ele>298.91</ele>
        <time>2021-05-09T08:19:50Z</time>
      </trkpt>
      <trkpt lat="49.50101" lon="5.81715">
        <ele>299.72</ele>
        <time>2021-05-09T08:19:55Z</time>
      </trkpt>
      <trkpt lat="49.50098" lon="5.81712">
        <ele>300.11</ele>
        <time>2021-05-09T08:19:57Z</time>
      </trkpt>
      <trkpt lat="49.50097" lon="5.81713">
        <ele>300.32</ele>
        <time>2021-05-09T08:19:58Z</time>
      </trkpt>
      <trkpt lat="49.50069" lon="5.81725">
        <ele>301.37</ele>
        <time>2021-05-09T08:20:09Z</time>
      </trkpt>
      <trkpt lat="49.50036" lon="5.81745">
        <ele>303.38</ele>
        <time>2021-05-09T08:20:22Z</time>
      </trkpt>
      <trkpt lat="49.49994" lon="5.8177">
        <ele>303.23</ele>
        <time>2021-05-09T08:20:38Z</time>
      </trkpt>
      <trkpt lat="49.49953" lon="5.81809">
        <ele>305.11</ele>
        <time>2021-05-09T08:20:55Z</time>
      </trkpt>
      <trkpt lat="49.49925" lon="5.8184">
        <ele>304.46</ele>
        <time>2021-05-09T08:21:07Z</time>
      </trkpt>
      <trkpt lat="49.4988" lon="5.81864">
        <ele>305.33</ele>
        <time>2021-05-09T08:21:23Z</time>
      </trkpt>
      <trkpt lat="49.49827" lon="5.81874">
        <ele>305.66</ele>
        <time>2021-05-09T08:21:37Z</time>
      </trkpt>
      <trkpt lat="49.49805" lon="5.81873">
        <ele>303.9</ele>
        <time>2021-05-09T08:21:41Z</time>
      </trkpt>
      <trkpt lat="49.49728" lon="5.8186">
        <ele>301.36</ele>
        <time>2021-05-09T08:21:57Z</time>
      </trkpt>
      <trkpt lat="49.49723" lon="5.81858">
        <ele>301.11</ele>
        <time>2021-05-09T08:21:58Z</time>
      </trkpt>
      <trkpt lat="49.49701" lon="5.81844">
        <ele>300.91</ele>
        <time>2021-05-09T08:22:03Z</time>
      </trkpt>
      <trkpt lat="49.49675" lon="5.8186">
        <ele>302.49</ele>
        <time>2021-05-09T08:22:11Z</time>
      </trkpt>
      <trkpt lat="49.49675" lon="5.81866">
        <ele>302.64</ele>
        <time>2021-05-09T08:22:12Z</time>
      </trkpt>
      <trkpt lat="49.49676" lon="5.81873">
        <ele>302.78</ele>
        <time>2021-05-09T08:22:13Z</time>
      </trkpt>
      <trkpt lat="49.49677" lon="5.8188">
        <ele>302.88</ele>
        <time>2021-05-09T08:22:14Z</time>
      </trkpt>
      <trkpt lat="49.49678" lon="5.81886">
        <ele>302.93</ele>
        <time>2021-05-09T08:22:15Z</time>
      </trkpt>
      <trkpt lat="49.49678" lon="5.81892">
        <ele>302.95</ele>
        <time>2021-05-09T08:22:16Z</time>
      </trkpt>
      <trkpt lat="49.49679" lon="5.81896">
        <ele>302.98</ele>
        <time>2021-05-09T08:22:17Z</time>
      </trkpt>
      <trkpt lat="49.49681" lon="5.81901">
        <ele>303</ele>
        <time>2021-05-09T08:22:18Z</time>
      </trkpt>
      <trkpt lat="49.49682" lon="5.81906">
        <ele>303.01</ele>
        <time>2021-05-09T08:22:19Z</time>
      </trkpt>
      <trkpt lat="49.49683" lon="5.81913">
        <ele>303.03</ele>
        <time>2021-05-09T08:22:21Z</time>
      </trkpt>
      <trkpt lat="49.49678" lon="5.81944">
        <ele>302.93</ele>
        <time>2021-05-09T08:22:28Z</time>
      </trkpt>
      <trkpt lat="49.49674" lon="5.81949">
        <ele>304.2</ele>
        <time>2021-05-09T08:22:32Z</time>
      </trkpt>
      <trkpt lat="49.49646" lon="5.81955">
        <ele>304.26</ele>
        <time>2021-05-09T08:22:44Z</time>
      </trkpt>
      <trkpt lat="49.4962" lon="5.81966">
        <ele>305.52</ele>
        <time>2021-05-09T08:22:56Z</time>
      </trkpt>
      <trkpt lat="49.49584" lon="5.81981">
        <ele>306.44</ele>
        <time>2021-05-09T08:23:10Z</time>
      </trkpt>
      <trkpt lat="49.49563" lon="5.81991">
        <ele>307.04</ele>
        <time>2021-05-09T08:23:18Z</time>
      </trkpt>
      <trkpt lat="49.4956" lon="5.81993">
        <ele>307.04</ele>
        <time>2021-05-09T08:23:19Z</time>
      </trkpt>
      <trkpt lat="49.49517" lon="5.82012">
        <ele>307.2</ele>
        <time>2021-05-09T08:23:33Z</time>
      </trkpt>
      <trkpt lat="49.49473" lon="5.82022">
        <ele>307.96</ele>
        <time>2021-05-09T08:23:46Z</time>
      </trkpt>
      <trkpt lat="49.49446" lon="5.82025">
        <ele>307.74</ele>
        <time>2021-05-09T08:23:52Z</time>
      </trkpt>
      <trkpt lat="49.49442" lon="5.82026">
        <ele>307.64</ele>
        <time>2021-05-09T08:23:53Z</time>
      </trkpt>
      <trkpt lat="49.49438" lon="5.82028">
        <ele>307.45</ele>
        <time>2021-05-09T08:23:54Z</time>
      </trkpt>
      <trkpt lat="49.49433" lon="5.82029">
        <ele>307.22</ele>
        <time>2021-05-09T08:23:55Z</time>
      </trkpt>
      <trkpt lat="49.49373" lon="5.82054">
        <ele>306.66</ele>
        <time>2021-05-09T08:24:07Z</time>
      </trkpt>
      <trkpt lat="49.49348" lon="5.82076">
        <ele>308.29</ele>
        <time>2021-05-09T08:24:17Z</time>
      </trkpt>
      <trkpt lat="49.49346" lon="5.82078">
        <ele>308.34</ele>
        <time>2021-05-09T08:24:18Z</time>
      </trkpt>
      <trkpt lat="49.49313" lon="5.82115">
        <ele>309.71</ele>
        <time>2021-05-09T08:24:33Z</time>
      </trkpt>
      <trkpt lat="49.49278" lon="5.82142">
        <ele>311.07</ele>
        <time>2021-05-09T08:24:45Z</time>
      </trkpt>
      <trkpt lat="49.49257" lon="5.82167">
        <ele>311.77</ele>
        <time>2021-05-09T08:24:56Z</time>
      </trkpt>
      <trkpt lat="49.49238" lon="5.82203">
        <ele>314.46</ele>
        <time>2021-05-09T08:25:09Z</time>
      </trkpt>
      <trkpt lat="49.4922" lon="5.82257">
        <ele>315.92</ele>
        <time>2021-05-09T08:25:26Z</time>
      </trkpt>
      <trkpt lat="49.49203" lon="5.82314">
        <ele>318.33</ele>
        <time>2021-05-09T08:25:43Z</time>
      </trkpt>
      <trkpt lat="49.49187" lon="5.82361">
        <ele>318.5</ele>
        <time>2021-05-09T08:25:56Z</time>
      </trkpt>
      <trkpt lat="49.49174" lon="5.82418">
        <ele>318.9</ele>
        <time>2021-05-09T08:26:10Z</time>
      </trkpt>
      <trkpt lat="49.49162" lon="5.82462">
        <ele>318.4</ele>
        <time>2021-05-09T08:26:22Z</time>
      </trkpt>
      <trkpt lat="49.49133" lon="5.82525">
        <ele>317.29</ele>
        <time>2021-05-09T08:26:35Z</time>
      </trkpt>
      <trkpt lat="49.49114" lon="5.82557">
        <ele>317.11</ele>
        <time>2021-05-09T08:26:42Z</time>
      </trkpt>
      <trkpt lat="49.49087" lon="5.8261">
        <ele>314.31</ele>
        <time>2021-05-09T08:26:50Z</time>
      </trkpt>
      <trkpt lat="49.49077" lon="5.82631">
        <ele>313.84</ele>
        <time>2021-05-09T08:26:53Z</time>
      </trkpt>
      <trkpt lat="49.49037" lon="5.82671">
        <ele>315.52</ele>
        <time>2021-05-09T08:27:05Z</time>
      </trkpt>
      <trkpt lat="49.49012" lon="5.82735">
        <ele>317.69</ele>
        <time>2021-05-09T08:27:19Z</time>
      </trkpt>
      <trkpt lat="49.48997" lon="5.82789">
        <ele>317.85</ele>
        <time>2021-05-09T08:27:31Z</time>
      </trkpt>
      <trkpt lat="49.48979" lon="5.82864">
        <ele>315.92</ele>
        <time>2021-05-09T08:27:43Z</time>
      </trkpt>
      <trkpt lat="49.48976" lon="5.82887">
        <ele>315.15</ele>
        <time>2021-05-09T08:27:46Z</time>
      </trkpt>
      <trkpt lat="49.48975" lon="5.82895">
        <ele>314.9</ele>
        <time>2021-05-09T08:27:47Z</time>
      </trkpt>
      <trkpt lat="49.48976" lon="5.82902">
        <ele>314.69</ele>
        <time>2021-05-09T08:27:48Z</time>
      </trkpt>
      <trkpt lat="49.48976" lon="5.82909">
        <ele>314.52</ele>
        <time>2021-05-09T08:27:49Z</time>
      </trkpt>
      <trkpt lat="49.48977" lon="5.82917">
        <ele>314.46</ele>
        <time>2021-05-09T08:27:50Z</time>
      </trkpt>
      <trkpt lat="49.48978" lon="5.82925">
        <ele>314.41</ele>
        <time>2021-05-09T08:27:51Z</time>
      </trkpt>
      <trkpt lat="49.48978" lon="5.82933">
        <ele>314.38</ele>
        <time>2021-05-09T08:27:52Z</time>
      </trkpt>
      <trkpt lat="49.48977" lon="5.82941">
        <ele>314.36</ele>
        <time>2021-05-09T08:27:53Z</time>
      </trkpt>
      <trkpt lat="49.48975" lon="5.82948">
        <ele>314.34</ele>
        <time>2021-05-09T08:27:54Z</time>
      </trkpt>
      <trkpt lat="49.48972" lon="5.82954">
        <ele>314.26</ele>
        <time>2021-05-09T08:27:55Z</time>
      </trkpt>
      <trkpt lat="49.4897" lon="5.82959">
        <ele>314.22</ele>
        <time>2021-05-09T08:27:56Z</time>
      </trkpt>
      <trkpt lat="49.48967" lon="5.82965">
        <ele>314.22</ele>
        <time>2021-05-09T08:27:57Z</time>
      </trkpt>
      <trkpt lat="49.48966" lon="5.82971">
        <ele>314.28</ele>
        <time>2021-05-09T08:27:58Z</time>
      </trkpt>
      <trkpt lat="49.48965" lon="5.82977">
        <ele>314.4</ele>
        <time>2021-05-09T08:27:59Z</time>
      </trkpt>
      <trkpt lat="49.48964" lon="5.82983">
        <ele>314.47</ele>
        <time>2021-05-09T08:28:00Z</time>
      </trkpt>
      <trkpt lat="49.48963" lon="5.8299">
        <ele>314.44</ele>
        <time>2021-05-09T08:28:01Z</time>
      </trkpt>
      <trkpt lat="49.48963" lon="5.82998">
        <ele>314.43</ele>
        <time>2021-05-09T08:28:02Z</time>
      </trkpt>
      <trkpt lat="49.48964" lon="5.83006">
        <ele>314.26</ele>
        <time>2021-05-09T08:28:03Z</time>
      </trkpt>
      <trkpt lat="49.48978" lon="5.83057">
        <ele>314.08</ele>
        <time>2021-05-09T08:28:11Z</time>
      </trkpt>
      <trkpt lat="49.48981" lon="5.83062">
        <ele>314.16</ele>
        <time>2021-05-09T08:28:12Z</time>
      </trkpt>
      <trkpt lat="49.48983" lon="5.83068">
        <ele>314.15</ele>
        <time>2021-05-09T08:28:13Z</time>
      </trkpt>
      <trkpt lat="49.48985" lon="5.83075">
        <ele>314</ele>
        <time>2021-05-09T08:28:14Z</time>
      </trkpt>
      <trkpt lat="49.48986" lon="5.83082">
        <ele>313.82</ele>
        <time>2021-05-09T08:28:15Z</time>
      </trkpt>
      <trkpt lat="49.48986" lon="5.83087">
        <ele>313.67</ele>
        <time>2021-05-09T08:28:16Z</time>
      </trkpt>
      <trkpt lat="49.48986" lon="5.83094">
        <ele>313.58</ele>
        <time>2021-05-09T08:28:17Z</time>
      </trkpt>
      <trkpt lat="49.48986" lon="5.83102">
        <ele>313.48</ele>
        <time>2021-05-09T08:28:18Z</time>
      </trkpt>
      <trkpt lat="49.48986" lon="5.83108">
        <ele>313.39</ele>
        <time>2021-05-09T08:28:19Z</time>
      </trkpt>
      <trkpt lat="49.48977" lon="5.83167">
        <ele>312.28</ele>
        <time>2021-05-09T08:28:28Z</time>
      </trkpt>
      <trkpt lat="49.48976" lon="5.83177">
        <ele>312.41</ele>
        <time>2021-05-09T08:28:30Z</time>
      </trkpt>
      <trkpt lat="49.48975" lon="5.83183">
        <ele>312.67</ele>
        <time>2021-05-09T08:28:31Z</time>
      </trkpt>
      <trkpt lat="49.48975" lon="5.83188">
        <ele>312.97</ele>
        <time>2021-05-09T08:28:32Z</time>
      </trkpt>
      <trkpt lat="49.48974" lon="5.83192">
        <ele>313.19</ele>
        <time>2021-05-09T08:28:33Z</time>
      </trkpt>
      <trkpt lat="49.48974" lon="5.83196">
        <ele>313.36</ele>
        <time>2021-05-09T08:28:34Z</time>
      </trkpt>
      <trkpt lat="49.48974" lon="5.83199">
        <ele>313.52</ele>
        <time>2021-05-09T08:28:35Z</time>
      </trkpt>
      <trkpt lat="49.48974" lon="5.83203">
        <ele>313.71</ele>
        <time>2021-05-09T08:28:36Z</time>
      </trkpt>
      <trkpt lat="49.48973" lon="5.83207">
        <ele>313.88</ele>
        <time>2021-05-09T08:28:37Z</time>
      </trkpt>
      <trkpt lat="49.48972" lon="5.8321">
        <ele>313.91</ele>
        <time>2021-05-09T08:28:38Z</time>
      </trkpt>
      <trkpt lat="49.48971" lon="5.83212">
        <ele>313.9</ele>
        <time>2021-05-09T08:28:39Z</time>
      </trkpt>
      <trkpt lat="49.48972" lon="5.83216">
        <ele>314.16</ele>
        <time>2021-05-09T08:28:55Z</time>
      </trkpt>
      <trkpt lat="49.4897" lon="5.83225">
        <ele>314.58</ele>
        <time>2021-05-09T08:29:27Z</time>
      </trkpt>
      <trkpt lat="49.48969" lon="5.83228">
        <ele>315.44</ele>
        <time>2021-05-09T08:29:58Z</time>
      </trkpt>
      <trkpt lat="49.48966" lon="5.83232">
        <ele>315.33</ele>
        <time>2021-05-09T08:30:00Z</time>
      </trkpt>
      <trkpt lat="49.48965" lon="5.83228">
        <ele>313.31</ele>
        <time>2021-05-09T08:30:13Z</time>
      </trkpt>
      <trkpt lat="49.48962" lon="5.83226">
        <ele>313.19</ele>
        <time>2021-05-09T08:30:15Z</time>
      </trkpt>
      <trkpt lat="49.4896" lon="5.83225">
        <ele>313.07</ele>
        <time>2021-05-09T08:30:16Z</time>
      </trkpt>
      <trkpt lat="49.48921" lon="5.83206">
        <ele>312.64</ele>
        <time>2021-05-09T08:30:30Z</time>
      </trkpt>
      <trkpt lat="49.48895" lon="5.83197">
        <ele>313.62</ele>
        <time>2021-05-09T08:30:42Z</time>
      </trkpt>
      <trkpt lat="49.48884" lon="5.83193">
        <ele>313.63</ele>
        <time>2021-05-09T08:30:51Z</time>
      </trkpt>
      <trkpt lat="49.48881" lon="5.83193">
        <ele>313.63</ele>
        <time>2021-05-09T08:30:52Z</time>
      </trkpt>
      <trkpt lat="49.48879" lon="5.83195">
        <ele>313.63</ele>
        <time>2021-05-09T08:30:53Z</time>
      </trkpt>
      <trkpt lat="49.48877" lon="5.83195">
        <ele>313.64</ele>
        <time>2021-05-09T08:30:54Z</time>
      </trkpt>
      <trkpt lat="49.48874" lon="5.83194">
        <ele>313.66</ele>
        <time>2021-05-09T08:30:55Z</time>
      </trkpt>
      <trkpt lat="49.48871" lon="5.83194">
        <ele>313.66</ele>
        <time>2021-05-09T08:30:56Z</time>
      </trkpt>
      <trkpt lat="49.48869" lon="5.83195">
        <ele>313.7</ele>
        <time>2021-05-09T08:30:57Z</time>
      </trkpt>
      <trkpt lat="49.48866" lon="5.83196">
        <ele>313.8</ele>
        <time>2021-05-09T08:30:58Z</time>
      </trkpt>
      <trkpt lat="49.48833" lon="5.83206">
        <ele>314.02</ele>
        <time>2021-05-09T08:31:09Z</time>
      </trkpt>
      <trkpt lat="49.48794" lon="5.83208">
        <ele>315.48</ele>
        <time>2021-05-09T08:31:23Z</time>
      </trkpt>
      <trkpt lat="49.48753" lon="5.83221">
        <ele>317.96</ele>
        <time>2021-05-09T08:31:38Z</time>
      </trkpt>
      <trkpt lat="49.48717" lon="5.83245">
        <ele>318.96</ele>
        <time>2021-05-09T08:31:51Z</time>
      </trkpt>
      <trkpt lat="49.48684" lon="5.83264">
        <ele>320.22</ele>
        <time>2021-05-09T08:32:04Z</time>
      </trkpt>
      <trkpt lat="49.48653" lon="5.83284">
        <ele>321.65</ele>
        <time>2021-05-09T08:32:18Z</time>
      </trkpt>
      <trkpt lat="49.48618" lon="5.83303">
        <ele>322.87</ele>
        <time>2021-05-09T08:32:31Z</time>
      </trkpt>
      <trkpt lat="49.48605" lon="5.83322">
        <ele>324.16</ele>
        <time>2021-05-09T08:32:43Z</time>
      </trkpt>
      <trkpt lat="49.48583" lon="5.83328">
        <ele>325.2</ele>
        <time>2021-05-09T08:32:55Z</time>
      </trkpt>
      <trkpt lat="49.4855" lon="5.83331">
        <ele>326.38</ele>
        <time>2021-05-09T08:33:09Z</time>
      </trkpt>
      <trkpt lat="49.48527" lon="5.83331">
        <ele>328.54</ele>
        <time>2021-05-09T08:33:24Z</time>
      </trkpt>
      <trkpt lat="49.48503" lon="5.83337">
        <ele>330.16</ele>
        <time>2021-05-09T08:33:40Z</time>
      </trkpt>
      <trkpt lat="49.48473" lon="5.83334">
        <ele>331.55</ele>
        <time>2021-05-09T08:33:53Z</time>
      </trkpt>
      <trkpt lat="49.48471" lon="5.83334">
        <ele>331.65</ele>
        <time>2021-05-09T08:33:54Z</time>
      </trkpt>
      <trkpt lat="49.48445" lon="5.83327">
        <ele>332.1</ele>
        <time>2021-05-09T08:34:08Z</time>
      </trkpt>
      <trkpt lat="49.48442" lon="5.83325">
        <ele>332.15</ele>
        <time>2021-05-09T08:34:10Z</time>
      </trkpt>
      <trkpt lat="49.48417" lon="5.83317">
        <ele>332.66</ele>
        <time>2021-05-09T08:34:25Z</time>
      </trkpt>
      <trkpt lat="49.48391" lon="5.83305">
        <ele>335.56</ele>
        <time>2021-05-09T08:34:40Z</time>
      </trkpt>
      <trkpt lat="49.48358" lon="5.83287">
        <ele>336.19</ele>
        <time>2021-05-09T08:34:58Z</time>
      </trkpt>
      <trkpt lat="49.48334" lon="5.83263">
        <ele>337.62</ele>
        <time>2021-05-09T08:35:14Z</time>
      </trkpt>
      <trkpt lat="49.48319" lon="5.83249">
        <ele>339.45</ele>
        <time>2021-05-09T08:35:28Z</time>
      </trkpt>
      <trkpt lat="49.48298" lon="5.83245">
        <ele>341.11</ele>
        <time>2021-05-09T08:35:47Z</time>
      </trkpt>
      <trkpt lat="49.48294" lon="5.83246">
        <ele>341.41</ele>
        <time>2021-05-09T08:35:49Z</time>
      </trkpt>
      <trkpt lat="49.48291" lon="5.83247">
        <ele>341.54</ele>
        <time>2021-05-09T08:35:50Z</time>
      </trkpt>
      <trkpt lat="49.48289" lon="5.83247">
        <ele>341.67</ele>
        <time>2021-05-09T08:35:51Z</time>
      </trkpt>
      <trkpt lat="49.48288" lon="5.83248">
        <ele>341.72</ele>
        <time>2021-05-09T08:35:52Z</time>
      </trkpt>
      <trkpt lat="49.48286" lon="5.83248">
        <ele>341.78</ele>
        <time>2021-05-09T08:35:53Z</time>
      </trkpt>
      <trkpt lat="49.48262" lon="5.83261">
        <ele>342.72</ele>
        <time>2021-05-09T08:36:07Z</time>
      </trkpt>
      <trkpt lat="49.48229" lon="5.83272">
        <ele>344.62</ele>
        <time>2021-05-09T08:36:23Z</time>
      </trkpt>
      <trkpt lat="49.48201" lon="5.83279">
        <ele>346.07</ele>
        <time>2021-05-09T08:36:39Z</time>
      </trkpt>
      <trkpt lat="49.48178" lon="5.83274">
        <ele>348.03</ele>
        <time>2021-05-09T08:36:55Z</time>
      </trkpt>
      <trkpt lat="49.48152" lon="5.83279">
        <ele>349.01</ele>
        <time>2021-05-09T08:37:09Z</time>
      </trkpt>
      <trkpt lat="49.48127" lon="5.83281">
        <ele>350.64</ele>
        <time>2021-05-09T08:37:24Z</time>
      </trkpt>
      <trkpt lat="49.48108" lon="5.83283">
        <ele>351.39</ele>
        <time>2021-05-09T08:37:35Z</time>
      </trkpt>
      <trkpt lat="49.48085" lon="5.83286">
        <ele>353.65</ele>
        <time>2021-05-09T08:37:49Z</time>
      </trkpt>
      <trkpt lat="49.48057" lon="5.83297">
        <ele>355.95</ele>
        <time>2021-05-09T08:38:08Z</time>
      </trkpt>
      <trkpt lat="49.48038" lon="5.83311">
        <ele>356.84</ele>
        <time>2021-05-09T08:38:22Z</time>
      </trkpt>
      <trkpt lat="49.48016" lon="5.83324">
        <ele>358.24</ele>
        <time>2021-05-09T08:38:34Z</time>
      </trkpt>
      <trkpt lat="49.47994" lon="5.83333">
        <ele>360.07</ele>
        <time>2021-05-09T08:38:49Z</time>
      </trkpt>
      <trkpt lat="49.47986" lon="5.8334">
        <ele>361.98</ele>
        <time>2021-05-09T08:39:05Z</time>
      </trkpt>
      <trkpt lat="49.47979" lon="5.83337">
        <ele>362.48</ele>
        <time>2021-05-09T08:39:34Z</time>
      </trkpt>
      <trkpt lat="49.4796" lon="5.83349">
        <ele>363.27</ele>
        <time>2021-05-09T08:39:50Z</time>
      </trkpt>
      <trkpt lat="49.47943" lon="5.83371">
        <ele>364.25</ele>
        <time>2021-05-09T08:40:01Z</time>
      </trkpt>
      <trkpt lat="49.47926" lon="5.83406">
        <ele>365.39</ele>
        <time>2021-05-09T08:40:17Z</time>
      </trkpt>
      <trkpt lat="49.4792" lon="5.83439">
        <ele>366.69</ele>
        <time>2021-05-09T08:40:31Z</time>
      </trkpt>
      <trkpt lat="49.47914" lon="5.8347">
        <ele>369.52</ele>
        <time>2021-05-09T08:40:46Z</time>
      </trkpt>
      <trkpt lat="49.47913" lon="5.83472">
        <ele>370.07</ele>
        <time>2021-05-09T08:40:47Z</time>
      </trkpt>
      <trkpt lat="49.47913" lon="5.83474">
        <ele>370.16</ele>
        <time>2021-05-09T08:40:48Z</time>
      </trkpt>
      <trkpt lat="49.47912" lon="5.83475">
        <ele>370.21</ele>
        <time>2021-05-09T08:40:49Z</time>
      </trkpt>
      <trkpt lat="49.47911" lon="5.83477">
        <ele>370.15</ele>
        <time>2021-05-09T08:40:50Z</time>
      </trkpt>
      <trkpt lat="49.4791" lon="5.83478">
        <ele>370</ele>
        <time>2021-05-09T08:40:51Z</time>
      </trkpt>
      <trkpt lat="49.47909" lon="5.8348">
        <ele>369.85</ele>
        <time>2021-05-09T08:40:52Z</time>
      </trkpt>
      <trkpt lat="49.47909" lon="5.83481">
        <ele>369.78</ele>
        <time>2021-05-09T08:40:53Z</time>
      </trkpt>
      <trkpt lat="49.47908" lon="5.83483">
        <ele>369.74</ele>
        <time>2021-05-09T08:40:54Z</time>
      </trkpt>
      <trkpt lat="49.47906" lon="5.83485">
        <ele>369.72</ele>
        <time>2021-05-09T08:40:55Z</time>
      </trkpt>
      <trkpt lat="49.47888" lon="5.83507">
        <ele>371.48</ele>
        <time>2021-05-09T08:41:11Z</time>
      </trkpt>
      <trkpt lat="49.47867" lon="5.83521">
        <ele>372.49</ele>
        <time>2021-05-09T08:41:25Z</time>
      </trkpt>
      <trkpt lat="49.47854" lon="5.83529">
        <ele>373.42</ele>
        <time>2021-05-09T08:41:34Z</time>
      </trkpt>
      <trkpt lat="49.47851" lon="5.8353">
        <ele>373.52</ele>
        <time>2021-05-09T08:41:35Z</time>
      </trkpt>
      <trkpt lat="49.4785" lon="5.83531">
        <ele>373.67</ele>
        <time>2021-05-09T08:41:36Z</time>
      </trkpt>
      <trkpt lat="49.47849" lon="5.83532">
        <ele>373.72</ele>
        <time>2021-05-09T08:41:37Z</time>
      </trkpt>
      <trkpt lat="49.47847" lon="5.83533">
        <ele>373.75</ele>
        <time>2021-05-09T08:41:38Z</time>
      </trkpt>
      <trkpt lat="49.47817" lon="5.83546">
        <ele>374.31</ele>
        <time>2021-05-09T08:41:54Z</time>
      </trkpt>
      <trkpt lat="49.47792" lon="5.83563">
        <ele>375.29</ele>
        <time>2021-05-09T08:42:10Z</time>
      </trkpt>
      <trkpt lat="49.47771" lon="5.83593">
        <ele>376.54</ele>
        <time>2021-05-09T08:42:27Z</time>
      </trkpt>
      <trkpt lat="49.47753" lon="5.83619">
        <ele>378.08</ele>
        <time>2021-05-09T08:42:43Z</time>
      </trkpt>
      <trkpt lat="49.47721" lon="5.83635">
        <ele>379.31</ele>
        <time>2021-05-09T08:43:01Z</time>
      </trkpt>
      <trkpt lat="49.47699" lon="5.8365">
        <ele>380.45</ele>
        <time>2021-05-09T08:43:17Z</time>
      </trkpt>
      <trkpt lat="49.47665" lon="5.83672">
        <ele>383.4</ele>
        <time>2021-05-09T08:43:32Z</time>
      </trkpt>
      <trkpt lat="49.47612" lon="5.83672">
        <ele>386.16</ele>
        <time>2021-05-09T08:43:52Z</time>
      </trkpt>
      <trkpt lat="49.47591" lon="5.83653">
        <ele>389.45</ele>
        <time>2021-05-09T08:44:03Z</time>
      </trkpt>
      <trkpt lat="49.47566" lon="5.83629">
        <ele>392.28</ele>
        <time>2021-05-09T08:44:17Z</time>
      </trkpt>
      <trkpt lat="49.47548" lon="5.83614">
        <ele>393.87</ele>
        <time>2021-05-09T08:44:32Z</time>
      </trkpt>
      <trkpt lat="49.47525" lon="5.83579">
        <ele>395.69</ele>
        <time>2021-05-09T08:44:51Z</time>
      </trkpt>
      <trkpt lat="49.47507" lon="5.83536">
        <ele>396.82</ele>
        <time>2021-05-09T08:45:04Z</time>
      </trkpt>
      <trkpt lat="49.47485" lon="5.83458">
        <ele>398.67</ele>
        <time>2021-05-09T08:45:22Z</time>
      </trkpt>
      <trkpt lat="49.47486" lon="5.8338">
        <ele>398.63</ele>
        <time>2021-05-09T08:45:36Z</time>
      </trkpt>
      <trkpt lat="49.47498" lon="5.83345">
        <ele>396.97</ele>
        <time>2021-05-09T08:45:41Z</time>
      </trkpt>
      <trkpt lat="49.47506" lon="5.83323">
        <ele>396.45</ele>
        <time>2021-05-09T08:45:44Z</time>
      </trkpt>
      <trkpt lat="49.47512" lon="5.83257">
        <ele>397.31</ele>
        <time>2021-05-09T08:45:57Z</time>
      </trkpt>
      <trkpt lat="49.47523" lon="5.83201">
        <ele>398.87</ele>
        <time>2021-05-09T08:46:12Z</time>
      </trkpt>
      <trkpt lat="49.47549" lon="5.83132">
        <ele>400.69</ele>
        <time>2021-05-09T08:46:29Z</time>
      </trkpt>
      <trkpt lat="49.47575" lon="5.8306">
        <ele>401.1</ele>
        <time>2021-05-09T08:46:45Z</time>
      </trkpt>
      <trkpt lat="49.47595" lon="5.82992">
        <ele>402.12</ele>
        <time>2021-05-09T08:46:59Z</time>
      </trkpt>
      <trkpt lat="49.4762" lon="5.82904">
        <ele>400.2</ele>
        <time>2021-05-09T08:47:14Z</time>
      </trkpt>
      <trkpt lat="49.47653" lon="5.82769">
        <ele>399.05</ele>
        <time>2021-05-09T08:47:33Z</time>
      </trkpt>
      <trkpt lat="49.47691" lon="5.82643">
        <ele>398.14</ele>
        <time>2021-05-09T08:47:51Z</time>
      </trkpt>
      <trkpt lat="49.4773" lon="5.82544">
        <ele>397.33</ele>
        <time>2021-05-09T08:48:07Z</time>
      </trkpt>
      <trkpt lat="49.4775" lon="5.82504">
        <ele>397.03</ele>
        <time>2021-05-09T08:48:14Z</time>
      </trkpt>
      <trkpt lat="49.478" lon="5.82415">
        <ele>396.09</ele>
        <time>2021-05-09T08:48:31Z</time>
      </trkpt>
      <trkpt lat="49.4785" lon="5.82342">
        <ele>392.98</ele>
        <time>2021-05-09T08:48:43Z</time>
      </trkpt>
      <trkpt lat="49.47854" lon="5.82335">
        <ele>392.57</ele>
        <time>2021-05-09T08:48:44Z</time>
      </trkpt>
      <trkpt lat="49.47906" lon="5.8226">
        <ele>390.32</ele>
        <time>2021-05-09T08:48:55Z</time>
      </trkpt>
      <trkpt lat="49.47911" lon="5.82254">
        <ele>390.25</ele>
        <time>2021-05-09T08:48:56Z</time>
      </trkpt>
      <trkpt lat="49.47964" lon="5.82174">
        <ele>390.23</ele>
        <time>2021-05-09T08:49:09Z</time>
      </trkpt>
      <trkpt lat="49.4799" lon="5.82133">
        <ele>392.25</ele>
        <time>2021-05-09T08:49:16Z</time>
      </trkpt>
      <trkpt lat="49.48033" lon="5.82068">
        <ele>394.73</ele>
        <time>2021-05-09T08:49:30Z</time>
      </trkpt>
      <trkpt lat="49.48078" lon="5.8202">
        <ele>395.18</ele>
        <time>2021-05-09T08:49:46Z</time>
      </trkpt>
      <trkpt lat="49.48138" lon="5.81984">
        <ele>395.46</ele>
        <time>2021-05-09T08:50:05Z</time>
      </trkpt>
      <trkpt lat="49.48222" lon="5.81936">
        <ele>394.94</ele>
        <time>2021-05-09T08:50:29Z</time>
      </trkpt>
      <trkpt lat="49.48287" lon="5.81905">
        <ele>395.49</ele>
        <time>2021-05-09T08:50:48Z</time>
      </trkpt>
      <trkpt lat="49.48349" lon="5.81859">
        <ele>397.36</ele>
        <time>2021-05-09T08:51:07Z</time>
      </trkpt>
      <trkpt lat="49.48392" lon="5.81808">
        <ele>397.13</ele>
        <time>2021-05-09T08:51:24Z</time>
      </trkpt>
      <trkpt lat="49.48446" lon="5.81752">
        <ele>396.38</ele>
        <time>2021-05-09T08:51:42Z</time>
      </trkpt>
      <trkpt lat="49.48502" lon="5.81693">
        <ele>394.8</ele>
        <time>2021-05-09T08:51:58Z</time>
      </trkpt>
      <trkpt lat="49.48506" lon="5.8169">
        <ele>394.67</ele>
        <time>2021-05-09T08:51:59Z</time>
      </trkpt>
      <trkpt lat="49.48571" lon="5.81643">
        <ele>391.53</ele>
        <time>2021-05-09T08:52:12Z</time>
      </trkpt>
      <trkpt lat="49.48599" lon="5.81623">
        <ele>388.31</ele>
        <time>2021-05-09T08:52:16Z</time>
      </trkpt>
      <trkpt lat="49.48648" lon="5.81599">
        <ele>384.84</ele>
        <time>2021-05-09T08:52:22Z</time>
      </trkpt>
      <trkpt lat="49.48674" lon="5.8159">
        <ele>381.54</ele>
        <time>2021-05-09T08:52:25Z</time>
      </trkpt>
      <trkpt lat="49.48698" lon="5.81583">
        <ele>380.38</ele>
        <time>2021-05-09T08:52:28Z</time>
      </trkpt>
      <trkpt lat="49.48717" lon="5.81582">
        <ele>380.25</ele>
        <time>2021-05-09T08:52:31Z</time>
      </trkpt>
      <trkpt lat="49.48723" lon="5.81584">
        <ele>380.32</ele>
        <time>2021-05-09T08:52:32Z</time>
      </trkpt>
      <trkpt lat="49.48759" lon="5.81596">
        <ele>382.57</ele>
        <time>2021-05-09T08:52:43Z</time>
      </trkpt>
      <trkpt lat="49.48797" lon="5.81604">
        <ele>385.68</ele>
        <time>2021-05-09T08:52:57Z</time>
      </trkpt>
      <trkpt lat="49.48804" lon="5.81593">
        <ele>386.33</ele>
        <time>2021-05-09T08:53:01Z</time>
      </trkpt>
      <trkpt lat="49.48797" lon="5.81551">
        <ele>387.97</ele>
        <time>2021-05-09T08:53:13Z</time>
      </trkpt>
      <trkpt lat="49.48787" lon="5.81506">
        <ele>389.08</ele>
        <time>2021-05-09T08:53:30Z</time>
      </trkpt>
      <trkpt lat="49.48785" lon="5.8148">
        <ele>389.99</ele>
        <time>2021-05-09T08:53:45Z</time>
      </trkpt>
      <trkpt lat="49.48782" lon="5.81452">
        <ele>390.75</ele>
        <time>2021-05-09T08:53:57Z</time>
      </trkpt>
      <trkpt lat="49.48775" lon="5.81385">
        <ele>392.16</ele>
        <time>2021-05-09T08:54:18Z</time>
      </trkpt>
      <trkpt lat="49.4878" lon="5.81377">
        <ele>392.41</ele>
        <time>2021-05-09T08:54:22Z</time>
      </trkpt>
      <trkpt lat="49.48813" lon="5.81366">
        <ele>393.28</ele>
        <time>2021-05-09T08:54:38Z</time>
      </trkpt>
      <trkpt lat="49.4886" lon="5.81346">
        <ele>393.08</ele>
        <time>2021-05-09T08:54:57Z</time>
      </trkpt>
      <trkpt lat="49.4891" lon="5.81322">
        <ele>393.39</ele>
        <time>2021-05-09T08:55:16Z</time>
      </trkpt>
      <trkpt lat="49.48961" lon="5.81297">
        <ele>391.45</ele>
        <time>2021-05-09T08:55:31Z</time>
      </trkpt>
      <trkpt lat="49.48965" lon="5.81295">
        <ele>391.04</ele>
        <time>2021-05-09T08:55:32Z</time>
      </trkpt>
      <trkpt lat="49.49021" lon="5.81279">
        <ele>387.62</ele>
        <time>2021-05-09T08:55:41Z</time>
      </trkpt>
      <trkpt lat="49.49059" lon="5.81265">
        <ele>385.6</ele>
        <time>2021-05-09T08:55:46Z</time>
      </trkpt>
      <trkpt lat="49.49102" lon="5.81252">
        <ele>382.2</ele>
        <time>2021-05-09T08:55:51Z</time>
      </trkpt>
      <trkpt lat="49.49148" lon="5.8123">
        <ele>378.43</ele>
        <time>2021-05-09T08:55:56Z</time>
      </trkpt>
      <trkpt lat="49.4918" lon="5.81212">
        <ele>375.56</ele>
        <time>2021-05-09T08:56:00Z</time>
      </trkpt>
      <trkpt lat="49.49207" lon="5.81199">
        <ele>378.8</ele>
        <time>2021-05-09T08:56:06Z</time>
      </trkpt>
      <trkpt lat="49.49239" lon="5.81197">
        <ele>379.92</ele>
        <time>2021-05-09T08:56:22Z</time>
      </trkpt>
      <trkpt lat="49.49247" lon="5.81185">
        <ele>379.5</ele>
        <time>2021-05-09T08:56:29Z</time>
      </trkpt>
      <trkpt lat="49.49246" lon="5.81181">
        <ele>379.46</ele>
        <time>2021-05-09T08:56:30Z</time>
      </trkpt>
      <trkpt lat="49.49245" lon="5.81178">
        <ele>379.43</ele>
        <time>2021-05-09T08:56:31Z</time>
      </trkpt>
      <trkpt lat="49.49211" lon="5.81125">
        <ele>379.89</ele>
        <time>2021-05-09T08:56:48Z</time>
      </trkpt>
      <trkpt lat="49.492" lon="5.81114">
        <ele>379.79</ele>
        <time>2021-05-09T08:56:53Z</time>
      </trkpt>
      <trkpt lat="49.49199" lon="5.81111">
        <ele>379.68</ele>
        <time>2021-05-09T08:56:54Z</time>
      </trkpt>
      <trkpt lat="49.49198" lon="5.81108">
        <ele>379.62</ele>
        <time>2021-05-09T08:56:55Z</time>
      </trkpt>
      <trkpt lat="49.49181" lon="5.81058">
        <ele>381.9</ele>
        <time>2021-05-09T08:57:09Z</time>
      </trkpt>
      <trkpt lat="49.4916" lon="5.81011">
        <ele>383.28</ele>
        <time>2021-05-09T08:57:25Z</time>
      </trkpt>
      <trkpt lat="49.4914" lon="5.80959">
        <ele>385.26</ele>
        <time>2021-05-09T08:57:42Z</time>
      </trkpt>
      <trkpt lat="49.49116" lon="5.80915">
        <ele>385.94</ele>
        <time>2021-05-09T08:57:58Z</time>
      </trkpt>
      <trkpt lat="49.49093" lon="5.8087">
        <ele>388.53</ele>
        <time>2021-05-09T08:58:12Z</time>
      </trkpt>
      <trkpt lat="49.49062" lon="5.80816">
        <ele>389.73</ele>
        <time>2021-05-09T08:58:30Z</time>
      </trkpt>
      <trkpt lat="49.49028" lon="5.80765">
        <ele>391.17</ele>
        <time>2021-05-09T08:58:49Z</time>
      </trkpt>
      <trkpt lat="49.48996" lon="5.80718">
        <ele>391.25</ele>
        <time>2021-05-09T08:59:05Z</time>
      </trkpt>
      <trkpt lat="49.48982" lon="5.807">
        <ele>389.85</ele>
        <time>2021-05-09T08:59:11Z</time>
      </trkpt>
      <trkpt lat="49.48957" lon="5.80647">
        <ele>390.71</ele>
        <time>2021-05-09T08:59:27Z</time>
      </trkpt>
      <trkpt lat="49.48947" lon="5.80604">
        <ele>390.15</ele>
        <time>2021-05-09T08:59:34Z</time>
      </trkpt>
      <trkpt lat="49.48944" lon="5.80596">
        <ele>389.93</ele>
        <time>2021-05-09T08:59:35Z</time>
      </trkpt>
      <trkpt lat="49.48929" lon="5.80557">
        <ele>386.55</ele>
        <time>2021-05-09T08:59:40Z</time>
      </trkpt>
      <trkpt lat="49.48923" lon="5.80542">
        <ele>385.86</ele>
        <time>2021-05-09T08:59:42Z</time>
      </trkpt>
      <trkpt lat="49.48881" lon="5.80437">
        <ele>385.62</ele>
        <time>2021-05-09T08:59:57Z</time>
      </trkpt>
      <trkpt lat="49.48878" lon="5.80432">
        <ele>385.69</ele>
        <time>2021-05-09T08:59:58Z</time>
      </trkpt>
      <trkpt lat="49.48875" lon="5.80428">
        <ele>385.76</ele>
        <time>2021-05-09T08:59:59Z</time>
      </trkpt>
      <trkpt lat="49.48858" lon="5.80408">
        <ele>386</ele>
        <time>2021-05-09T09:00:04Z</time>
      </trkpt>
      <trkpt lat="49.48855" lon="5.80403">
        <ele>386.01</ele>
        <time>2021-05-09T09:00:05Z</time>
      </trkpt>
      <trkpt lat="49.48852" lon="5.80398">
        <ele>386.01</ele>
        <time>2021-05-09T09:00:06Z</time>
      </trkpt>
      <trkpt lat="49.48835" lon="5.80343">
        <ele>386.1</ele>
        <time>2021-05-09T09:00:15Z</time>
      </trkpt>
      <trkpt lat="49.48825" lon="5.80303">
        <ele>386.35</ele>
        <time>2021-05-09T09:00:21Z</time>
      </trkpt>
      <trkpt lat="49.48812" lon="5.80223">
        <ele>387.62</ele>
        <time>2021-05-09T09:00:36Z</time>
      </trkpt>
      <trkpt lat="49.48798" lon="5.80133">
        <ele>388.14</ele>
        <time>2021-05-09T09:00:52Z</time>
      </trkpt>
      <trkpt lat="49.48793" lon="5.80102">
        <ele>387.03</ele>
        <time>2021-05-09T09:00:57Z</time>
      </trkpt>
      <trkpt lat="49.4877" lon="5.80009">
        <ele>383.88</ele>
        <time>2021-05-09T09:01:11Z</time>
      </trkpt>
      <trkpt lat="49.48725" lon="5.79852">
        <ele>380.82</ele>
        <time>2021-05-09T09:01:30Z</time>
      </trkpt>
      <trkpt lat="49.4868" lon="5.79726">
        <ele>380.88</ele>
        <time>2021-05-09T09:01:48Z</time>
      </trkpt>
      <trkpt lat="49.48636" lon="5.79619">
        <ele>382.81</ele>
        <time>2021-05-09T09:02:09Z</time>
      </trkpt>
      <trkpt lat="49.48598" lon="5.79528">
        <ele>384.27</ele>
        <time>2021-05-09T09:02:28Z</time>
      </trkpt>
      <trkpt lat="49.48598" lon="5.79526">
        <ele>384.38</ele>
        <time>2021-05-09T09:02:29Z</time>
      </trkpt>
      <trkpt lat="49.48599" lon="5.79526">
        <ele>384.65</ele>
        <time>2021-05-09T09:02:46Z</time>
      </trkpt>
      <trkpt lat="49.486" lon="5.79526">
        <ele>384.85</ele>
        <time>2021-05-09T09:03:09Z</time>
      </trkpt>
      <trkpt lat="49.48601" lon="5.79525">
        <ele>384.74</ele>
        <time>2021-05-09T09:03:10Z</time>
      </trkpt>
      <trkpt lat="49.48603" lon="5.79521">
        <ele>384.3</ele>
        <time>2021-05-09T09:03:21Z</time>
      </trkpt>
      <trkpt lat="49.48603" lon="5.79519">
        <ele>384.14</ele>
        <time>2021-05-09T09:03:35Z</time>
      </trkpt>
      <trkpt lat="49.48612" lon="5.79505">
        <ele>383.9</ele>
        <time>2021-05-09T09:03:40Z</time>
      </trkpt>
      <trkpt lat="49.48667" lon="5.79427">
        <ele>382.34</ele>
        <time>2021-05-09T09:03:59Z</time>
      </trkpt>
      <trkpt lat="49.4867" lon="5.79422">
        <ele>382.17</ele>
        <time>2021-05-09T09:04:00Z</time>
      </trkpt>
      <trkpt lat="49.48683" lon="5.79404">
        <ele>381.83</ele>
        <time>2021-05-09T09:04:04Z</time>
      </trkpt>
      <trkpt lat="49.4874" lon="5.7932">
        <ele>379.87</ele>
        <time>2021-05-09T09:04:21Z</time>
      </trkpt>
      <trkpt lat="49.4881" lon="5.79218">
        <ele>378.06</ele>
        <time>2021-05-09T09:04:38Z</time>
      </trkpt>
      <trkpt lat="49.48884" lon="5.79108">
        <ele>376.61</ele>
        <time>2021-05-09T09:04:53Z</time>
      </trkpt>
      <trkpt lat="49.48889" lon="5.79101">
        <ele>376.13</ele>
        <time>2021-05-09T09:04:54Z</time>
      </trkpt>
      <trkpt lat="49.48904" lon="5.7908">
        <ele>374.84</ele>
        <time>2021-05-09T09:04:57Z</time>
      </trkpt>
      <trkpt lat="49.4893" lon="5.79086">
        <ele>373.25</ele>
        <time>2021-05-09T09:05:01Z</time>
      </trkpt>
      <trkpt lat="49.48983" lon="5.79135">
        <ele>369.71</ele>
        <time>2021-05-09T09:05:09Z</time>
      </trkpt>
      <trkpt lat="49.4902" lon="5.792">
        <ele>365.17</ele>
        <time>2021-05-09T09:05:15Z</time>
      </trkpt>
      <trkpt lat="49.4903" lon="5.79225">
        <ele>361.81</ele>
        <time>2021-05-09T09:05:17Z</time>
      </trkpt>
      <trkpt lat="49.49041" lon="5.79251">
        <ele>359.85</ele>
        <time>2021-05-09T09:05:19Z</time>
      </trkpt>
      <trkpt lat="49.49053" lon="5.79274">
        <ele>358.23</ele>
        <time>2021-05-09T09:05:21Z</time>
      </trkpt>
      <trkpt lat="49.4906" lon="5.79282">
        <ele>357.58</ele>
        <time>2021-05-09T09:05:22Z</time>
      </trkpt>
      <trkpt lat="49.49068" lon="5.79288">
        <ele>356.96</ele>
        <time>2021-05-09T09:05:23Z</time>
      </trkpt>
      <trkpt lat="49.49076" lon="5.79292">
        <ele>356.64</ele>
        <time>2021-05-09T09:05:24Z</time>
      </trkpt>
      <trkpt lat="49.49083" lon="5.79293">
        <ele>356.5</ele>
        <time>2021-05-09T09:05:25Z</time>
      </trkpt>
      <trkpt lat="49.49091" lon="5.79292">
        <ele>356.44</ele>
        <time>2021-05-09T09:05:26Z</time>
      </trkpt>
      <trkpt lat="49.49098" lon="5.79289">
        <ele>356.76</ele>
        <time>2021-05-09T09:05:27Z</time>
      </trkpt>
      <trkpt lat="49.49105" lon="5.79286">
        <ele>357.3</ele>
        <time>2021-05-09T09:05:28Z</time>
      </trkpt>
      <trkpt lat="49.49111" lon="5.79282">
        <ele>357.69</ele>
        <time>2021-05-09T09:05:29Z</time>
      </trkpt>
      <trkpt lat="49.49142" lon="5.79255">
        <ele>359.84</ele>
        <time>2021-05-09T09:05:38Z</time>
      </trkpt>
      <trkpt lat="49.49144" lon="5.79255">
        <ele>360.35</ele>
        <time>2021-05-09T09:05:39Z</time>
      </trkpt>
      <trkpt lat="49.49147" lon="5.7925">
        <ele>361.94</ele>
        <time>2021-05-09T09:05:43Z</time>
      </trkpt>
      <trkpt lat="49.49155" lon="5.79209">
        <ele>361.21</ele>
        <time>2021-05-09T09:05:56Z</time>
      </trkpt>
      <trkpt lat="49.49173" lon="5.79159">
        <ele>360.1</ele>
        <time>2021-05-09T09:06:06Z</time>
      </trkpt>
      <trkpt lat="49.49197" lon="5.79129">
        <ele>361.03</ele>
        <time>2021-05-09T09:06:16Z</time>
      </trkpt>
      <trkpt lat="49.49209" lon="5.79118">
        <ele>362.76</ele>
        <time>2021-05-09T09:06:26Z</time>
      </trkpt>
      <trkpt lat="49.49213" lon="5.79112">
        <ele>362.64</ele>
        <time>2021-05-09T09:06:51Z</time>
      </trkpt>
      <trkpt lat="49.49213" lon="5.79109">
        <ele>362.61</ele>
        <time>2021-05-09T09:07:11Z</time>
      </trkpt>
      <trkpt lat="49.49197" lon="5.79097">
        <ele>359.53</ele>
        <time>2021-05-09T09:07:19Z</time>
      </trkpt>
      <trkpt lat="49.49192" lon="5.79096">
        <ele>358.21</ele>
        <time>2021-05-09T09:07:22Z</time>
      </trkpt>
      <trkpt lat="49.49191" lon="5.79093">
        <ele>357.81</ele>
        <time>2021-05-09T09:07:43Z</time>
      </trkpt>
      <trkpt lat="49.49177" lon="5.79086">
        <ele>356.47</ele>
        <time>2021-05-09T09:07:56Z</time>
      </trkpt>
      <trkpt lat="49.49163" lon="5.79078">
        <ele>352.08</ele>
        <time>2021-05-09T09:08:01Z</time>
      </trkpt>
      <trkpt lat="49.4916" lon="5.79079">
        <ele>350.02</ele>
        <time>2021-05-09T09:08:11Z</time>
      </trkpt>
      <trkpt lat="49.4916" lon="5.79072">
        <ele>349.81</ele>
        <time>2021-05-09T09:08:30Z</time>
      </trkpt>
      <trkpt lat="49.49158" lon="5.79047">
        <ele>348.97</ele>
        <time>2021-05-09T09:08:42Z</time>
      </trkpt>
      <trkpt lat="49.49149" lon="5.79031">
        <ele>350.51</ele>
        <time>2021-05-09T09:08:53Z</time>
      </trkpt>
      <trkpt lat="49.49146" lon="5.79002">
        <ele>353.07</ele>
        <time>2021-05-09T09:09:05Z</time>
      </trkpt>
      <trkpt lat="49.49147" lon="5.78967">
        <ele>353.53</ele>
        <time>2021-05-09T09:09:18Z</time>
      </trkpt>
      <trkpt lat="49.49146" lon="5.78931">
        <ele>354.42</ele>
        <time>2021-05-09T09:09:30Z</time>
      </trkpt>
      <trkpt lat="49.49146" lon="5.78888">
        <ele>355.11</ele>
        <time>2021-05-09T09:09:43Z</time>
      </trkpt>
      <trkpt lat="49.49148" lon="5.78875">
        <ele>355</ele>
        <time>2021-05-09T09:09:46Z</time>
      </trkpt>
      <trkpt lat="49.49164" lon="5.78809">
        <ele>355.37</ele>
        <time>2021-05-09T09:10:00Z</time>
      </trkpt>
      <trkpt lat="49.49165" lon="5.78796">
        <ele>355.22</ele>
        <time>2021-05-09T09:10:03Z</time>
      </trkpt>
      <trkpt lat="49.49165" lon="5.78792">
        <ele>355.17</ele>
        <time>2021-05-09T09:10:04Z</time>
      </trkpt>
      <trkpt lat="49.49165" lon="5.78786">
        <ele>355.12</ele>
        <time>2021-05-09T09:10:05Z</time>
      </trkpt>
      <trkpt lat="49.49165" lon="5.7878">
        <ele>355.09</ele>
        <time>2021-05-09T09:10:06Z</time>
      </trkpt>
      <trkpt lat="49.49165" lon="5.78775">
        <ele>355.08</ele>
        <time>2021-05-09T09:10:07Z</time>
      </trkpt>
      <trkpt lat="49.49167" lon="5.78719">
        <ele>354.29</ele>
        <time>2021-05-09T09:10:17Z</time>
      </trkpt>
      <trkpt lat="49.49155" lon="5.7867">
        <ele>353.96</ele>
        <time>2021-05-09T09:10:27Z</time>
      </trkpt>
      <trkpt lat="49.49138" lon="5.78626">
        <ele>354.5</ele>
        <time>2021-05-09T09:10:39Z</time>
      </trkpt>
      <trkpt lat="49.49118" lon="5.78597">
        <ele>354.21</ele>
        <time>2021-05-09T09:10:48Z</time>
      </trkpt>
      <trkpt lat="49.49092" lon="5.78552">
        <ele>351.44</ele>
        <time>2021-05-09T09:10:54Z</time>
      </trkpt>
      <trkpt lat="49.49084" lon="5.78529">
        <ele>348.79</ele>
        <time>2021-05-09T09:10:56Z</time>
      </trkpt>
      <trkpt lat="49.49081" lon="5.78518">
        <ele>347.83</ele>
        <time>2021-05-09T09:10:57Z</time>
      </trkpt>
      <trkpt lat="49.49076" lon="5.78508">
        <ele>347.16</ele>
        <time>2021-05-09T09:10:58Z</time>
      </trkpt>
      <trkpt lat="49.49071" lon="5.78499">
        <ele>346.76</ele>
        <time>2021-05-09T09:10:59Z</time>
      </trkpt>
      <trkpt lat="49.49067" lon="5.78491">
        <ele>346.4</ele>
        <time>2021-05-09T09:11:00Z</time>
      </trkpt>
      <trkpt lat="49.49063" lon="5.78483">
        <ele>346.42</ele>
        <time>2021-05-09T09:11:01Z</time>
      </trkpt>
      <trkpt lat="49.4906" lon="5.78475">
        <ele>346.56</ele>
        <time>2021-05-09T09:11:02Z</time>
      </trkpt>
      <trkpt lat="49.49058" lon="5.78467">
        <ele>346.82</ele>
        <time>2021-05-09T09:11:03Z</time>
      </trkpt>
      <trkpt lat="49.49039" lon="5.7841">
        <ele>350.04</ele>
        <time>2021-05-09T09:11:12Z</time>
      </trkpt>
      <trkpt lat="49.49022" lon="5.78373">
        <ele>352.16</ele>
        <time>2021-05-09T09:11:23Z</time>
      </trkpt>
      <trkpt lat="49.49013" lon="5.78351">
        <ele>353.27</ele>
        <time>2021-05-09T09:11:32Z</time>
      </trkpt>
      <trkpt lat="49.49011" lon="5.78348">
        <ele>353.32</ele>
        <time>2021-05-09T09:11:33Z</time>
      </trkpt>
      <trkpt lat="49.4901" lon="5.78346">
        <ele>353.4</ele>
        <time>2021-05-09T09:11:34Z</time>
      </trkpt>
      <trkpt lat="49.49009" lon="5.78344">
        <ele>353.53</ele>
        <time>2021-05-09T09:11:35Z</time>
      </trkpt>
      <trkpt lat="49.49008" lon="5.78343">
        <ele>353.64</ele>
        <time>2021-05-09T09:11:36Z</time>
      </trkpt>
      <trkpt lat="49.49006" lon="5.78341">
        <ele>353.72</ele>
        <time>2021-05-09T09:11:37Z</time>
      </trkpt>
      <trkpt lat="49.49005" lon="5.78338">
        <ele>353.79</ele>
        <time>2021-05-09T09:11:38Z</time>
      </trkpt>
      <trkpt lat="49.48987" lon="5.78306">
        <ele>354.32</ele>
        <time>2021-05-09T09:11:51Z</time>
      </trkpt>
      <trkpt lat="49.48985" lon="5.78304">
        <ele>354.33</ele>
        <time>2021-05-09T09:11:52Z</time>
      </trkpt>
      <trkpt lat="49.48983" lon="5.78302">
        <ele>354.35</ele>
        <time>2021-05-09T09:11:53Z</time>
      </trkpt>
      <trkpt lat="49.48981" lon="5.78299">
        <ele>354.37</ele>
        <time>2021-05-09T09:11:54Z</time>
      </trkpt>
      <trkpt lat="49.4898" lon="5.78297">
        <ele>354.37</ele>
        <time>2021-05-09T09:11:55Z</time>
      </trkpt>
      <trkpt lat="49.48957" lon="5.78281">
        <ele>355.21</ele>
        <time>2021-05-09T09:12:06Z</time>
      </trkpt>
      <trkpt lat="49.48936" lon="5.78267">
        <ele>355.5</ele>
        <time>2021-05-09T09:12:17Z</time>
      </trkpt>
      <trkpt lat="49.48911" lon="5.78262">
        <ele>355.3</ele>
        <time>2021-05-09T09:12:30Z</time>
      </trkpt>
      <trkpt lat="49.48907" lon="5.78262">
        <ele>356.11</ele>
        <time>2021-05-09T09:12:51Z</time>
      </trkpt>
      <trkpt lat="49.48902" lon="5.78253">
        <ele>356.08</ele>
        <time>2021-05-09T09:13:04Z</time>
      </trkpt>
      <trkpt lat="49.489" lon="5.78251">
        <ele>355.95</ele>
        <time>2021-05-09T09:13:05Z</time>
      </trkpt>
      <trkpt lat="49.48897" lon="5.78251">
        <ele>355.71</ele>
        <time>2021-05-09T09:13:06Z</time>
      </trkpt>
      <trkpt lat="49.48895" lon="5.78251">
        <ele>355.45</ele>
        <time>2021-05-09T09:13:07Z</time>
      </trkpt>
      <trkpt lat="49.48893" lon="5.78251">
        <ele>355.21</ele>
        <time>2021-05-09T09:13:08Z</time>
      </trkpt>
      <trkpt lat="49.48891" lon="5.7825">
        <ele>354.96</ele>
        <time>2021-05-09T09:13:09Z</time>
      </trkpt>
      <trkpt lat="49.48872" lon="5.78234">
        <ele>353.15</ele>
        <time>2021-05-09T09:13:15Z</time>
      </trkpt>
      <trkpt lat="49.4885" lon="5.7823">
        <ele>349.67</ele>
        <time>2021-05-09T09:13:19Z</time>
      </trkpt>
      <trkpt lat="49.48853" lon="5.78206">
        <ele>346.51</ele>
        <time>2021-05-09T09:13:24Z</time>
      </trkpt>
      <trkpt lat="49.48856" lon="5.78167">
        <ele>344.98</ele>
        <time>2021-05-09T09:13:31Z</time>
      </trkpt>
      <trkpt lat="49.48854" lon="5.78156">
        <ele>346.63</ele>
        <time>2021-05-09T09:13:44Z</time>
      </trkpt>
      <trkpt lat="49.48853" lon="5.78151">
        <ele>346.73</ele>
        <time>2021-05-09T09:13:46Z</time>
      </trkpt>
      <trkpt lat="49.48857" lon="5.78124">
        <ele>346.55</ele>
        <time>2021-05-09T09:13:58Z</time>
      </trkpt>
      <trkpt lat="49.48856" lon="5.78122">
        <ele>346.21</ele>
        <time>2021-05-09T09:14:24Z</time>
      </trkpt>
      <trkpt lat="49.48855" lon="5.78124">
        <ele>346.01</ele>
        <time>2021-05-09T09:14:51Z</time>
      </trkpt>
      <trkpt lat="49.48862" lon="5.78121">
        <ele>346.01</ele>
        <time>2021-05-09T09:15:17Z</time>
      </trkpt>
      <trkpt lat="49.48879" lon="5.78134">
        <ele>344</ele>
        <time>2021-05-09T09:15:24Z</time>
      </trkpt>
      <trkpt lat="49.48881" lon="5.78137">
        <ele>343.36</ele>
        <time>2021-05-09T09:15:25Z</time>
      </trkpt>
      <trkpt lat="49.48885" lon="5.78138">
        <ele>343.31</ele>
        <time>2021-05-09T09:15:40Z</time>
      </trkpt>
      <trkpt lat="49.48891" lon="5.78137">
        <ele>343.31</ele>
        <time>2021-05-09T09:16:03Z</time>
      </trkpt>
      <trkpt lat="49.48906" lon="5.78132">
        <ele>339.81</ele>
        <time>2021-05-09T09:16:09Z</time>
      </trkpt>
      <trkpt lat="49.48909" lon="5.78131">
        <ele>338.22</ele>
        <time>2021-05-09T09:16:12Z</time>
      </trkpt>
      <trkpt lat="49.48922" lon="5.78133">
        <ele>337.02</ele>
        <time>2021-05-09T09:16:35Z</time>
      </trkpt>
      <trkpt lat="49.48929" lon="5.78131">
        <ele>336.05</ele>
        <time>2021-05-09T09:16:40Z</time>
      </trkpt>
      <trkpt lat="49.48941" lon="5.78129">
        <ele>335.03</ele>
        <time>2021-05-09T09:16:57Z</time>
      </trkpt>
      <trkpt lat="49.48952" lon="5.78128">
        <ele>333.09</ele>
        <time>2021-05-09T09:17:19Z</time>
      </trkpt>
      <trkpt lat="49.48964" lon="5.78144">
        <ele>332.02</ele>
        <time>2021-05-09T09:17:39Z</time>
      </trkpt>
      <trkpt lat="49.48969" lon="5.78145">
        <ele>330.77</ele>
        <time>2021-05-09T09:17:42Z</time>
      </trkpt>
      <trkpt lat="49.48975" lon="5.78142">
        <ele>328.18</ele>
        <time>2021-05-09T09:17:47Z</time>
      </trkpt>
      <trkpt lat="49.4898" lon="5.78143">
        <ele>328.36</ele>
        <time>2021-05-09T09:18:11Z</time>
      </trkpt>
      <trkpt lat="49.48999" lon="5.78138">
        <ele>327.95</ele>
        <time>2021-05-09T09:18:30Z</time>
      </trkpt>
      <trkpt lat="49.49002" lon="5.78141">
        <ele>325.72</ele>
        <time>2021-05-09T09:18:36Z</time>
      </trkpt>
      <trkpt lat="49.49006" lon="5.78146">
        <ele>324.85</ele>
        <time>2021-05-09T09:18:55Z</time>
      </trkpt>
      <trkpt lat="49.49014" lon="5.78141">
        <ele>323.13</ele>
        <time>2021-05-09T09:19:18Z</time>
      </trkpt>
      <trkpt lat="49.49039" lon="5.78145">
        <ele>320.03</ele>
        <time>2021-05-09T09:19:25Z</time>
      </trkpt>
      <trkpt lat="49.49052" lon="5.78142">
        <ele>317.68</ele>
        <time>2021-05-09T09:19:30Z</time>
      </trkpt>
      <trkpt lat="49.4907" lon="5.78145">
        <ele>316.61</ele>
        <time>2021-05-09T09:19:34Z</time>
      </trkpt>
      <trkpt lat="49.4909" lon="5.78152">
        <ele>312.69</ele>
        <time>2021-05-09T09:19:38Z</time>
      </trkpt>
      <trkpt lat="49.49123" lon="5.78162">
        <ele>307.56</ele>
        <time>2021-05-09T09:19:43Z</time>
      </trkpt>
      <trkpt lat="49.49126" lon="5.78162">
        <ele>306.43</ele>
        <time>2021-05-09T09:19:44Z</time>
      </trkpt>
      <trkpt lat="49.49132" lon="5.78159">
        <ele>304.83</ele>
        <time>2021-05-09T09:19:47Z</time>
      </trkpt>
      <trkpt lat="49.49138" lon="5.78152">
        <ele>303.98</ele>
        <time>2021-05-09T09:20:11Z</time>
      </trkpt>
      <trkpt lat="49.49152" lon="5.78111">
        <ele>302.06</ele>
        <time>2021-05-09T09:20:23Z</time>
      </trkpt>
      <trkpt lat="49.49162" lon="5.78067">
        <ele>300.5</ele>
        <time>2021-05-09T09:20:32Z</time>
      </trkpt>
      <trkpt lat="49.4917" lon="5.78018">
        <ele>298.33</ele>
        <time>2021-05-09T09:20:40Z</time>
      </trkpt>
      <trkpt lat="49.49182" lon="5.77963">
        <ele>297.64</ele>
        <time>2021-05-09T09:20:50Z</time>
      </trkpt>
      <trkpt lat="49.49185" lon="5.77921">
        <ele>298.16</ele>
        <time>2021-05-09T09:20:58Z</time>
      </trkpt>
      <trkpt lat="49.49188" lon="5.77901">
        <ele>297.98</ele>
        <time>2021-05-09T09:21:02Z</time>
      </trkpt>
      <trkpt lat="49.49191" lon="5.77882">
        <ele>297.38</ele>
        <time>2021-05-09T09:21:06Z</time>
      </trkpt>
      <trkpt lat="49.49193" lon="5.7785">
        <ele>296.72</ele>
        <time>2021-05-09T09:21:11Z</time>
      </trkpt>
      <trkpt lat="49.49195" lon="5.77818">
        <ele>295.64</ele>
        <time>2021-05-09T09:21:15Z</time>
      </trkpt>
      <trkpt lat="49.492" lon="5.77778">
        <ele>294.01</ele>
        <time>2021-05-09T09:21:21Z</time>
      </trkpt>
      <trkpt lat="49.49201" lon="5.77739">
        <ele>292.7</ele>
        <time>2021-05-09T09:21:26Z</time>
      </trkpt>
      <trkpt lat="49.492" lon="5.77714">
        <ele>291.55</ele>
        <time>2021-05-09T09:21:29Z</time>
      </trkpt>
      <trkpt lat="49.49205" lon="5.77674">
        <ele>290.9</ele>
        <time>2021-05-09T09:21:36Z</time>
      </trkpt>
      <trkpt lat="49.49208" lon="5.77599">
        <ele>290.84</ele>
        <time>2021-05-09T09:21:48Z</time>
      </trkpt>
      <trkpt lat="49.49212" lon="5.77553">
        <ele>289.8</ele>
        <time>2021-05-09T09:21:57Z</time>
      </trkpt>
      <trkpt lat="49.49208" lon="5.77497">
        <ele>288.26</ele>
        <time>2021-05-09T09:22:07Z</time>
      </trkpt>
      <trkpt lat="49.49209" lon="5.7745">
        <ele>286.22</ele>
        <time>2021-05-09T09:22:15Z</time>
      </trkpt>
      <trkpt lat="49.49219" lon="5.77398">
        <ele>283.96</ele>
        <time>2021-05-09T09:22:22Z</time>
      </trkpt>
      <trkpt lat="49.4923" lon="5.77386">
        <ele>283.02</ele>
        <time>2021-05-09T09:22:28Z</time>
      </trkpt>
      <trkpt lat="49.49224" lon="5.7735">
        <ele>282.98</ele>
        <time>2021-05-09T09:22:38Z</time>
      </trkpt>
      <trkpt lat="49.49221" lon="5.77342">
        <ele>282.85</ele>
        <time>2021-05-09T09:22:40Z</time>
      </trkpt>
      <trkpt lat="49.49221" lon="5.7733">
        <ele>282.5</ele>
        <time>2021-05-09T09:22:53Z</time>
      </trkpt>
      <trkpt lat="49.49222" lon="5.77321">
        <ele>282.13</ele>
        <time>2021-05-09T09:23:19Z</time>
      </trkpt>
      <trkpt lat="49.49223" lon="5.7732">
        <ele>282.09</ele>
        <time>2021-05-09T09:23:20Z</time>
      </trkpt>
      <trkpt lat="49.49239" lon="5.77276">
        <ele>281.54</ele>
        <time>2021-05-09T09:23:32Z</time>
      </trkpt>
      <trkpt lat="49.49253" lon="5.77234">
        <ele>281.52</ele>
        <time>2021-05-09T09:23:42Z</time>
      </trkpt>
      <trkpt lat="49.49251" lon="5.77231">
        <ele>281.53</ele>
        <time>2021-05-09T09:23:43Z</time>
      </trkpt>
      <trkpt lat="49.49249" lon="5.7723">
        <ele>281.52</ele>
        <time>2021-05-09T09:23:44Z</time>
      </trkpt>
      <trkpt lat="49.49247" lon="5.77229">
        <ele>281.52</ele>
        <time>2021-05-09T09:23:45Z</time>
      </trkpt>
      <trkpt lat="49.49244" lon="5.77228">
        <ele>281.5</ele>
        <time>2021-05-09T09:23:46Z</time>
      </trkpt>
      <trkpt lat="49.49242" lon="5.77229">
        <ele>281.47</ele>
        <time>2021-05-09T09:23:47Z</time>
      </trkpt>
      <trkpt lat="49.49239" lon="5.77229">
        <ele>281.46</ele>
        <time>2021-05-09T09:23:48Z</time>
      </trkpt>
      <trkpt lat="49.49236" lon="5.7723">
        <ele>281.5</ele>
        <time>2021-05-09T09:23:49Z</time>
      </trkpt>
      <trkpt lat="49.4922" lon="5.77234">
        <ele>282.13</ele>
        <time>2021-05-09T09:23:57Z</time>
      </trkpt>
      <trkpt lat="49.49218" lon="5.77234">
        <ele>282.22</ele>
        <time>2021-05-09T09:23:58Z</time>
      </trkpt>
      <trkpt lat="49.49216" lon="5.77235">
        <ele>282.32</ele>
        <time>2021-05-09T09:23:59Z</time>
      </trkpt>
      <trkpt lat="49.49214" lon="5.77235">
        <ele>282.45</ele>
        <time>2021-05-09T09:24:00Z</time>
      </trkpt>
      <trkpt lat="49.49212" lon="5.77234">
        <ele>282.57</ele>
        <time>2021-05-09T09:24:01Z</time>
      </trkpt>
      <trkpt lat="49.49209" lon="5.77234">
        <ele>282.57</ele>
        <time>2021-05-09T09:24:02Z</time>
      </trkpt>
      <trkpt lat="49.49206" lon="5.77234">
        <ele>282.67</ele>
        <time>2021-05-09T09:24:03Z</time>
      </trkpt>
      <trkpt lat="49.49202" lon="5.77234">
        <ele>282.67</ele>
        <time>2021-05-09T09:24:04Z</time>
      </trkpt>
      <trkpt lat="49.492" lon="5.77234">
        <ele>282.76</ele>
        <time>2021-05-09T09:24:05Z</time>
      </trkpt>
      <trkpt lat="49.49197" lon="5.77234">
        <ele>282.8</ele>
        <time>2021-05-09T09:24:06Z</time>
      </trkpt>
      <trkpt lat="49.49194" lon="5.77234">
        <ele>282.91</ele>
        <time>2021-05-09T09:24:07Z</time>
      </trkpt>
      <trkpt lat="49.49162" lon="5.77234">
        <ele>284.25</ele>
        <time>2021-05-09T09:24:19Z</time>
      </trkpt>
      <trkpt lat="49.49149" lon="5.77235">
        <ele>284.54</ele>
        <time>2021-05-09T09:24:24Z</time>
      </trkpt>
      <trkpt lat="49.49112" lon="5.77233">
        <ele>284.97</ele>
        <time>2021-05-09T09:24:35Z</time>
      </trkpt>
      <trkpt lat="49.49076" lon="5.77226">
        <ele>285.34</ele>
        <time>2021-05-09T09:24:45Z</time>
      </trkpt>
      <trkpt lat="49.49047" lon="5.77212">
        <ele>285.78</ele>
        <time>2021-05-09T09:24:55Z</time>
      </trkpt>
      <trkpt lat="49.4901" lon="5.77199">
        <ele>286.57</ele>
        <time>2021-05-09T09:25:07Z</time>
      </trkpt>
      <trkpt lat="49.48996" lon="5.77193">
        <ele>287.54</ele>
        <time>2021-05-09T09:25:13Z</time>
      </trkpt>
      <trkpt lat="49.48994" lon="5.77193">
        <ele>287.65</ele>
        <time>2021-05-09T09:25:14Z</time>
      </trkpt>
      <trkpt lat="49.48991" lon="5.77192">
        <ele>287.74</ele>
        <time>2021-05-09T09:25:15Z</time>
      </trkpt>
      <trkpt lat="49.48988" lon="5.77192">
        <ele>287.82</ele>
        <time>2021-05-09T09:25:16Z</time>
      </trkpt>
      <trkpt lat="49.48984" lon="5.77193">
        <ele>287.87</ele>
        <time>2021-05-09T09:25:17Z</time>
      </trkpt>
      <trkpt lat="49.48982" lon="5.77192">
        <ele>288.29</ele>
        <time>2021-05-09T09:25:18Z</time>
      </trkpt>
      <trkpt lat="49.48979" lon="5.77191">
        <ele>288.61</ele>
        <time>2021-05-09T09:25:19Z</time>
      </trkpt>
      <trkpt lat="49.48977" lon="5.77192">
        <ele>288.88</ele>
        <time>2021-05-09T09:25:20Z</time>
      </trkpt>
      <trkpt lat="49.4895" lon="5.77193">
        <ele>289.04</ele>
        <time>2021-05-09T09:25:30Z</time>
      </trkpt>
      <trkpt lat="49.48936" lon="5.77192">
        <ele>289.07</ele>
        <time>2021-05-09T09:25:37Z</time>
      </trkpt>
      <trkpt lat="49.48927" lon="5.77189">
        <ele>289.49</ele>
        <time>2021-05-09T09:25:40Z</time>
      </trkpt>
      <trkpt lat="49.48924" lon="5.77189">
        <ele>289.57</ele>
        <time>2021-05-09T09:25:41Z</time>
      </trkpt>
      <trkpt lat="49.4892" lon="5.77189">
        <ele>289.57</ele>
        <time>2021-05-09T09:25:42Z</time>
      </trkpt>
      <trkpt lat="49.48916" lon="5.7719">
        <ele>289.83</ele>
        <time>2021-05-09T09:25:43Z</time>
      </trkpt>
      <trkpt lat="49.48913" lon="5.7719">
        <ele>290.06</ele>
        <time>2021-05-09T09:25:44Z</time>
      </trkpt>
      <trkpt lat="49.48909" lon="5.7719">
        <ele>290.24</ele>
        <time>2021-05-09T09:25:45Z</time>
      </trkpt>
      <trkpt lat="49.48906" lon="5.77189">
        <ele>290.38</ele>
        <time>2021-05-09T09:25:46Z</time>
      </trkpt>
      <trkpt lat="49.48872" lon="5.77186">
        <ele>291.18</ele>
        <time>2021-05-09T09:25:58Z</time>
      </trkpt>
      <trkpt lat="49.4885" lon="5.77179">
        <ele>290.94</ele>
        <time>2021-05-09T09:26:08Z</time>
      </trkpt>
      <trkpt lat="49.48821" lon="5.77163">
        <ele>292.17</ele>
        <time>2021-05-09T09:26:21Z</time>
      </trkpt>
      <trkpt lat="49.48819" lon="5.77163">
        <ele>292.26</ele>
        <time>2021-05-09T09:26:22Z</time>
      </trkpt>
      <trkpt lat="49.4881" lon="5.77158">
        <ele>292.47</ele>
        <time>2021-05-09T09:26:26Z</time>
      </trkpt>
      <trkpt lat="49.48775" lon="5.77142">
        <ele>292.53</ele>
        <time>2021-05-09T09:26:39Z</time>
      </trkpt>
      <trkpt lat="49.4877" lon="5.77139">
        <ele>292.45</ele>
        <time>2021-05-09T09:26:41Z</time>
      </trkpt>
      <trkpt lat="49.48768" lon="5.77137">
        <ele>292.35</ele>
        <time>2021-05-09T09:26:42Z</time>
      </trkpt>
      <trkpt lat="49.48766" lon="5.77136">
        <ele>292.26</ele>
        <time>2021-05-09T09:26:43Z</time>
      </trkpt>
      <trkpt lat="49.48764" lon="5.77135">
        <ele>292.17</ele>
        <time>2021-05-09T09:26:44Z</time>
      </trkpt>
      <trkpt lat="49.48762" lon="5.77135">
        <ele>292.06</ele>
        <time>2021-05-09T09:26:45Z</time>
      </trkpt>
      <trkpt lat="49.48759" lon="5.77134">
        <ele>291.96</ele>
        <time>2021-05-09T09:26:46Z</time>
      </trkpt>
      <trkpt lat="49.48757" lon="5.77133">
        <ele>291.91</ele>
        <time>2021-05-09T09:26:47Z</time>
      </trkpt>
      <trkpt lat="49.48747" lon="5.77124">
        <ele>291.7</ele>
        <time>2021-05-09T09:26:52Z</time>
      </trkpt>
      <trkpt lat="49.48744" lon="5.77122">
        <ele>291.68</ele>
        <time>2021-05-09T09:26:53Z</time>
      </trkpt>
      <trkpt lat="49.48729" lon="5.77109">
        <ele>292.07</ele>
        <time>2021-05-09T09:27:00Z</time>
      </trkpt>
      <trkpt lat="49.48726" lon="5.77106">
        <ele>292.17</ele>
        <time>2021-05-09T09:27:01Z</time>
      </trkpt>
      <trkpt lat="49.48724" lon="5.77103">
        <ele>292.21</ele>
        <time>2021-05-09T09:27:02Z</time>
      </trkpt>
      <trkpt lat="49.48712" lon="5.77088">
        <ele>292.46</ele>
        <time>2021-05-09T09:27:09Z</time>
      </trkpt>
      <trkpt lat="49.48711" lon="5.77086">
        <ele>292.51</ele>
        <time>2021-05-09T09:27:10Z</time>
      </trkpt>
      <trkpt lat="49.48701" lon="5.77073">
        <ele>293.62</ele>
        <time>2021-05-09T09:27:19Z</time>
      </trkpt>
      <trkpt lat="49.4869" lon="5.77068">
        <ele>294</ele>
        <time>2021-05-09T09:27:40Z</time>
      </trkpt>
      <trkpt lat="49.48688" lon="5.77067">
        <ele>294.01</ele>
        <time>2021-05-09T09:27:41Z</time>
      </trkpt>
      <trkpt lat="49.48686" lon="5.77066">
        <ele>294.01</ele>
        <time>2021-05-09T09:27:42Z</time>
      </trkpt>
      <trkpt lat="49.48684" lon="5.77066">
        <ele>294.01</ele>
        <time>2021-05-09T09:27:43Z</time>
      </trkpt>
      <trkpt lat="49.48682" lon="5.77064">
        <ele>293.99</ele>
        <time>2021-05-09T09:27:44Z</time>
      </trkpt>
      <trkpt lat="49.4868" lon="5.77061">
        <ele>293.95</ele>
        <time>2021-05-09T09:27:45Z</time>
      </trkpt>
      <trkpt lat="49.48678" lon="5.7706">
        <ele>293.94</ele>
        <time>2021-05-09T09:27:46Z</time>
      </trkpt>
      <trkpt lat="49.48678" lon="5.77057">
        <ele>293.96</ele>
        <time>2021-05-09T09:27:47Z</time>
      </trkpt>
      <trkpt lat="49.48676" lon="5.77054">
        <ele>294.04</ele>
        <time>2021-05-09T09:27:48Z</time>
      </trkpt>
      <trkpt lat="49.48675" lon="5.77051">
        <ele>294.14</ele>
        <time>2021-05-09T09:27:49Z</time>
      </trkpt>
      <trkpt lat="49.48674" lon="5.77048">
        <ele>294.21</ele>
        <time>2021-05-09T09:27:50Z</time>
      </trkpt>
      <trkpt lat="49.48672" lon="5.77047">
        <ele>294.28</ele>
        <time>2021-05-09T09:27:51Z</time>
      </trkpt>
      <trkpt lat="49.4867" lon="5.77044">
        <ele>294.34</ele>
        <time>2021-05-09T09:27:52Z</time>
      </trkpt>
      <trkpt lat="49.48668" lon="5.77042">
        <ele>294.43</ele>
        <time>2021-05-09T09:27:53Z</time>
      </trkpt>
      <trkpt lat="49.48666" lon="5.77041">
        <ele>294.53</ele>
        <time>2021-05-09T09:27:54Z</time>
      </trkpt>
      <trkpt lat="49.48664" lon="5.77039">
        <ele>294.61</ele>
        <time>2021-05-09T09:27:55Z</time>
      </trkpt>
      <trkpt lat="49.48663" lon="5.77036">
        <ele>294.71</ele>
        <time>2021-05-09T09:27:56Z</time>
      </trkpt>
      <trkpt lat="49.48662" lon="5.77033">
        <ele>294.86</ele>
        <time>2021-05-09T09:27:57Z</time>
      </trkpt>
      <trkpt lat="49.4866" lon="5.77023">
        <ele>295.34</ele>
        <time>2021-05-09T09:28:00Z</time>
      </trkpt>
      <trkpt lat="49.48659" lon="5.77021">
        <ele>295.54</ele>
        <time>2021-05-09T09:28:01Z</time>
      </trkpt>
      <trkpt lat="49.48658" lon="5.77019">
        <ele>295.71</ele>
        <time>2021-05-09T09:28:02Z</time>
      </trkpt>
      <trkpt lat="49.48649" lon="5.76991">
        <ele>296.93</ele>
        <time>2021-05-09T09:28:12Z</time>
      </trkpt>
      <trkpt lat="49.48646" lon="5.76986">
        <ele>296.96</ele>
        <time>2021-05-09T09:28:14Z</time>
      </trkpt>
      <trkpt lat="49.48645" lon="5.76983">
        <ele>296.96</ele>
        <time>2021-05-09T09:28:15Z</time>
      </trkpt>
      <trkpt lat="49.48643" lon="5.76977">
        <ele>296.95</ele>
        <time>2021-05-09T09:28:17Z</time>
      </trkpt>
      <trkpt lat="49.48642" lon="5.76974">
        <ele>296.98</ele>
        <time>2021-05-09T09:28:18Z</time>
      </trkpt>
      <trkpt lat="49.4864" lon="5.76972">
        <ele>296.99</ele>
        <time>2021-05-09T09:28:19Z</time>
      </trkpt>
      <trkpt lat="49.48639" lon="5.76969">
        <ele>297.02</ele>
        <time>2021-05-09T09:28:20Z</time>
      </trkpt>
      <trkpt lat="49.48638" lon="5.76967">
        <ele>297.03</ele>
        <time>2021-05-09T09:28:21Z</time>
      </trkpt>
      <trkpt lat="49.48637" lon="5.76964">
        <ele>297.05</ele>
        <time>2021-05-09T09:28:22Z</time>
      </trkpt>
      <trkpt lat="49.48635" lon="5.76962">
        <ele>297.06</ele>
        <time>2021-05-09T09:28:23Z</time>
      </trkpt>
      <trkpt lat="49.48634" lon="5.7696">
        <ele>297.07</ele>
        <time>2021-05-09T09:28:24Z</time>
      </trkpt>
      <trkpt lat="49.48633" lon="5.76957">
        <ele>297.07</ele>
        <time>2021-05-09T09:28:25Z</time>
      </trkpt>
      <trkpt lat="49.48628" lon="5.76945">
        <ele>297.43</ele>
        <time>2021-05-09T09:28:30Z</time>
      </trkpt>
      <trkpt lat="49.48626" lon="5.76943">
        <ele>297.49</ele>
        <time>2021-05-09T09:28:31Z</time>
      </trkpt>
      <trkpt lat="49.48625" lon="5.7694">
        <ele>297.57</ele>
        <time>2021-05-09T09:28:32Z</time>
      </trkpt>
      <trkpt lat="49.4862" lon="5.76926">
        <ele>298.13</ele>
        <time>2021-05-09T09:28:39Z</time>
      </trkpt>
      <trkpt lat="49.48616" lon="5.76922">
        <ele>298.28</ele>
        <time>2021-05-09T09:28:42Z</time>
      </trkpt>
      <trkpt lat="49.4861" lon="5.76899">
        <ele>298.6</ele>
        <time>2021-05-09T09:28:50Z</time>
      </trkpt>
      <trkpt lat="49.48604" lon="5.76882">
        <ele>299.03</ele>
        <time>2021-05-09T09:28:56Z</time>
      </trkpt>
      <trkpt lat="49.48603" lon="5.7688">
        <ele>299.2</ele>
        <time>2021-05-09T09:28:57Z</time>
      </trkpt>
      <trkpt lat="49.48602" lon="5.76877">
        <ele>299.2</ele>
        <time>2021-05-09T09:28:58Z</time>
      </trkpt>
      <trkpt lat="49.48599" lon="5.76868">
        <ele>299.32</ele>
        <time>2021-05-09T09:29:01Z</time>
      </trkpt>
      <trkpt lat="49.48599" lon="5.76866">
        <ele>299.34</ele>
        <time>2021-05-09T09:29:02Z</time>
      </trkpt>
      <trkpt lat="49.48598" lon="5.76863">
        <ele>299.35</ele>
        <time>2021-05-09T09:29:03Z</time>
      </trkpt>
      <trkpt lat="49.48583" lon="5.76838">
        <ele>300.92</ele>
        <time>2021-05-09T09:29:14Z</time>
      </trkpt>
      <trkpt lat="49.48587" lon="5.76829">
        <ele>301.2</ele>
        <time>2021-05-09T09:29:38Z</time>
      </trkpt>
      <trkpt lat="49.48578" lon="5.76822">
        <ele>300.81</ele>
        <time>2021-05-09T09:30:08Z</time>
      </trkpt>
      <trkpt lat="49.48578" lon="5.76821">
        <ele>300.81</ele>
        <time>2021-05-09T09:30:09Z</time>
      </trkpt>
      <trkpt lat="49.48577" lon="5.76819">
        <ele>300.78</ele>
        <time>2021-05-09T09:30:10Z</time>
      </trkpt>
      <trkpt lat="49.48576" lon="5.76816">
        <ele>300.73</ele>
        <time>2021-05-09T09:30:11Z</time>
      </trkpt>
      <trkpt lat="49.48575" lon="5.76814">
        <ele>300.7</ele>
        <time>2021-05-09T09:30:12Z</time>
      </trkpt>
      <trkpt lat="49.48574" lon="5.76811">
        <ele>300.67</ele>
        <time>2021-05-09T09:30:13Z</time>
      </trkpt>
      <trkpt lat="49.48573" lon="5.76808">
        <ele>300.65</ele>
        <time>2021-05-09T09:30:14Z</time>
      </trkpt>
      <trkpt lat="49.48572" lon="5.76806">
        <ele>300.65</ele>
        <time>2021-05-09T09:30:15Z</time>
      </trkpt>
      <trkpt lat="49.48571" lon="5.76805">
        <ele>300.67</ele>
        <time>2021-05-09T09:30:16Z</time>
      </trkpt>
      <trkpt lat="49.4857" lon="5.76803">
        <ele>300.72</ele>
        <time>2021-05-09T09:30:17Z</time>
      </trkpt>
      <trkpt lat="49.48569" lon="5.76801">
        <ele>300.81</ele>
        <time>2021-05-09T09:30:18Z</time>
      </trkpt>
      <trkpt lat="49.48562" lon="5.76772">
        <ele>301.25</ele>
        <time>2021-05-09T09:30:28Z</time>
      </trkpt>
      <trkpt lat="49.48563" lon="5.76769">
        <ele>301.31</ele>
        <time>2021-05-09T09:30:29Z</time>
      </trkpt>
      <trkpt lat="49.48563" lon="5.76766">
        <ele>301.38</ele>
        <time>2021-05-09T09:30:30Z</time>
      </trkpt>
      <trkpt lat="49.48562" lon="5.76763">
        <ele>301.44</ele>
        <time>2021-05-09T09:30:31Z</time>
      </trkpt>
      <trkpt lat="49.48561" lon="5.76761">
        <ele>301.52</ele>
        <time>2021-05-09T09:30:32Z</time>
      </trkpt>
      <trkpt lat="49.4856" lon="5.76759">
        <ele>301.59</ele>
        <time>2021-05-09T09:30:33Z</time>
      </trkpt>
      <trkpt lat="49.48559" lon="5.76757">
        <ele>301.7</ele>
        <time>2021-05-09T09:30:34Z</time>
      </trkpt>
      <trkpt lat="49.48558" lon="5.76755">
        <ele>301.7</ele>
        <time>2021-05-09T09:30:35Z</time>
      </trkpt>
      <trkpt lat="49.48557" lon="5.76753">
        <ele>301.75</ele>
        <time>2021-05-09T09:30:36Z</time>
      </trkpt>
      <trkpt lat="49.48555" lon="5.76751">
        <ele>301.83</ele>
        <time>2021-05-09T09:30:37Z</time>
      </trkpt>
      <trkpt lat="49.48553" lon="5.76749">
        <ele>301.91</ele>
        <time>2021-05-09T09:30:38Z</time>
      </trkpt>
      <trkpt lat="49.48551" lon="5.76746">
        <ele>302.24</ele>
        <time>2021-05-09T09:30:40Z</time>
      </trkpt>
      <trkpt lat="49.48546" lon="5.76735">
        <ele>303.22</ele>
        <time>2021-05-09T09:30:45Z</time>
      </trkpt>
      <trkpt lat="49.48542" lon="5.76729">
        <ele>303.99</ele>
        <time>2021-05-09T09:30:49Z</time>
      </trkpt>
      <trkpt lat="49.48542" lon="5.76727">
        <ele>304.09</ele>
        <time>2021-05-09T09:30:50Z</time>
      </trkpt>
      <trkpt lat="49.4854" lon="5.76725">
        <ele>304.18</ele>
        <time>2021-05-09T09:30:51Z</time>
      </trkpt>
      <trkpt lat="49.48536" lon="5.76716">
        <ele>304.91</ele>
        <time>2021-05-09T09:31:04Z</time>
      </trkpt>
      <trkpt lat="49.48526" lon="5.76684">
        <ele>307.53</ele>
        <time>2021-05-09T09:31:23Z</time>
      </trkpt>
      <trkpt lat="49.48513" lon="5.76655">
        <ele>309.13</ele>
        <time>2021-05-09T09:31:44Z</time>
      </trkpt>
      <trkpt lat="49.485" lon="5.7662">
        <ele>310.86</ele>
        <time>2021-05-09T09:32:02Z</time>
      </trkpt>
      <trkpt lat="49.48495" lon="5.76582">
        <ele>312.98</ele>
        <time>2021-05-09T09:32:22Z</time>
      </trkpt>
      <trkpt lat="49.48486" lon="5.76562">
        <ele>314.08</ele>
        <time>2021-05-09T09:32:37Z</time>
      </trkpt>
      <trkpt lat="49.48475" lon="5.76538">
        <ele>315.7</ele>
        <time>2021-05-09T09:32:52Z</time>
      </trkpt>
      <trkpt lat="49.48473" lon="5.76536">
        <ele>315.84</ele>
        <time>2021-05-09T09:32:53Z</time>
      </trkpt>
      <trkpt lat="49.48472" lon="5.76535">
        <ele>315.97</ele>
        <time>2021-05-09T09:32:54Z</time>
      </trkpt>
      <trkpt lat="49.48471" lon="5.76534">
        <ele>316.06</ele>
        <time>2021-05-09T09:32:55Z</time>
      </trkpt>
      <trkpt lat="49.48461" lon="5.76511">
        <ele>317.14</ele>
        <time>2021-05-09T09:33:11Z</time>
      </trkpt>
      <trkpt lat="49.48459" lon="5.76508">
        <ele>317.16</ele>
        <time>2021-05-09T09:33:13Z</time>
      </trkpt>
      <trkpt lat="49.48458" lon="5.76506">
        <ele>317.16</ele>
        <time>2021-05-09T09:33:14Z</time>
      </trkpt>
      <trkpt lat="49.48455" lon="5.76505">
        <ele>317.1</ele>
        <time>2021-05-09T09:33:16Z</time>
      </trkpt>
      <trkpt lat="49.48451" lon="5.76498">
        <ele>317.06</ele>
        <time>2021-05-09T09:33:21Z</time>
      </trkpt>
      <trkpt lat="49.48449" lon="5.76496">
        <ele>317.1</ele>
        <time>2021-05-09T09:33:22Z</time>
      </trkpt>
      <trkpt lat="49.48448" lon="5.76494">
        <ele>317.12</ele>
        <time>2021-05-09T09:33:23Z</time>
      </trkpt>
      <trkpt lat="49.48446" lon="5.76493">
        <ele>317.13</ele>
        <time>2021-05-09T09:33:24Z</time>
      </trkpt>
      <trkpt lat="49.48445" lon="5.7649">
        <ele>317.15</ele>
        <time>2021-05-09T09:33:25Z</time>
      </trkpt>
      <trkpt lat="49.48434" lon="5.76477">
        <ele>317.32</ele>
        <time>2021-05-09T09:33:32Z</time>
      </trkpt>
      <trkpt lat="49.48433" lon="5.76475">
        <ele>317.32</ele>
        <time>2021-05-09T09:33:33Z</time>
      </trkpt>
      <trkpt lat="49.48406" lon="5.76446">
        <ele>316.94</ele>
        <time>2021-05-09T09:33:47Z</time>
      </trkpt>
      <trkpt lat="49.4838" lon="5.76417">
        <ele>316.48</ele>
        <time>2021-05-09T09:34:00Z</time>
      </trkpt>
      <trkpt lat="49.48358" lon="5.76397">
        <ele>317.19</ele>
        <time>2021-05-09T09:34:12Z</time>
      </trkpt>
      <trkpt lat="49.48356" lon="5.76395">
        <ele>317.27</ele>
        <time>2021-05-09T09:34:13Z</time>
      </trkpt>
      <trkpt lat="49.48345" lon="5.76383">
        <ele>317.51</ele>
        <time>2021-05-09T09:34:20Z</time>
      </trkpt>
      <trkpt lat="49.48344" lon="5.76381">
        <ele>317.52</ele>
        <time>2021-05-09T09:34:21Z</time>
      </trkpt>
      <trkpt lat="49.48343" lon="5.76379">
        <ele>317.54</ele>
        <time>2021-05-09T09:34:22Z</time>
      </trkpt>
      <trkpt lat="49.48342" lon="5.76376">
        <ele>317.57</ele>
        <time>2021-05-09T09:34:23Z</time>
      </trkpt>
      <trkpt lat="49.48341" lon="5.76374">
        <ele>317.61</ele>
        <time>2021-05-09T09:34:24Z</time>
      </trkpt>
      <trkpt lat="49.4834" lon="5.76372">
        <ele>317.74</ele>
        <time>2021-05-09T09:34:25Z</time>
      </trkpt>
      <trkpt lat="49.48322" lon="5.76353">
        <ele>318.91</ele>
        <time>2021-05-09T09:34:38Z</time>
      </trkpt>
      <trkpt lat="49.48301" lon="5.76337">
        <ele>318.36</ele>
        <time>2021-05-09T09:34:49Z</time>
      </trkpt>
      <trkpt lat="49.48298" lon="5.76337">
        <ele>318.37</ele>
        <time>2021-05-09T09:34:50Z</time>
      </trkpt>
      <trkpt lat="49.48264" lon="5.76322">
        <ele>318.26</ele>
        <time>2021-05-09T09:35:03Z</time>
      </trkpt>
      <trkpt lat="49.48231" lon="5.76313">
        <ele>318.98</ele>
        <time>2021-05-09T09:35:12Z</time>
      </trkpt>
      <trkpt lat="49.48229" lon="5.76299">
        <ele>320.52</ele>
        <time>2021-05-09T09:35:23Z</time>
      </trkpt>
      <trkpt lat="49.48249" lon="5.76297">
        <ele>322</ele>
        <time>2021-05-09T09:35:44Z</time>
      </trkpt>
      <trkpt lat="49.48264" lon="5.76299">
        <ele>323.93</ele>
        <time>2021-05-09T09:36:01Z</time>
      </trkpt>
      <trkpt lat="49.48292" lon="5.763">
        <ele>326.96</ele>
        <time>2021-05-09T09:36:30Z</time>
      </trkpt>
      <trkpt lat="49.48301" lon="5.76296">
        <ele>328.1</ele>
        <time>2021-05-09T09:36:38Z</time>
      </trkpt>
      <trkpt lat="49.48318" lon="5.76293">
        <ele>329.71</ele>
        <time>2021-05-09T09:37:03Z</time>
      </trkpt>
      <trkpt lat="49.48336" lon="5.76291">
        <ele>332.86</ele>
        <time>2021-05-09T09:37:29Z</time>
      </trkpt>
      <trkpt lat="49.48351" lon="5.76293">
        <ele>334.37</ele>
        <time>2021-05-09T09:37:45Z</time>
      </trkpt>
      <trkpt lat="49.4836" lon="5.76298">
        <ele>334.16</ele>
        <time>2021-05-09T09:37:51Z</time>
      </trkpt>
      <trkpt lat="49.48379" lon="5.76313">
        <ele>333.71</ele>
        <time>2021-05-09T09:38:03Z</time>
      </trkpt>
      <trkpt lat="49.48403" lon="5.76337">
        <ele>333.62</ele>
        <time>2021-05-09T09:38:18Z</time>
      </trkpt>
      <trkpt lat="49.48418" lon="5.76349">
        <ele>333.38</ele>
        <time>2021-05-09T09:38:27Z</time>
      </trkpt>
      <trkpt lat="49.48436" lon="5.76366">
        <ele>333.44</ele>
        <time>2021-05-09T09:38:39Z</time>
      </trkpt>
      <trkpt lat="49.48454" lon="5.76391">
        <ele>333.29</ele>
        <time>2021-05-09T09:38:51Z</time>
      </trkpt>
      <trkpt lat="49.48477" lon="5.76418">
        <ele>332.55</ele>
        <time>2021-05-09T09:39:04Z</time>
      </trkpt>
      <trkpt lat="49.48478" lon="5.7642">
        <ele>332.53</ele>
        <time>2021-05-09T09:39:05Z</time>
      </trkpt>
      <trkpt lat="49.48485" lon="5.76429">
        <ele>332.64</ele>
        <time>2021-05-09T09:39:09Z</time>
      </trkpt>
      <trkpt lat="49.48502" lon="5.76455">
        <ele>332.68</ele>
        <time>2021-05-09T09:39:20Z</time>
      </trkpt>
      <trkpt lat="49.48511" lon="5.76467">
        <ele>333.08</ele>
        <time>2021-05-09T09:39:25Z</time>
      </trkpt>
      <trkpt lat="49.48518" lon="5.76481">
        <ele>333.68</ele>
        <time>2021-05-09T09:39:31Z</time>
      </trkpt>
      <trkpt lat="49.48523" lon="5.76487">
        <ele>333.9</ele>
        <time>2021-05-09T09:39:34Z</time>
      </trkpt>
      <trkpt lat="49.48531" lon="5.76504">
        <ele>334.58</ele>
        <time>2021-05-09T09:39:40Z</time>
      </trkpt>
      <trkpt lat="49.48541" lon="5.76523">
        <ele>334.75</ele>
        <time>2021-05-09T09:39:47Z</time>
      </trkpt>
      <trkpt lat="49.48559" lon="5.7655">
        <ele>334.96</ele>
        <time>2021-05-09T09:39:59Z</time>
      </trkpt>
      <trkpt lat="49.48567" lon="5.76564">
        <ele>335.23</ele>
        <time>2021-05-09T09:40:05Z</time>
      </trkpt>
      <trkpt lat="49.48587" lon="5.76601">
        <ele>336.38</ele>
        <time>2021-05-09T09:40:19Z</time>
      </trkpt>
      <trkpt lat="49.48605" lon="5.76635">
        <ele>336.39</ele>
        <time>2021-05-09T09:40:30Z</time>
      </trkpt>
      <trkpt lat="49.48624" lon="5.76668">
        <ele>336.76</ele>
        <time>2021-05-09T09:40:43Z</time>
      </trkpt>
      <trkpt lat="49.4863" lon="5.76677">
        <ele>337.62</ele>
        <time>2021-05-09T09:40:47Z</time>
      </trkpt>
      <trkpt lat="49.48644" lon="5.76697">
        <ele>338.18</ele>
        <time>2021-05-09T09:40:55Z</time>
      </trkpt>
      <trkpt lat="49.48658" lon="5.76722">
        <ele>338.6</ele>
        <time>2021-05-09T09:41:04Z</time>
      </trkpt>
      <trkpt lat="49.48666" lon="5.76738">
        <ele>338.6</ele>
        <time>2021-05-09T09:41:10Z</time>
      </trkpt>
      <trkpt lat="49.48683" lon="5.76773">
        <ele>338.45</ele>
        <time>2021-05-09T09:41:22Z</time>
      </trkpt>
      <trkpt lat="49.48695" lon="5.7681">
        <ele>337.56</ele>
        <time>2021-05-09T09:41:29Z</time>
      </trkpt>
      <trkpt lat="49.48718" lon="5.76866">
        <ele>334.48</ele>
        <time>2021-05-09T09:41:38Z</time>
      </trkpt>
      <trkpt lat="49.48744" lon="5.76908">
        <ele>333.82</ele>
        <time>2021-05-09T09:41:47Z</time>
      </trkpt>
      <trkpt lat="49.48777" lon="5.76936">
        <ele>335.29</ele>
        <time>2021-05-09T09:41:59Z</time>
      </trkpt>
      <trkpt lat="49.48805" lon="5.7695">
        <ele>336.25</ele>
        <time>2021-05-09T09:42:14Z</time>
      </trkpt>
      <trkpt lat="49.48828" lon="5.76955">
        <ele>337.94</ele>
        <time>2021-05-09T09:42:28Z</time>
      </trkpt>
      <trkpt lat="49.48851" lon="5.76961">
        <ele>338.19</ele>
        <time>2021-05-09T09:42:40Z</time>
      </trkpt>
      <trkpt lat="49.48888" lon="5.7697">
        <ele>337.64</ele>
        <time>2021-05-09T09:42:54Z</time>
      </trkpt>
      <trkpt lat="49.48919" lon="5.76974">
        <ele>337.69</ele>
        <time>2021-05-09T09:43:05Z</time>
      </trkpt>
      <trkpt lat="49.48938" lon="5.76979">
        <ele>337.89</ele>
        <time>2021-05-09T09:43:11Z</time>
      </trkpt>
      <trkpt lat="49.48975" lon="5.76991">
        <ele>338.01</ele>
        <time>2021-05-09T09:43:25Z</time>
      </trkpt>
      <trkpt lat="49.49007" lon="5.76991">
        <ele>338.97</ele>
        <time>2021-05-09T09:43:38Z</time>
      </trkpt>
      <trkpt lat="49.49012" lon="5.76992">
        <ele>339.82</ele>
        <time>2021-05-09T09:43:51Z</time>
      </trkpt>
      <trkpt lat="49.4903" lon="5.76994">
        <ele>340.18</ele>
        <time>2021-05-09T09:43:59Z</time>
      </trkpt>
      <trkpt lat="49.49056" lon="5.76992">
        <ele>341.23</ele>
        <time>2021-05-09T09:44:13Z</time>
      </trkpt>
      <trkpt lat="49.49066" lon="5.76993">
        <ele>341.75</ele>
        <time>2021-05-09T09:44:18Z</time>
      </trkpt>
      <trkpt lat="49.49078" lon="5.76998">
        <ele>341.95</ele>
        <time>2021-05-09T09:44:23Z</time>
      </trkpt>
      <trkpt lat="49.49117" lon="5.77008">
        <ele>340.41</ele>
        <time>2021-05-09T09:44:36Z</time>
      </trkpt>
      <trkpt lat="49.49151" lon="5.77002">
        <ele>339.79</ele>
        <time>2021-05-09T09:44:47Z</time>
      </trkpt>
      <trkpt lat="49.49178" lon="5.76985">
        <ele>339.88</ele>
        <time>2021-05-09T09:44:58Z</time>
      </trkpt>
      <trkpt lat="49.49184" lon="5.76968">
        <ele>341.07</ele>
        <time>2021-05-09T09:45:12Z</time>
      </trkpt>
      <trkpt lat="49.4919" lon="5.76944">
        <ele>342.31</ele>
        <time>2021-05-09T09:45:32Z</time>
      </trkpt>
      <trkpt lat="49.49198" lon="5.76918">
        <ele>344.68</ele>
        <time>2021-05-09T09:45:50Z</time>
      </trkpt>
      <trkpt lat="49.49209" lon="5.76895">
        <ele>346.91</ele>
        <time>2021-05-09T09:46:09Z</time>
      </trkpt>
      <trkpt lat="49.49216" lon="5.76883">
        <ele>347.88</ele>
        <time>2021-05-09T09:46:26Z</time>
      </trkpt>
      <trkpt lat="49.4923" lon="5.76865">
        <ele>348.67</ele>
        <time>2021-05-09T09:46:44Z</time>
      </trkpt>
      <trkpt lat="49.49247" lon="5.76843">
        <ele>349.7</ele>
        <time>2021-05-09T09:47:02Z</time>
      </trkpt>
      <trkpt lat="49.4925" lon="5.76839">
        <ele>349.63</ele>
        <time>2021-05-09T09:47:24Z</time>
      </trkpt>
      <trkpt lat="49.4925" lon="5.76835">
        <ele>349.74</ele>
        <time>2021-05-09T09:47:50Z</time>
      </trkpt>
      <trkpt lat="49.49256" lon="5.76829">
        <ele>349.57</ele>
        <time>2021-05-09T09:48:07Z</time>
      </trkpt>
      <trkpt lat="49.49275" lon="5.76813">
        <ele>350.1</ele>
        <time>2021-05-09T09:48:24Z</time>
      </trkpt>
      <trkpt lat="49.4929" lon="5.76798">
        <ele>350.08</ele>
        <time>2021-05-09T09:48:39Z</time>
      </trkpt>
      <trkpt lat="49.49315" lon="5.76777">
        <ele>349.15</ele>
        <time>2021-05-09T09:48:52Z</time>
      </trkpt>
      <trkpt lat="49.49335" lon="5.76759">
        <ele>349.35</ele>
        <time>2021-05-09T09:49:03Z</time>
      </trkpt>
      <trkpt lat="49.49353" lon="5.76749">
        <ele>349.13</ele>
        <time>2021-05-09T09:49:13Z</time>
      </trkpt>
      <trkpt lat="49.49381" lon="5.76731">
        <ele>349.24</ele>
        <time>2021-05-09T09:49:26Z</time>
      </trkpt>
      <trkpt lat="49.49407" lon="5.7671">
        <ele>350.04</ele>
        <time>2021-05-09T09:49:39Z</time>
      </trkpt>
      <trkpt lat="49.49433" lon="5.76693">
        <ele>350.88</ele>
        <time>2021-05-09T09:49:53Z</time>
      </trkpt>
      <trkpt lat="49.49436" lon="5.76686">
        <ele>351.62</ele>
        <time>2021-05-09T09:49:58Z</time>
      </trkpt>
      <trkpt lat="49.49438" lon="5.76675">
        <ele>352.17</ele>
        <time>2021-05-09T09:50:02Z</time>
      </trkpt>
      <trkpt lat="49.49454" lon="5.76633">
        <ele>355.07</ele>
        <time>2021-05-09T09:50:16Z</time>
      </trkpt>
      <trkpt lat="49.49454" lon="5.76631">
        <ele>355.19</ele>
        <time>2021-05-09T09:50:17Z</time>
      </trkpt>
      <trkpt lat="49.49448" lon="5.76613">
        <ele>356.23</ele>
        <time>2021-05-09T09:50:26Z</time>
      </trkpt>
      <trkpt lat="49.49441" lon="5.76602">
        <ele>358.83</ele>
        <time>2021-05-09T09:50:40Z</time>
      </trkpt>
      <trkpt lat="49.49443" lon="5.76598">
        <ele>358.99</ele>
        <time>2021-05-09T09:50:45Z</time>
      </trkpt>
      <trkpt lat="49.49442" lon="5.76578">
        <ele>359.01</ele>
        <time>2021-05-09T09:50:58Z</time>
      </trkpt>
      <trkpt lat="49.49439" lon="5.76547">
        <ele>360.22</ele>
        <time>2021-05-09T09:51:16Z</time>
      </trkpt>
      <trkpt lat="49.4944" lon="5.76515">
        <ele>361.7</ele>
        <time>2021-05-09T09:51:34Z</time>
      </trkpt>
      <trkpt lat="49.4944" lon="5.76503">
        <ele>362.17</ele>
        <time>2021-05-09T09:51:40Z</time>
      </trkpt>
      <trkpt lat="49.49436" lon="5.76496">
        <ele>362.67</ele>
        <time>2021-05-09T09:51:44Z</time>
      </trkpt>
      <trkpt lat="49.4942" lon="5.76502">
        <ele>362.93</ele>
        <time>2021-05-09T09:51:54Z</time>
      </trkpt>
      <trkpt lat="49.49418" lon="5.76502">
        <ele>362.91</ele>
        <time>2021-05-09T09:51:55Z</time>
      </trkpt>
      <trkpt lat="49.49382" lon="5.76501">
        <ele>362.46</ele>
        <time>2021-05-09T09:52:10Z</time>
      </trkpt>
      <trkpt lat="49.49348" lon="5.7648">
        <ele>362.47</ele>
        <time>2021-05-09T09:52:25Z</time>
      </trkpt>
      <trkpt lat="49.49318" lon="5.76442">
        <ele>363.63</ele>
        <time>2021-05-09T09:52:43Z</time>
      </trkpt>
      <trkpt lat="49.49294" lon="5.76386">
        <ele>364.29</ele>
        <time>2021-05-09T09:53:02Z</time>
      </trkpt>
      <trkpt lat="49.49284" lon="5.76326">
        <ele>365.66</ele>
        <time>2021-05-09T09:53:19Z</time>
      </trkpt>
      <trkpt lat="49.49283" lon="5.76309">
        <ele>365.92</ele>
        <time>2021-05-09T09:53:24Z</time>
      </trkpt>
      <trkpt lat="49.49283" lon="5.76306">
        <ele>365.96</ele>
        <time>2021-05-09T09:53:25Z</time>
      </trkpt>
      <trkpt lat="49.49282" lon="5.76303">
        <ele>366.04</ele>
        <time>2021-05-09T09:53:26Z</time>
      </trkpt>
      <trkpt lat="49.49282" lon="5.763">
        <ele>366.13</ele>
        <time>2021-05-09T09:53:27Z</time>
      </trkpt>
      <trkpt lat="49.49283" lon="5.76296">
        <ele>366.22</ele>
        <time>2021-05-09T09:53:28Z</time>
      </trkpt>
      <trkpt lat="49.49282" lon="5.76264">
        <ele>366.74</ele>
        <time>2021-05-09T09:53:38Z</time>
      </trkpt>
      <trkpt lat="49.4926" lon="5.76253">
        <ele>366.46</ele>
        <time>2021-05-09T09:53:49Z</time>
      </trkpt>
      <trkpt lat="49.49258" lon="5.76253">
        <ele>366.46</ele>
        <time>2021-05-09T09:53:50Z</time>
      </trkpt>
      <trkpt lat="49.49256" lon="5.76254">
        <ele>366.42</ele>
        <time>2021-05-09T09:53:51Z</time>
      </trkpt>
      <trkpt lat="49.49255" lon="5.76256">
        <ele>366.41</ele>
        <time>2021-05-09T09:53:52Z</time>
      </trkpt>
      <trkpt lat="49.49254" lon="5.76259">
        <ele>366.41</ele>
        <time>2021-05-09T09:53:53Z</time>
      </trkpt>
      <trkpt lat="49.49254" lon="5.76262">
        <ele>360.7</ele>
        <time>2021-05-09T09:53:54Z</time>
      </trkpt>
    </trkseg>
  </trk>
</gpx>